Time,TemperatureF,DewpointF,PressureIn,WindDirection,WindDirectionDegrees,WindSpeedMPH,WindSpeedGustMPH,Humidity,HourlyPrecipIn,Conditions,Clouds,dailyrainin,SoftwareType,DateUTC
2013-02-11 00:00:00,30.3,21.7,30.32,SW,215,4.0,6.0,70,0.00,,---,0.00,VWS V14.01,2013-02-11 05:00:00,
2013-02-11 00:01:00,30.3,21.7,30.32,SW,215,3.0,5.0,70,0.00,,---,0.00,VWS V14.01,2013-02-11 05:01:00,
2013-02-11 00:02:00,30.3,21.7,30.32,SW,215,4.0,5.0,70,0.00,,---,0.00,VWS V14.01,2013-02-11 05:02:00,
2013-02-11 00:03:00,30.2,21.3,30.32,SW,215,5.0,5.0,69,0.00,,---,0.00,VWS V14.01,2013-02-11 05:03:00,
2013-02-11 00:04:00,30.2,21.3,30.32,SW,215,4.0,5.0,69,0.00,,---,0.00,VWS V14.01,2013-02-11 05:04:00,
2013-02-11 00:05:00,30.2,20.9,30.32,SW,215,4.0,5.0,68,0.00,,---,0.00,VWS V14.01,2013-02-11 05:05:00,
2013-02-11 00:06:00,30.2,21.3,30.32,SSW,213,4.0,5.0,69,0.00,,---,0.00,VWS V14.01,2013-02-11 05:06:00,
2013-02-11 00:07:00,30.2,21.3,30.32,SSW,211,5.0,6.0,69,0.00,,---,0.00,VWS V14.01,2013-02-11 05:07:00,
2013-02-11 00:08:00,30.1,21.2,30.32,SSW,211,4.0,6.0,69,0.00,,---,0.00,VWS V14.01,2013-02-11 05:08:00,
2013-02-11 00:09:00,30.1,20.8,30.32,SSW,211,5.0,6.0,68,0.00,,---,0.00,VWS V14.01,2013-02-11 05:09:00,
2013-02-11 00:10:00,30.1,20.8,30.32,SSW,211,4.0,6.0,68,0.00,,---,0.00,VWS V14.01,2013-02-11 05:10:00,
2013-02-11 00:11:00,30.1,20.8,30.32,SSW,211,4.0,6.0,68,0.00,,---,0.00,VWS V14.01,2013-02-11 05:11:00,
2013-02-11 00:12:00,30.1,20.5,30.31,SSW,211,4.0,6.0,67,0.00,,---,0.00,VWS V14.01,2013-02-11 05:12:00,
2013-02-11 00:13:00,30.1,20.8,30.31,SSW,209,5.0,6.0,68,0.00,,---,0.00,VWS V14.01,2013-02-11 05:13:00,
2013-02-11 00:14:00,30.1,20.8,30.31,SSW,210,4.0,6.0,68,0.00,,---,0.00,VWS V14.01,2013-02-11 05:14:00,
2013-02-11 00:15:00,30.1,21.2,30.31,SSW,209,5.0,6.0,69,0.00,,---,0.00,VWS V14.01,2013-02-11 05:15:00,
2013-02-11 00:16:00,30.1,21.2,30.31,SSW,209,5.0,6.0,69,0.00,,---,0.00,VWS V14.01,2013-02-11 05:16:00,
2013-02-11 00:17:00,30.1,20.8,30.31,SSW,209,5.0,6.0,68,0.00,,---,0.00,VWS V14.01,2013-02-11 05:17:00,
2013-02-11 00:18:00,30.1,20.8,30.31,SSW,210,5.0,6.0,68,0.00,,---,0.00,VWS V14.01,2013-02-11 05:18:00,
2013-02-11 00:19:00,30.1,20.5,30.30,SSW,209,3.0,6.0,67,0.00,,---,0.00,VWS V14.01,2013-02-11 05:19:00,
2013-02-11 00:20:00,30.1,20.5,30.30,SSW,209,4.0,6.0,67,0.00,,---,0.00,VWS V14.01,2013-02-11 05:20:00,
2013-02-11 00:21:00,30.1,20.5,30.30,SSW,203,5.0,7.0,67,0.00,,---,0.00,VWS V14.01,2013-02-11 05:21:00,
2013-02-11 00:22:00,30.1,20.5,30.30,SSW,205,6.0,7.0,67,0.00,,---,0.00,VWS V14.01,2013-02-11 05:22:00,
2013-02-11 00:23:00,30.1,20.1,30.30,SSW,205,6.0,7.0,66,0.00,,---,0.00,VWS V14.01,2013-02-11 05:23:00,
2013-02-11 00:24:00,30.1,20.1,30.30,SSW,205,5.0,7.0,66,0.00,,---,0.00,VWS V14.01,2013-02-11 05:24:00,
2013-02-11 00:25:00,30.2,20.2,30.30,SSW,206,6.0,7.0,66,0.00,,---,0.00,VWS V14.01,2013-02-11 05:25:00,
2013-02-11 00:26:00,30.1,20.1,30.30,SSW,207,6.0,7.0,66,0.00,,---,0.00,VWS V14.01,2013-02-11 05:26:00,
2013-02-11 00:27:00,30.2,20.6,30.30,SSW,208,6.0,7.0,67,0.00,,---,0.00,VWS V14.01,2013-02-11 05:27:00,
2013-02-11 00:28:00,30.3,20.7,30.30,SSW,209,7.0,7.0,67,0.00,,---,0.00,VWS V14.01,2013-02-11 05:28:00,
2013-02-11 00:29:00,30.3,21.0,30.30,SSW,211,7.0,8.0,68,0.00,,---,0.00,VWS V14.01,2013-02-11 05:29:00,
2013-02-11 00:30:00,30.4,20.8,30.30,SSW,212,7.0,8.0,67,0.00,,---,0.00,VWS V14.01,2013-02-11 05:30:00,
2013-02-11 00:31:00,30.4,20.8,30.30,SSW,213,7.0,7.0,67,0.00,,---,0.00,VWS V14.01,2013-02-11 05:31:00,
2013-02-11 00:32:00,30.4,20.4,30.30,SSW,212,6.0,7.0,66,0.00,,---,0.00,VWS V14.01,2013-02-11 05:32:00,
2013-02-11 00:33:00,30.5,20.5,30.30,SW,214,5.0,7.0,66,0.00,,---,0.00,VWS V14.01,2013-02-11 05:33:00,
2013-02-11 00:34:00,30.5,20.9,30.30,SSW,213,7.0,7.0,67,0.00,,---,0.00,VWS V14.01,2013-02-11 05:34:00,
2013-02-11 00:35:00,30.5,20.9,30.30,SSW,213,7.0,7.0,67,0.00,,---,0.00,VWS V14.01,2013-02-11 05:35:00,
2013-02-11 00:36:00,30.5,20.9,30.30,SW,214,7.0,7.0,67,0.00,,---,0.00,VWS V14.01,2013-02-11 05:36:00,
2013-02-11 00:37:00,30.5,20.1,30.30,SSW,213,6.0,7.0,65,0.00,,---,0.00,VWS V14.01,2013-02-11 05:37:00,
2013-02-11 00:38:00,30.5,20.5,30.29,SSW,213,5.0,7.0,66,0.00,,---,0.00,VWS V14.01,2013-02-11 05:38:00,
2013-02-11 00:39:00,30.5,20.9,30.29,SSW,207,6.0,7.0,67,0.00,,---,0.00,VWS V14.01,2013-02-11 05:39:00,
2013-02-11 00:40:00,30.5,20.9,30.29,SSW,207,3.0,7.0,67,0.00,,---,0.00,VWS V14.01,2013-02-11 05:40:00,
2013-02-11 00:41:00,30.4,20.1,30.29,SSW,207,5.0,7.0,65,0.00,,---,0.00,VWS V14.01,2013-02-11 05:41:00,
2013-02-11 00:42:00,30.4,20.1,30.29,SSW,206,5.0,7.0,65,0.00,,---,0.00,VWS V14.01,2013-02-11 05:42:00,
2013-02-11 00:43:00,30.3,20.0,30.29,SSW,206,6.0,7.0,65,0.00,,---,0.00,VWS V14.01,2013-02-11 05:43:00,
2013-02-11 00:44:00,30.3,20.0,30.29,SSW,206,6.0,7.0,65,0.00,,---,0.00,VWS V14.01,2013-02-11 05:44:00,
2013-02-11 00:45:00,30.2,19.5,30.29,SSW,206,6.0,7.0,64,0.00,,---,0.00,VWS V14.01,2013-02-11 05:45:00,
2013-02-11 00:46:00,30.2,19.1,30.29,SSW,207,6.0,7.0,63,0.00,,---,0.00,VWS V14.01,2013-02-11 05:46:00,
2013-02-11 00:47:00,30.2,18.8,30.29,SSW,207,6.0,7.0,62,0.00,,---,0.00,VWS V14.01,2013-02-11 05:47:00,
2013-02-11 00:48:00,30.2,19.1,30.29,SSW,209,6.0,7.0,63,0.00,,---,0.00,VWS V14.01,2013-02-11 05:48:00,
2013-02-11 00:49:00,30.2,18.8,30.29,SSW,205,8.0,8.0,62,0.00,,---,0.00,VWS V14.01,2013-02-11 05:49:00,
2013-02-11 00:50:00,30.1,18.3,30.29,SSW,209,7.0,8.0,61,0.00,,---,0.00,VWS V14.01,2013-02-11 05:50:00,
2013-02-11 00:51:00,30.1,18.3,30.29,SSW,205,7.0,8.0,61,0.00,,---,0.00,VWS V14.01,2013-02-11 05:51:00,
2013-02-11 00:52:00,30.1,17.9,30.29,SSW,210,8.0,8.0,60,0.00,,---,0.00,VWS V14.01,2013-02-11 05:52:00,
2013-02-11 00:53:00,30.1,17.9,30.29,SSW,211,7.0,8.0,60,0.00,,---,0.00,VWS V14.01,2013-02-11 05:53:00,
2013-02-11 00:54:00,30.2,18.8,30.29,SW,214,7.0,8.0,62,0.00,,---,0.00,VWS V14.01,2013-02-11 05:54:00,
2013-02-11 00:55:00,30.3,20.0,30.29,SW,215,6.0,8.0,65,0.00,,---,0.00,VWS V14.01,2013-02-11 05:55:00,
2013-02-11 00:56:00,30.4,20.8,30.29,SSW,207,6.0,8.0,67,0.00,,---,0.00,VWS V14.01,2013-02-11 05:56:00,
2013-02-11 00:57:00,30.5,21.2,30.29,SSW,209,6.0,8.0,68,0.00,,---,0.00,VWS V14.01,2013-02-11 05:57:00,
2013-02-11 00:58:00,30.4,21.5,30.29,SSW,209,7.0,8.0,69,0.00,,---,0.00,VWS V14.01,2013-02-11 05:58:00,
2013-02-11 00:59:00,30.4,21.5,30.29,SSW,206,7.0,8.0,69,0.00,,---,0.00,VWS V14.01,2013-02-11 05:59:00,
2013-02-11 01:00:00,30.4,21.1,30.29,SSW,207,7.0,8.0,68,0.00,,---,0.00,VWS V14.01,2013-02-11 06:00:00,
2013-02-11 01:01:00,30.3,21.4,30.29,SSW,208,6.0,7.0,69,0.00,,---,0.00,VWS V14.01,2013-02-11 06:01:00,
2013-02-11 01:02:00,30.3,21.0,30.29,SSW,206,6.0,7.0,68,0.00,,---,0.00,VWS V14.01,2013-02-11 06:02:00,
2013-02-11 01:03:00,30.2,20.6,30.29,SSW,206,7.0,7.0,67,0.00,,---,0.00,VWS V14.01,2013-02-11 06:03:00,
2013-02-11 01:04:00,30.1,20.5,30.29,SSW,199,7.0,7.0,67,0.00,,---,0.00,VWS V14.01,2013-02-11 06:04:00,
2013-02-11 01:05:00,30.1,20.5,30.29,SSW,198,7.0,7.0,67,0.00,,---,0.00,VWS V14.01,2013-02-11 06:05:00,
2013-02-11 01:06:00,30.1,20.5,30.29,SSW,195,7.0,7.0,67,0.00,,---,0.00,VWS V14.01,2013-02-11 06:06:00,
2013-02-11 01:07:00,30.0,20.0,30.29,SSW,197,4.0,7.0,66,0.00,,---,0.00,VWS V14.01,2013-02-11 06:07:00,
2013-02-11 01:08:00,29.9,19.9,30.28,South,191,6.0,7.0,66,0.00,,---,0.00,VWS V14.01,2013-02-11 06:08:00,
2013-02-11 01:09:00,29.9,19.9,30.28,SSW,195,5.0,7.0,66,0.00,,---,0.00,VWS V14.01,2013-02-11 06:09:00,
2013-02-11 01:10:00,29.8,19.5,30.28,South,190,5.0,7.0,65,0.00,,---,0.00,VWS V14.01,2013-02-11 06:10:00,
2013-02-11 01:11:00,29.8,19.5,30.28,SSW,193,5.0,7.0,65,0.00,,---,0.00,VWS V14.01,2013-02-11 06:11:00,
2013-02-11 01:12:00,29.8,19.8,30.28,SSW,192,5.0,7.0,66,0.00,,---,0.00,VWS V14.01,2013-02-11 06:12:00,
2013-02-11 01:13:00,29.8,19.8,30.28,SSW,194,5.0,7.0,66,0.00,,---,0.00,VWS V14.01,2013-02-11 06:13:00,
2013-02-11 01:14:00,29.7,19.8,30.28,SSW,194,5.0,7.0,66,0.00,,---,0.00,VWS V14.01,2013-02-11 06:14:00,
2013-02-11 01:15:00,29.7,19.8,30.28,SSW,194,4.0,7.0,66,0.00,,---,0.00,VWS V14.01,2013-02-11 06:15:00,
2013-02-11 01:16:00,29.7,20.5,30.28,SSW,193,6.0,7.0,68,0.00,,---,0.00,VWS V14.01,2013-02-11 06:16:00,
2013-02-11 01:17:00,29.7,20.5,30.28,SSW,196,6.0,7.0,68,0.00,,---,0.00,VWS V14.01,2013-02-11 06:17:00,
2013-02-11 01:18:00,29.7,20.8,30.28,SSW,197,7.0,7.0,69,0.00,,---,0.00,VWS V14.01,2013-02-11 06:18:00,
2013-02-11 01:19:00,29.7,20.8,30.28,SSW,196,4.0,7.0,69,0.00,,---,0.00,VWS V14.01,2013-02-11 06:19:00,
2013-02-11 01:20:00,29.7,20.8,30.28,SSW,197,5.0,7.0,69,0.00,,---,0.00,VWS V14.01,2013-02-11 06:20:00,
2013-02-11 01:21:00,29.7,21.1,30.28,SSW,192,4.0,7.0,70,0.00,,---,0.00,VWS V14.01,2013-02-11 06:21:00,
2013-02-11 01:22:00,29.7,21.5,30.28,South,191,4.0,7.0,71,0.00,,---,0.00,VWS V14.01,2013-02-11 06:22:00,
2013-02-11 01:23:00,29.7,21.5,30.28,South,191,4.0,7.0,71,0.00,,---,0.00,VWS V14.01,2013-02-11 06:23:00,
2013-02-11 01:24:00,29.7,21.5,30.28,South,186,4.0,7.0,71,0.00,,---,0.00,VWS V14.01,2013-02-11 06:24:00,
2013-02-11 01:25:00,29.7,21.5,30.28,South,187,5.0,7.0,71,0.00,,---,0.00,VWS V14.01,2013-02-11 06:25:00,
2013-02-11 01:26:00,29.6,21.4,30.28,South,188,4.0,7.0,71,0.00,,---,0.00,VWS V14.01,2013-02-11 06:26:00,
2013-02-11 01:27:00,29.6,21.4,30.28,South,188,5.0,7.0,71,0.00,,---,0.00,VWS V14.01,2013-02-11 06:27:00,
2013-02-11 01:28:00,29.6,21.4,30.28,South,188,6.0,7.0,71,0.00,,---,0.00,VWS V14.01,2013-02-11 06:28:00,
2013-02-11 01:29:00,29.6,21.4,30.28,South,189,6.0,7.0,71,0.00,,---,0.00,VWS V14.01,2013-02-11 06:29:00,
2013-02-11 01:30:00,29.6,21.7,30.28,South,190,5.0,7.0,72,0.00,,---,0.00,VWS V14.01,2013-02-11 06:30:00,
2013-02-11 01:31:00,29.6,21.7,30.28,SSW,193,6.0,7.0,72,0.00,,---,0.00,VWS V14.01,2013-02-11 06:31:00,
2013-02-11 01:32:00,29.6,21.7,30.28,SSW,194,6.0,7.0,72,0.00,,---,0.00,VWS V14.01,2013-02-11 06:32:00,
2013-02-11 01:33:00,29.6,21.4,30.28,SSW,196,6.0,7.0,71,0.00,,---,0.00,VWS V14.01,2013-02-11 06:33:00,
2013-02-11 01:34:00,29.6,21.0,30.28,SSW,196,6.0,7.0,70,0.00,,---,0.00,VWS V14.01,2013-02-11 06:34:00,
2013-02-11 01:35:00,29.6,21.4,30.29,SSW,198,4.0,7.0,71,0.00,,---,0.00,VWS V14.01,2013-02-11 06:35:00,
2013-02-11 01:36:00,29.6,21.4,30.29,SSW,199,7.0,7.0,71,0.00,,---,0.00,VWS V14.01,2013-02-11 06:36:00,
2013-02-11 01:37:00,29.6,21.4,30.29,SSW,199,7.0,7.0,71,0.00,,---,0.00,VWS V14.01,2013-02-11 06:37:00,
2013-02-11 01:38:00,29.7,21.5,30.29,SSW,204,6.0,7.0,71,0.00,,---,0.00,VWS V14.01,2013-02-11 06:38:00,
2013-02-11 01:39:00,29.7,21.5,30.29,SSW,202,6.0,7.0,71,0.00,,---,0.00,VWS V14.01,2013-02-11 06:39:00,
2013-02-11 01:40:00,29.7,21.1,30.29,SSW,202,5.0,7.0,70,0.00,,---,0.00,VWS V14.01,2013-02-11 06:40:00,
2013-02-11 01:41:00,29.7,21.1,30.28,SSW,202,6.0,7.0,70,0.00,,---,0.00,VWS V14.01,2013-02-11 06:41:00,
2013-02-11 01:42:00,29.7,21.1,30.29,SSW,201,7.0,7.0,70,0.00,,---,0.00,VWS V14.01,2013-02-11 06:42:00,
2013-02-11 01:43:00,29.7,21.1,30.29,SSW,207,5.0,7.0,70,0.00,,---,0.00,VWS V14.01,2013-02-11 06:43:00,
2013-02-11 01:44:00,29.7,21.1,30.29,SSW,207,6.0,7.0,70,0.00,,---,0.00,VWS V14.01,2013-02-11 06:44:00,
2013-02-11 01:45:00,29.7,20.8,30.29,SSW,208,7.0,7.0,69,0.00,,---,0.00,VWS V14.01,2013-02-11 06:45:00,
2013-02-11 01:46:00,29.8,20.9,30.29,SSW,208,7.0,7.0,69,0.00,,---,0.00,VWS V14.01,2013-02-11 06:46:00,
2013-02-11 01:47:00,29.8,20.9,30.29,SSW,209,6.0,7.0,69,0.00,,---,0.00,VWS V14.01,2013-02-11 06:47:00,
2013-02-11 01:48:00,29.8,21.2,30.28,SSW,210,7.0,7.0,70,0.00,,---,0.00,VWS V14.01,2013-02-11 06:48:00,
2013-02-11 01:49:00,29.8,20.9,30.28,SSW,210,5.0,7.0,69,0.00,,---,0.00,VWS V14.01,2013-02-11 06:49:00,
2013-02-11 01:50:00,29.9,20.3,30.28,SSW,211,5.0,7.0,67,0.00,,---,0.00,VWS V14.01,2013-02-11 06:50:00,
2013-02-11 01:51:00,29.9,19.9,30.28,SSW,209,6.0,7.0,66,0.00,,---,0.00,VWS V14.01,2013-02-11 06:51:00,
2013-02-11 01:52:00,29.9,20.3,30.28,SSW,205,6.0,7.0,67,0.00,,---,0.00,VWS V14.01,2013-02-11 06:52:00,
2013-02-11 01:53:00,29.9,20.6,30.28,SSW,207,4.0,7.0,68,0.00,,---,0.00,VWS V14.01,2013-02-11 06:53:00,
2013-02-11 01:54:00,29.8,20.5,30.28,SSW,206,6.0,7.0,68,0.00,,---,0.00,VWS V14.01,2013-02-11 06:54:00,
2013-02-11 01:55:00,29.8,20.2,30.28,SSW,205,6.0,7.0,67,0.00,,---,0.00,VWS V14.01,2013-02-11 06:55:00,
2013-02-11 01:56:00,29.8,20.2,30.28,SSW,203,6.0,7.0,67,0.00,,---,0.00,VWS V14.01,2013-02-11 06:56:00,
2013-02-11 01:57:00,29.8,20.2,30.28,SSW,202,5.0,7.0,67,0.00,,---,0.00,VWS V14.01,2013-02-11 06:57:00,
2013-02-11 01:58:00,29.7,20.1,30.28,SSW,200,7.0,8.0,67,0.00,,---,0.00,VWS V14.01,2013-02-11 06:58:00,
2013-02-11 01:59:00,29.7,20.1,30.28,SSW,199,6.0,8.0,67,0.00,,---,0.00,VWS V14.01,2013-02-11 06:59:00,
2013-02-11 02:00:00,29.7,20.1,30.28,SSW,202,6.0,8.0,67,0.00,,---,0.00,VWS V14.01,2013-02-11 07:00:00,
2013-02-11 02:01:00,29.7,19.4,30.28,SSW,202,7.0,7.0,65,0.00,,---,0.00,VWS V14.01,2013-02-11 07:01:00,
2013-02-11 02:02:00,29.6,19.3,30.28,SSW,202,7.0,7.0,65,0.00,,---,0.00,VWS V14.01,2013-02-11 07:02:00,
2013-02-11 02:03:00,29.6,19.3,30.28,SSW,202,6.0,7.0,65,0.00,,---,0.00,VWS V14.01,2013-02-11 07:03:00,
2013-02-11 02:04:00,29.6,19.3,30.28,SSW,203,7.0,7.0,65,0.00,,---,0.00,VWS V14.01,2013-02-11 07:04:00,
2013-02-11 02:05:00,29.6,18.9,30.28,SSW,203,6.0,7.0,64,0.00,,---,0.00,VWS V14.01,2013-02-11 07:05:00,
2013-02-11 02:06:00,29.6,19.3,30.28,SSW,200,6.0,7.0,65,0.00,,---,0.00,VWS V14.01,2013-02-11 07:06:00,
2013-02-11 02:07:00,29.6,19.6,30.28,South,190,7.0,7.0,66,0.00,,---,0.00,VWS V14.01,2013-02-11 07:07:00,
2013-02-11 02:08:00,29.6,19.6,30.28,SSW,195,6.0,7.0,66,0.00,,---,0.00,VWS V14.01,2013-02-11 07:08:00,
2013-02-11 02:09:00,29.6,19.6,30.28,SSW,198,7.0,7.0,66,0.00,,---,0.00,VWS V14.01,2013-02-11 07:09:00,
2013-02-11 02:10:00,29.6,19.6,30.28,SSW,198,7.0,7.0,66,0.00,,---,0.00,VWS V14.01,2013-02-11 07:10:00,
2013-02-11 02:11:00,29.5,19.2,30.27,South,191,5.0,7.0,65,0.00,,---,0.00,VWS V14.01,2013-02-11 07:11:00,
2013-02-11 02:12:00,29.5,19.2,30.27,SSW,193,5.0,7.0,65,0.00,,---,0.00,VWS V14.01,2013-02-11 07:12:00,
2013-02-11 02:13:00,29.5,19.2,30.27,SSW,198,6.0,7.0,65,0.00,,---,0.00,VWS V14.01,2013-02-11 07:13:00,
2013-02-11 02:14:00,29.5,19.2,30.27,SSW,198,5.0,7.0,65,0.00,,---,0.00,VWS V14.01,2013-02-11 07:14:00,
2013-02-11 02:15:00,29.5,19.6,30.27,SSW,196,5.0,7.0,66,0.00,,---,0.00,VWS V14.01,2013-02-11 07:15:00,
2013-02-11 02:16:00,29.4,19.5,30.27,SSW,197,7.0,7.0,66,0.00,,---,0.00,VWS V14.01,2013-02-11 07:16:00,
2013-02-11 02:17:00,29.4,19.5,30.27,SSW,197,5.0,7.0,66,0.00,,---,0.00,VWS V14.01,2013-02-11 07:17:00,
2013-02-11 02:18:00,29.4,19.5,30.27,South,183,6.0,7.0,66,0.00,,---,0.00,VWS V14.01,2013-02-11 07:18:00,
2013-02-11 02:19:00,29.4,19.5,30.27,South,182,4.0,7.0,66,0.00,,---,0.00,VWS V14.01,2013-02-11 07:19:00,
2013-02-11 02:20:00,29.4,19.5,30.27,South,184,4.0,7.0,66,0.00,,---,0.00,VWS V14.01,2013-02-11 07:20:00,
2013-02-11 02:21:00,29.4,19.8,30.27,South,184,6.0,7.0,67,0.00,,---,0.00,VWS V14.01,2013-02-11 07:21:00,
2013-02-11 02:22:00,29.4,19.8,30.27,South,182,5.0,7.0,67,0.00,,---,0.00,VWS V14.01,2013-02-11 07:22:00,
2013-02-11 02:23:00,29.4,20.2,30.27,South,186,5.0,7.0,68,0.00,,---,0.00,VWS V14.01,2013-02-11 07:23:00,
2013-02-11 02:24:00,29.4,20.5,30.27,South,189,5.0,7.0,69,0.00,,---,0.00,VWS V14.01,2013-02-11 07:24:00,
2013-02-11 02:25:00,29.3,20.4,30.27,South,178,8.0,8.0,69,0.00,,---,0.00,VWS V14.01,2013-02-11 07:25:00,
2013-02-11 02:26:00,29.3,20.7,30.27,South,188,7.0,8.0,70,0.00,,---,0.00,VWS V14.01,2013-02-11 07:26:00,
2013-02-11 02:27:00,29.3,20.7,30.27,SSW,193,4.0,8.0,70,0.00,,---,0.00,VWS V14.01,2013-02-11 07:27:00,
2013-02-11 02:28:00,29.2,20.6,30.27,South,185,6.0,8.0,70,0.00,,---,0.00,VWS V14.01,2013-02-11 07:28:00,
2013-02-11 02:29:00,29.2,21.0,30.27,South,188,4.0,8.0,71,0.00,,---,0.00,VWS V14.01,2013-02-11 07:29:00,
2013-02-11 02:30:00,29.1,20.9,30.27,South,188,4.0,8.0,71,0.00,,---,0.00,VWS V14.01,2013-02-11 07:30:00,
2013-02-11 02:31:00,29.1,20.9,30.27,South,190,5.0,7.0,71,0.00,,---,0.00,VWS V14.01,2013-02-11 07:31:00,
2013-02-11 02:32:00,29.1,20.9,30.27,South,191,6.0,7.0,71,0.00,,---,0.00,VWS V14.01,2013-02-11 07:32:00,
2013-02-11 02:33:00,29.1,21.2,30.27,SSW,192,6.0,7.0,72,0.00,,---,0.00,VWS V14.01,2013-02-11 07:33:00,
2013-02-11 02:34:00,29.0,21.1,30.27,South,187,5.0,7.0,72,0.00,,---,0.00,VWS V14.01,2013-02-11 07:34:00,
2013-02-11 02:35:00,29.0,21.1,30.27,SSW,194,5.0,7.0,72,0.00,,---,0.00,VWS V14.01,2013-02-11 07:35:00,
2013-02-11 02:36:00,29.0,21.1,30.27,SSW,193,5.0,7.0,72,0.00,,---,0.00,VWS V14.01,2013-02-11 07:36:00,
2013-02-11 02:37:00,29.0,21.1,30.27,SSW,192,5.0,7.0,72,0.00,,---,0.00,VWS V14.01,2013-02-11 07:37:00,
2013-02-11 02:38:00,29.0,21.1,30.27,SSW,192,4.0,7.0,72,0.00,,---,0.00,VWS V14.01,2013-02-11 07:38:00,
2013-02-11 02:39:00,29.0,21.1,30.27,SSW,192,3.0,7.0,72,0.00,,---,0.00,VWS V14.01,2013-02-11 07:39:00,
2013-02-11 02:40:00,29.0,21.1,30.27,South,179,4.0,7.0,72,0.00,,---,0.00,VWS V14.01,2013-02-11 07:40:00,
2013-02-11 02:41:00,29.0,21.4,30.26,South,182,5.0,7.0,73,0.00,,---,0.00,VWS V14.01,2013-02-11 07:41:00,
2013-02-11 02:42:00,29.0,21.4,30.26,South,182,3.0,7.0,73,0.00,,---,0.00,VWS V14.01,2013-02-11 07:42:00,
2013-02-11 02:43:00,29.0,21.4,30.26,South,176,3.0,7.0,73,0.00,,---,0.00,VWS V14.01,2013-02-11 07:43:00,
2013-02-11 02:44:00,29.0,21.4,30.26,South,177,4.0,7.0,73,0.00,,---,0.00,VWS V14.01,2013-02-11 07:44:00,
2013-02-11 02:45:00,29.0,21.1,30.26,South,178,3.0,7.0,72,0.00,,---,0.00,VWS V14.01,2013-02-11 07:45:00,
2013-02-11 02:46:00,29.0,21.1,30.26,South,179,3.0,7.0,72,0.00,,---,0.00,VWS V14.01,2013-02-11 07:46:00,
2013-02-11 02:47:00,28.9,21.4,30.26,South,180,6.0,7.0,73,0.00,,---,0.00,VWS V14.01,2013-02-11 07:47:00,
2013-02-11 02:48:00,29.0,21.4,30.26,South,180,4.0,7.0,73,0.00,,---,0.00,VWS V14.01,2013-02-11 07:48:00,
2013-02-11 02:49:00,29.0,21.4,30.26,South,182,5.0,7.0,73,0.00,,---,0.00,VWS V14.01,2013-02-11 07:49:00,
2013-02-11 02:50:00,29.0,21.4,30.26,South,182,4.0,7.0,73,0.00,,---,0.00,VWS V14.01,2013-02-11 07:50:00,
2013-02-11 02:51:00,29.0,21.4,30.26,South,184,4.0,7.0,73,0.00,,---,0.00,VWS V14.01,2013-02-11 07:51:00,
2013-02-11 02:52:00,29.0,21.4,30.26,South,182,4.0,7.0,73,0.00,,---,0.00,VWS V14.01,2013-02-11 07:52:00,
2013-02-11 02:53:00,29.0,21.4,30.26,South,181,5.0,7.0,73,0.00,,---,0.00,VWS V14.01,2013-02-11 07:53:00,
2013-02-11 02:54:00,29.0,21.4,30.26,South,186,5.0,7.0,73,0.00,,---,0.00,VWS V14.01,2013-02-11 07:54:00,
2013-02-11 02:55:00,29.0,21.4,30.26,SSW,194,5.0,7.0,73,0.00,,---,0.00,VWS V14.01,2013-02-11 07:55:00,
2013-02-11 02:56:00,29.1,21.5,30.26,SSW,192,7.0,8.0,73,0.00,,---,0.00,VWS V14.01,2013-02-11 07:56:00,
2013-02-11 02:57:00,29.1,21.5,30.26,SSW,194,6.0,8.0,73,0.00,,---,0.00,VWS V14.01,2013-02-11 07:57:00,
2013-02-11 02:58:00,29.1,21.5,30.26,SSW,196,7.0,8.0,73,0.00,,---,0.00,VWS V14.01,2013-02-11 07:58:00,
2013-02-11 02:59:00,29.2,21.3,30.26,SSW,202,6.0,8.0,72,0.00,,---,0.00,VWS V14.01,2013-02-11 07:59:00,
2013-02-11 03:00:00,29.2,21.3,30.26,SSW,203,6.0,8.0,72,0.00,,---,0.00,VWS V14.01,2013-02-11 08:00:00,
2013-02-11 03:01:00,29.2,21.0,30.26,SSW,204,6.0,7.0,71,0.00,,---,0.00,VWS V14.01,2013-02-11 08:01:00,
2013-02-11 03:02:00,29.3,21.1,30.26,SSW,200,7.0,8.0,71,0.00,,---,0.00,VWS V14.01,2013-02-11 08:02:00,
2013-02-11 03:03:00,29.3,21.1,30.26,SSW,198,7.0,9.0,71,0.00,,---,0.00,VWS V14.01,2013-02-11 08:03:00,
2013-02-11 03:04:00,29.4,21.2,30.26,SSW,197,6.0,9.0,71,0.00,,---,0.00,VWS V14.01,2013-02-11 08:04:00,
2013-02-11 03:05:00,29.4,21.2,30.26,SSW,194,6.0,9.0,71,0.00,,---,0.00,VWS V14.01,2013-02-11 08:05:00,
2013-02-11 03:06:00,29.4,21.5,30.26,SSW,200,7.0,9.0,72,0.00,,---,0.00,VWS V14.01,2013-02-11 08:06:00,
2013-02-11 03:07:00,29.4,21.2,30.26,SSW,202,7.0,9.0,71,0.00,,---,0.00,VWS V14.01,2013-02-11 08:07:00,
2013-02-11 03:08:00,29.4,21.2,30.25,SSW,200,7.0,9.0,71,0.00,,---,0.00,VWS V14.01,2013-02-11 08:08:00,
2013-02-11 03:09:00,29.4,20.8,30.25,SSW,199,8.0,9.0,70,0.00,,---,0.00,VWS V14.01,2013-02-11 08:09:00,
2013-02-11 03:10:00,29.4,20.8,30.25,SSW,197,7.0,9.0,70,0.00,,---,0.00,VWS V14.01,2013-02-11 08:10:00,
2013-02-11 03:11:00,29.4,20.5,30.25,SSW,203,8.0,10.0,69,0.00,,---,0.00,VWS V14.01,2013-02-11 08:11:00,
2013-02-11 03:12:00,29.4,20.2,30.25,SSW,201,9.0,10.0,68,0.00,,---,0.00,VWS V14.01,2013-02-11 08:12:00,
2013-02-11 03:13:00,29.4,20.2,30.25,SSW,195,7.0,10.0,68,0.00,,---,0.00,VWS V14.01,2013-02-11 08:13:00,
2013-02-11 03:14:00,29.4,20.2,30.25,SSW,200,8.0,10.0,68,0.00,,---,0.00,VWS V14.01,2013-02-11 08:14:00,
2013-02-11 03:15:00,29.4,20.2,30.25,SSW,202,7.0,10.0,68,0.00,,---,0.00,VWS V14.01,2013-02-11 08:15:00,
2013-02-11 03:16:00,29.4,20.2,30.25,SSW,198,8.0,10.0,68,0.00,,---,0.00,VWS V14.01,2013-02-11 08:16:00,
2013-02-11 03:17:00,29.4,20.2,30.25,SSW,201,7.0,10.0,68,0.00,,---,0.00,VWS V14.01,2013-02-11 08:17:00,
2013-02-11 03:18:00,29.4,20.2,30.25,SSW,196,7.0,10.0,68,0.00,,---,0.00,VWS V14.01,2013-02-11 08:18:00,
2013-02-11 03:19:00,29.4,20.2,30.25,SSW,204,8.0,10.0,68,0.00,,---,0.00,VWS V14.01,2013-02-11 08:19:00,
2013-02-11 03:20:00,29.4,20.2,30.25,SSW,205,9.0,10.0,68,0.00,,---,0.00,VWS V14.01,2013-02-11 08:20:00,
2013-02-11 03:21:00,29.4,20.2,30.25,SSW,205,7.0,10.0,68,0.00,,---,0.00,VWS V14.01,2013-02-11 08:21:00,
2013-02-11 03:22:00,29.4,19.8,30.25,SSW,205,8.0,10.0,67,0.00,,---,0.00,VWS V14.01,2013-02-11 08:22:00,
2013-02-11 03:23:00,29.4,19.8,30.25,SSW,205,7.0,11.0,67,0.00,,---,0.00,VWS V14.01,2013-02-11 08:23:00,
2013-02-11 03:24:00,29.4,19.5,30.25,SSW,207,9.0,11.0,66,0.00,,---,0.00,VWS V14.01,2013-02-11 08:24:00,
2013-02-11 03:25:00,29.4,19.8,30.25,SSW,192,8.0,11.0,67,0.00,,---,0.00,VWS V14.01,2013-02-11 08:25:00,
2013-02-11 03:26:00,29.4,19.8,30.25,SSW,202,8.0,11.0,67,0.00,,---,0.00,VWS V14.01,2013-02-11 08:26:00,
2013-02-11 03:27:00,29.4,19.8,30.25,SSW,203,7.0,11.0,67,0.00,,---,0.00,VWS V14.01,2013-02-11 08:27:00,
2013-02-11 03:28:00,29.4,20.2,30.25,SSW,201,8.0,11.0,68,0.00,,---,0.00,VWS V14.01,2013-02-11 08:28:00,
2013-02-11 03:29:00,29.3,19.7,30.25,SSW,207,7.0,11.0,67,0.00,,---,0.00,VWS V14.01,2013-02-11 08:29:00,
2013-02-11 03:30:00,29.3,19.7,30.25,SSW,202,8.0,11.0,67,0.00,,---,0.00,VWS V14.01,2013-02-11 08:30:00,
2013-02-11 03:31:00,29.3,20.1,30.25,SSW,200,8.0,10.0,68,0.00,,---,0.00,VWS V14.01,2013-02-11 08:31:00,
2013-02-11 03:32:00,29.4,20.2,30.25,SSW,204,7.0,10.0,68,0.00,,---,0.00,VWS V14.01,2013-02-11 08:32:00,
2013-02-11 03:33:00,29.3,20.4,30.25,SSW,203,7.0,10.0,69,0.00,,---,0.00,VWS V14.01,2013-02-11 08:33:00,
2013-02-11 03:34:00,29.3,20.4,30.25,SSW,201,6.0,10.0,69,0.00,,---,0.00,VWS V14.01,2013-02-11 08:34:00,
2013-02-11 03:35:00,29.3,20.4,30.25,SSW,196,6.0,10.0,69,0.00,,---,0.00,VWS V14.01,2013-02-11 08:35:00,
2013-02-11 03:36:00,29.3,20.4,30.25,SSW,192,6.0,10.0,69,0.00,,---,0.00,VWS V14.01,2013-02-11 08:36:00,
2013-02-11 03:37:00,29.3,20.7,30.25,SSW,199,7.0,10.0,70,0.00,,---,0.00,VWS V14.01,2013-02-11 08:37:00,
2013-02-11 03:38:00,29.3,20.7,30.25,SSW,199,6.0,10.0,70,0.00,,---,0.00,VWS V14.01,2013-02-11 08:38:00,
2013-02-11 03:39:00,29.3,20.7,30.25,SSW,197,7.0,10.0,70,0.00,,---,0.00,VWS V14.01,2013-02-11 08:39:00,
2013-02-11 03:40:00,29.3,20.7,30.25,SSW,198,7.0,10.0,70,0.00,,---,0.00,VWS V14.01,2013-02-11 08:40:00,
2013-02-11 03:41:00,29.3,20.7,30.25,SSW,194,7.0,10.0,70,0.00,,---,0.00,VWS V14.01,2013-02-11 08:41:00,
2013-02-11 03:42:00,29.3,21.1,30.25,SSW,196,6.0,10.0,71,0.00,,---,0.00,VWS V14.01,2013-02-11 08:42:00,
2013-02-11 03:43:00,29.2,21.0,30.25,SSW,196,6.0,10.0,71,0.00,,---,0.00,VWS V14.01,2013-02-11 08:43:00,
2013-02-11 03:44:00,29.3,21.1,30.25,South,186,8.0,10.0,71,0.00,,---,0.00,VWS V14.01,2013-02-11 08:44:00,
2013-02-11 03:45:00,29.3,21.1,30.25,SSW,201,7.0,10.0,71,0.00,,---,0.00,VWS V14.01,2013-02-11 08:45:00,
2013-02-11 03:46:00,29.3,21.1,30.25,SSW,206,7.0,10.0,71,0.00,,---,0.00,VWS V14.01,2013-02-11 08:46:00,
2013-02-11 03:47:00,29.3,21.1,30.25,SSW,194,5.0,10.0,71,0.00,,---,0.00,VWS V14.01,2013-02-11 08:47:00,
2013-02-11 03:48:00,29.3,21.1,30.25,SSW,205,8.0,10.0,71,0.00,,---,0.00,VWS V14.01,2013-02-11 08:48:00,
2013-02-11 03:49:00,29.3,21.1,30.25,SSW,200,8.0,10.0,71,0.00,,---,0.00,VWS V14.01,2013-02-11 08:49:00,
2013-02-11 03:50:00,29.3,21.1,30.25,SSW,201,7.0,10.0,71,0.00,,---,0.00,VWS V14.01,2013-02-11 08:50:00,
2013-02-11 03:51:00,29.3,21.4,30.25,SSW,198,6.0,10.0,72,0.00,,---,0.00,VWS V14.01,2013-02-11 08:51:00,
2013-02-11 03:52:00,29.3,21.4,30.25,SSW,193,7.0,10.0,72,0.00,,---,0.00,VWS V14.01,2013-02-11 08:52:00,
2013-02-11 03:53:00,29.3,21.7,30.25,SSW,200,7.0,10.0,73,0.00,,---,0.00,VWS V14.01,2013-02-11 08:53:00,
2013-02-11 03:54:00,29.3,21.7,30.25,SSW,199,7.0,10.0,73,0.00,,---,0.00,VWS V14.01,2013-02-11 08:54:00,
2013-02-11 03:55:00,29.3,21.4,30.25,SSW,196,6.0,10.0,72,0.00,,---,0.00,VWS V14.01,2013-02-11 08:55:00,
2013-02-11 03:56:00,29.3,21.4,30.25,South,190,5.0,10.0,72,0.00,,---,0.00,VWS V14.01,2013-02-11 08:56:00,
2013-02-11 03:57:00,29.3,21.7,30.25,SSW,202,6.0,10.0,73,0.00,,---,0.00,VWS V14.01,2013-02-11 08:57:00,
2013-02-11 03:58:00,29.3,21.7,30.25,SSW,202,8.0,10.0,73,0.00,,---,0.00,VWS V14.01,2013-02-11 08:58:00,
2013-02-11 03:59:00,29.3,21.7,30.25,SSW,203,7.0,10.0,73,0.00,,---,0.00,VWS V14.01,2013-02-11 08:59:00,
2013-02-11 04:00:00,29.3,22.1,30.25,SSW,202,7.0,10.0,74,0.00,,---,0.00,VWS V14.01,2013-02-11 09:00:00,
2013-02-11 04:01:00,29.3,22.1,30.25,SSW,201,7.0,9.0,74,0.00,,---,0.00,VWS V14.01,2013-02-11 09:01:00,
2013-02-11 04:02:00,29.3,22.1,30.25,SSW,201,7.0,9.0,74,0.00,,---,0.00,VWS V14.01,2013-02-11 09:02:00,
2013-02-11 04:03:00,29.3,22.1,30.25,SSW,195,7.0,9.0,74,0.00,,---,0.00,VWS V14.01,2013-02-11 09:03:00,
2013-02-11 04:04:00,29.3,21.7,30.25,SSW,200,9.0,9.0,73,0.00,,---,0.00,VWS V14.01,2013-02-11 09:04:00,
2013-02-11 04:05:00,29.3,21.7,30.25,SSW,204,7.0,9.0,73,0.00,,---,0.00,VWS V14.01,2013-02-11 09:05:00,
2013-02-11 04:06:00,29.3,21.7,30.25,SSW,201,7.0,9.0,73,0.00,,---,0.00,VWS V14.01,2013-02-11 09:06:00,
2013-02-11 04:07:00,29.2,22.0,30.25,SSW,200,6.0,9.0,74,0.00,,---,0.00,VWS V14.01,2013-02-11 09:07:00,
2013-02-11 04:08:00,29.2,22.0,30.24,SSW,207,7.0,9.0,74,0.00,,---,0.00,VWS V14.01,2013-02-11 09:08:00,
2013-02-11 04:09:00,29.2,22.0,30.24,SSW,198,7.0,9.0,74,0.00,,---,0.00,VWS V14.01,2013-02-11 09:09:00,
2013-02-11 04:10:00,29.2,22.0,30.24,South,180,9.0,9.0,74,0.00,,---,0.00,VWS V14.01,2013-02-11 09:10:00,
2013-02-11 04:11:00,29.2,22.0,30.24,SSW,198,7.0,9.0,74,0.00,,---,0.00,VWS V14.01,2013-02-11 09:11:00,
2013-02-11 04:12:00,29.2,22.0,30.24,SSW,207,7.0,9.0,74,0.00,,---,0.00,VWS V14.01,2013-02-11 09:12:00,
2013-02-11 04:13:00,29.2,22.0,30.25,SSW,200,6.0,9.0,74,0.00,,---,0.00,VWS V14.01,2013-02-11 09:13:00,
2013-02-11 04:14:00,29.2,22.0,30.25,SSW,202,7.0,9.0,74,0.00,,---,0.00,VWS V14.01,2013-02-11 09:14:00,
2013-02-11 04:15:00,29.2,22.0,30.25,SSW,202,7.0,9.0,74,0.00,,---,0.00,VWS V14.01,2013-02-11 09:15:00,
2013-02-11 04:16:00,29.2,22.0,30.25,SSW,203,7.0,9.0,74,0.00,,---,0.00,VWS V14.01,2013-02-11 09:16:00,
2013-02-11 04:17:00,29.3,22.4,30.25,SSW,208,7.0,9.0,75,0.00,,---,0.00,VWS V14.01,2013-02-11 09:17:00,
2013-02-11 04:18:00,29.4,22.5,30.25,SSW,200,8.0,9.0,75,0.00,,---,0.00,VWS V14.01,2013-02-11 09:18:00,
2013-02-11 04:19:00,29.4,22.5,30.25,SSW,204,8.0,11.0,75,0.00,,---,0.00,VWS V14.01,2013-02-11 09:19:00,
2013-02-11 04:20:00,29.4,22.5,30.24,SSW,206,8.0,11.0,75,0.00,,---,0.00,VWS V14.01,2013-02-11 09:20:00,
2013-02-11 04:21:00,29.4,22.1,30.24,SSW,202,7.0,11.0,74,0.00,,---,0.00,VWS V14.01,2013-02-11 09:21:00,
2013-02-11 04:22:00,29.4,22.1,30.24,SSW,202,8.0,11.0,74,0.00,,---,0.00,VWS V14.01,2013-02-11 09:22:00,
2013-02-11 04:23:00,29.5,22.2,30.24,SSW,202,9.0,11.0,74,0.00,,---,0.00,VWS V14.01,2013-02-11 09:23:00,
2013-02-11 04:24:00,29.6,22.4,30.24,SSW,206,8.0,11.0,74,0.00,,---,0.00,VWS V14.01,2013-02-11 09:24:00,
2013-02-11 04:25:00,29.6,22.4,30.24,SSW,199,11.0,11.0,74,0.00,,---,0.00,VWS V14.01,2013-02-11 09:25:00,
2013-02-11 04:26:00,29.6,22.0,30.24,SSW,205,7.0,11.0,73,0.00,,---,0.00,VWS V14.01,2013-02-11 09:26:00,
2013-02-11 04:27:00,29.6,22.0,30.24,SSW,198,7.0,11.0,73,0.00,,---,0.00,VWS V14.01,2013-02-11 09:27:00,
2013-02-11 04:28:00,29.6,22.0,30.24,SSW,202,7.0,11.0,73,0.00,,---,0.00,VWS V14.01,2013-02-11 09:28:00,
2013-02-11 04:29:00,29.6,22.0,30.24,SSW,209,7.0,11.0,73,0.00,,---,0.00,VWS V14.01,2013-02-11 09:29:00,
2013-02-11 04:30:00,29.7,22.1,30.24,SSW,202,8.0,11.0,73,0.00,,---,0.00,VWS V14.01,2013-02-11 09:30:00,
2013-02-11 04:31:00,29.6,22.0,30.25,SSW,207,8.0,10.0,73,0.00,,---,0.00,VWS V14.01,2013-02-11 09:31:00,
2013-02-11 04:32:00,29.7,22.1,30.25,SSW,201,9.0,10.0,73,0.00,,---,0.00,VWS V14.01,2013-02-11 09:32:00,
2013-02-11 04:33:00,29.7,22.4,30.25,SSW,210,7.0,10.0,74,0.00,,---,0.00,VWS V14.01,2013-02-11 09:33:00,
2013-02-11 04:34:00,29.7,22.4,30.25,SSW,210,7.0,10.0,74,0.00,,---,0.00,VWS V14.01,2013-02-11 09:34:00,
2013-02-11 04:35:00,29.8,22.5,30.25,SSW,207,9.0,10.0,74,0.00,,---,0.00,VWS V14.01,2013-02-11 09:35:00,
2013-02-11 04:36:00,29.8,22.5,30.25,SSW,206,6.0,10.0,74,0.00,,---,0.00,VWS V14.01,2013-02-11 09:36:00,
2013-02-11 04:37:00,29.8,22.5,30.25,SSW,200,7.0,10.0,74,0.00,,---,0.00,VWS V14.01,2013-02-11 09:37:00,
2013-02-11 04:38:00,29.8,22.5,30.24,SSW,203,7.0,10.0,74,0.00,,---,0.00,VWS V14.01,2013-02-11 09:38:00,
2013-02-11 04:39:00,29.8,22.5,30.24,SSW,200,7.0,10.0,74,0.00,,---,0.00,VWS V14.01,2013-02-11 09:39:00,
2013-02-11 04:40:00,29.8,22.5,30.24,SSW,200,6.0,10.0,74,0.00,,---,0.00,VWS V14.01,2013-02-11 09:40:00,
2013-02-11 04:41:00,29.8,22.2,30.24,SSW,199,7.0,10.0,73,0.00,,---,0.00,VWS V14.01,2013-02-11 09:41:00,
2013-02-11 04:42:00,29.8,22.2,30.24,SSW,195,6.0,10.0,73,0.00,,---,0.00,VWS V14.01,2013-02-11 09:42:00,
2013-02-11 04:43:00,29.7,22.1,30.24,SSW,194,5.0,10.0,73,0.00,,---,0.00,VWS V14.01,2013-02-11 09:43:00,
2013-02-11 04:44:00,29.8,22.2,30.23,SSW,199,6.0,10.0,73,0.00,,---,0.00,VWS V14.01,2013-02-11 09:44:00,
2013-02-11 04:45:00,29.8,22.2,30.23,SSW,194,4.0,10.0,73,0.00,,---,0.00,VWS V14.01,2013-02-11 09:45:00,
2013-02-11 04:46:00,29.7,22.1,30.23,SSW,195,5.0,10.0,73,0.00,,---,0.00,VWS V14.01,2013-02-11 09:46:00,
2013-02-11 04:47:00,29.7,22.1,30.23,SSW,196,5.0,10.0,73,0.00,,---,0.00,VWS V14.01,2013-02-11 09:47:00,
2013-02-11 04:48:00,29.7,22.1,30.23,SSW,200,6.0,10.0,73,0.00,,---,0.00,VWS V14.01,2013-02-11 09:48:00,
2013-02-11 04:49:00,29.7,22.1,30.23,South,187,6.0,10.0,73,0.00,,---,0.00,VWS V14.01,2013-02-11 09:49:00,
2013-02-11 04:50:00,29.7,22.1,30.23,South,187,7.0,10.0,73,0.00,,---,0.00,VWS V14.01,2013-02-11 09:50:00,
2013-02-11 04:51:00,29.7,22.1,30.23,South,184,5.0,10.0,73,0.00,,---,0.00,VWS V14.01,2013-02-11 09:51:00,
2013-02-11 04:52:00,29.7,22.1,30.23,South,188,5.0,10.0,73,0.00,,---,0.00,VWS V14.01,2013-02-11 09:52:00,
2013-02-11 04:53:00,29.7,22.1,30.23,South,189,4.0,10.0,73,0.00,,---,0.00,VWS V14.01,2013-02-11 09:53:00,
2013-02-11 04:54:00,29.7,22.1,30.23,South,190,5.0,10.0,73,0.00,,---,0.00,VWS V14.01,2013-02-11 09:54:00,
2013-02-11 04:55:00,29.7,22.1,30.22,South,190,5.0,10.0,73,0.00,,---,0.00,VWS V14.01,2013-02-11 09:55:00,
2013-02-11 04:56:00,29.7,22.4,30.22,South,190,6.0,10.0,74,0.00,,---,0.00,VWS V14.01,2013-02-11 09:56:00,
2013-02-11 04:57:00,29.8,22.5,30.22,South,186,4.0,10.0,74,0.00,,---,0.00,VWS V14.01,2013-02-11 09:57:00,
2013-02-11 04:58:00,29.7,22.4,30.22,South,186,4.0,10.0,74,0.00,,---,0.00,VWS V14.01,2013-02-11 09:58:00,
2013-02-11 04:59:00,29.8,22.5,30.22,South,179,4.0,10.0,74,0.00,,---,0.00,VWS V14.01,2013-02-11 09:59:00,
2013-02-11 05:00:00,29.8,22.5,30.22,South,186,3.0,10.0,74,0.00,,---,0.00,VWS V14.01,2013-02-11 10:00:00,
2013-02-11 05:01:00,29.8,22.5,30.22,South,188,4.0,5.0,74,0.00,,---,0.00,VWS V14.01,2013-02-11 10:01:00,
2013-02-11 05:02:00,29.8,22.5,30.22,South,187,3.0,5.0,74,0.00,,---,0.00,VWS V14.01,2013-02-11 10:02:00,
2013-02-11 05:03:00,29.8,22.5,30.22,South,176,7.0,7.0,74,0.00,,---,0.00,VWS V14.01,2013-02-11 10:03:00,
2013-02-11 05:04:00,29.8,22.5,30.22,South,178,4.0,7.0,74,0.00,,---,0.00,VWS V14.01,2013-02-11 10:04:00,
2013-02-11 05:05:00,29.8,22.5,30.22,South,184,4.0,7.0,74,0.00,,---,0.00,VWS V14.01,2013-02-11 10:05:00,
2013-02-11 05:06:00,29.8,22.5,30.22,South,191,5.0,7.0,74,0.00,,---,0.00,VWS V14.01,2013-02-11 10:06:00,
2013-02-11 05:07:00,29.9,22.6,30.22,SSW,192,4.0,7.0,74,0.00,,---,0.00,VWS V14.01,2013-02-11 10:07:00,
2013-02-11 05:08:00,29.9,22.6,30.22,South,188,2.0,7.0,74,0.00,,---,0.00,VWS V14.01,2013-02-11 10:08:00,
2013-02-11 05:09:00,29.9,22.6,30.22,SSE,167,6.0,8.0,74,0.00,,---,0.00,VWS V14.01,2013-02-11 10:09:00,
2013-02-11 05:10:00,29.9,23.0,30.22,South,178,3.0,8.0,75,0.00,,---,0.00,VWS V14.01,2013-02-11 10:10:00,
2013-02-11 05:11:00,29.9,23.0,30.22,South,186,5.0,8.0,75,0.00,,---,0.00,VWS V14.01,2013-02-11 10:11:00,
2013-02-11 05:12:00,30.0,23.0,30.22,South,183,3.0,8.0,75,0.00,,---,0.00,VWS V14.01,2013-02-11 10:12:00,
2013-02-11 05:13:00,30.0,23.0,30.22,South,188,6.0,8.0,75,0.00,,---,0.00,VWS V14.01,2013-02-11 10:13:00,
2013-02-11 05:14:00,29.9,23.0,30.22,SSW,192,6.0,8.0,75,0.00,,---,0.00,VWS V14.01,2013-02-11 10:14:00,
2013-02-11 05:15:00,30.0,23.0,30.22,SSW,192,4.0,8.0,75,0.00,,---,0.00,VWS V14.01,2013-02-11 10:15:00,
2013-02-11 05:16:00,30.0,23.0,30.22,South,180,4.0,8.0,75,0.00,,---,0.00,VWS V14.01,2013-02-11 10:16:00,
2013-02-11 05:17:00,30.1,23.1,30.22,South,186,4.0,8.0,75,0.00,,---,0.00,VWS V14.01,2013-02-11 10:17:00,
2013-02-11 05:18:00,30.1,23.1,30.22,South,187,5.0,8.0,75,0.00,,---,0.00,VWS V14.01,2013-02-11 10:18:00,
2013-02-11 05:19:00,30.1,23.1,30.22,South,188,4.0,8.0,75,0.00,,---,0.00,VWS V14.01,2013-02-11 10:19:00,
2013-02-11 05:20:00,30.1,23.1,30.22,South,188,4.0,8.0,75,0.00,,---,0.00,VWS V14.01,2013-02-11 10:20:00,
2013-02-11 05:21:00,30.1,23.1,30.22,South,188,4.0,8.0,75,0.00,,---,0.00,VWS V14.01,2013-02-11 10:21:00,
2013-02-11 05:22:00,30.1,23.5,30.22,South,189,5.0,8.0,76,0.00,,---,0.00,VWS V14.01,2013-02-11 10:22:00,
2013-02-11 05:23:00,30.1,23.5,30.22,SSW,192,7.0,8.0,76,0.00,,---,0.00,VWS V14.01,2013-02-11 10:23:00,
2013-02-11 05:24:00,30.2,23.6,30.23,SSW,200,5.0,8.0,76,0.00,,---,0.00,VWS V14.01,2013-02-11 10:24:00,
2013-02-11 05:25:00,30.2,23.6,30.23,SSW,201,5.0,8.0,76,0.00,,---,0.00,VWS V14.01,2013-02-11 10:25:00,
2013-02-11 05:26:00,30.2,23.6,30.22,SSW,200,6.0,8.0,76,0.00,,---,0.00,VWS V14.01,2013-02-11 10:26:00,
2013-02-11 05:27:00,30.2,23.6,30.22,SSW,200,6.0,8.0,76,0.00,,---,0.00,VWS V14.01,2013-02-11 10:27:00,
2013-02-11 05:28:00,30.3,23.7,30.22,SSW,201,6.0,8.0,76,0.00,,---,0.00,VWS V14.01,2013-02-11 10:28:00,
2013-02-11 05:29:00,30.3,23.7,30.22,SSW,200,7.0,8.0,76,0.00,,---,0.00,VWS V14.01,2013-02-11 10:29:00,
2013-02-11 05:30:00,30.3,23.7,30.22,SSW,201,5.0,8.0,76,0.00,,---,0.00,VWS V14.01,2013-02-11 10:30:00,
2013-02-11 05:31:00,30.3,23.7,30.22,SSW,201,7.0,7.0,76,0.00,,---,0.00,VWS V14.01,2013-02-11 10:31:00,
2013-02-11 05:32:00,30.4,23.8,30.22,SSW,200,6.0,7.0,76,0.00,,---,0.00,VWS V14.01,2013-02-11 10:32:00,
2013-02-11 05:33:00,30.4,23.8,30.22,SSW,202,7.0,8.0,76,0.00,,---,0.00,VWS V14.01,2013-02-11 10:33:00,
2013-02-11 05:34:00,30.5,23.9,30.22,SSW,202,7.0,8.0,76,0.00,,---,0.00,VWS V14.01,2013-02-11 10:34:00,
2013-02-11 05:35:00,30.5,23.9,30.22,SSW,203,7.0,8.0,76,0.00,,---,0.00,VWS V14.01,2013-02-11 10:35:00,
2013-02-11 05:36:00,30.5,23.9,30.22,SSW,204,6.0,8.0,76,0.00,,---,0.00,VWS V14.01,2013-02-11 10:36:00,
2013-02-11 05:37:00,30.6,24.0,30.22,SSW,201,6.0,8.0,76,0.00,,---,0.00,VWS V14.01,2013-02-11 10:37:00,
2013-02-11 05:38:00,30.6,24.0,30.22,SSW,202,6.0,8.0,76,0.00,,---,0.00,VWS V14.01,2013-02-11 10:38:00,
2013-02-11 05:39:00,30.6,24.0,30.22,SSW,202,4.0,8.0,76,0.00,,---,0.00,VWS V14.01,2013-02-11 10:39:00,
2013-02-11 05:40:00,30.6,24.0,30.22,SSW,202,3.0,8.0,76,0.00,,---,0.00,VWS V14.01,2013-02-11 10:40:00,
2013-02-11 05:41:00,30.7,24.0,30.22,South,179,2.0,8.0,76,0.00,,---,0.00,VWS V14.01,2013-02-11 10:41:00,
2013-02-11 05:42:00,30.7,24.0,30.22,South,178,3.0,8.0,76,0.00,,---,0.00,VWS V14.01,2013-02-11 10:42:00,
2013-02-11 05:43:00,30.7,24.0,30.22,South,179,3.0,8.0,76,0.00,,---,0.00,VWS V14.01,2013-02-11 10:43:00,
2013-02-11 05:44:00,30.8,24.1,30.22,South,180,4.0,8.0,76,0.00,,---,0.00,VWS V14.01,2013-02-11 10:44:00,
2013-02-11 05:45:00,30.8,24.1,30.22,South,181,3.0,8.0,76,0.00,,---,0.00,VWS V14.01,2013-02-11 10:45:00,
2013-02-11 05:46:00,30.8,24.1,30.22,South,181,4.0,8.0,76,0.00,,---,0.00,VWS V14.01,2013-02-11 10:46:00,
2013-02-11 05:47:00,30.8,24.1,30.22,SSW,194,6.0,8.0,76,0.00,,---,0.00,VWS V14.01,2013-02-11 10:47:00,
2013-02-11 05:48:00,30.8,24.1,30.22,SSW,194,4.0,8.0,76,0.00,,---,0.00,VWS V14.01,2013-02-11 10:48:00,
2013-02-11 05:49:00,30.8,24.1,30.22,SSW,200,7.0,8.0,76,0.00,,---,0.00,VWS V14.01,2013-02-11 10:49:00,
2013-02-11 05:50:00,30.8,24.1,30.22,SSW,196,6.0,8.0,76,0.00,,---,0.00,VWS V14.01,2013-02-11 10:50:00,
2013-02-11 05:51:00,30.8,24.1,30.22,SSW,199,6.0,8.0,76,0.00,,---,0.00,VWS V14.01,2013-02-11 10:51:00,
2013-02-11 05:52:00,30.8,24.1,30.22,North,360,7.0,8.0,76,0.00,,---,0.00,VWS V14.01,2013-02-11 10:52:00,
2013-02-11 05:53:00,30.8,24.1,30.22,SSW,200,7.0,8.0,76,0.00,,---,0.00,VWS V14.01,2013-02-11 10:53:00,
2013-02-11 05:54:00,30.8,24.1,30.22,SSW,200,6.0,8.0,76,0.00,,---,0.00,VWS V14.01,2013-02-11 10:54:00,
2013-02-11 05:55:00,30.8,24.1,30.22,SSW,202,6.0,8.0,76,0.00,,---,0.00,VWS V14.01,2013-02-11 10:55:00,
2013-02-11 05:56:00,30.9,24.2,30.21,South,187,6.0,8.0,76,0.00,,---,0.00,VWS V14.01,2013-02-11 10:56:00,
2013-02-11 05:57:00,30.9,24.2,30.21,South,189,4.0,8.0,76,0.00,,---,0.00,VWS V14.01,2013-02-11 10:57:00,
2013-02-11 05:58:00,31.0,24.3,30.21,South,189,3.0,8.0,76,0.00,,---,0.00,VWS V14.01,2013-02-11 10:58:00,
2013-02-11 05:59:00,31.0,24.3,30.21,South,190,3.0,8.0,76,0.00,,---,0.00,VWS V14.01,2013-02-11 10:59:00,
2013-02-11 06:00:00,31.0,24.3,30.21,South,175,5.0,8.0,76,0.00,,---,0.00,VWS V14.01,2013-02-11 11:00:00,
2013-02-11 06:01:00,31.0,24.6,30.21,South,177,2.0,5.0,77,0.00,,---,0.00,VWS V14.01,2013-02-11 11:01:00,
2013-02-11 06:02:00,31.1,24.8,30.21,South,176,5.0,6.0,77,0.00,,---,0.00,VWS V14.01,2013-02-11 11:02:00,
2013-02-11 06:03:00,31.1,24.8,30.20,South,171,6.0,7.0,77,0.00,,---,0.00,VWS V14.01,2013-02-11 11:03:00,
2013-02-11 06:04:00,31.1,24.8,30.20,South,178,4.0,7.0,77,0.00,,---,0.00,VWS V14.01,2013-02-11 11:04:00,
2013-02-11 06:05:00,31.1,24.8,30.20,South,178,4.0,7.0,77,0.00,,---,0.00,VWS V14.01,2013-02-11 11:05:00,
2013-02-11 06:06:00,31.2,24.8,30.20,SSE,159,5.0,7.0,77,0.00,,---,0.00,VWS V14.01,2013-02-11 11:06:00,
2013-02-11 06:07:00,31.2,24.5,30.20,South,173,3.0,7.0,76,0.00,,---,0.00,VWS V14.01,2013-02-11 11:07:00,
2013-02-11 06:08:00,31.2,24.8,30.20,South,180,5.0,7.0,77,0.00,,---,0.00,VWS V14.01,2013-02-11 11:08:00,
2013-02-11 06:09:00,31.2,24.8,30.20,South,179,6.0,7.0,77,0.00,,---,0.00,VWS V14.01,2013-02-11 11:09:00,
2013-02-11 06:10:00,31.3,24.9,30.20,South,175,4.0,7.0,77,0.00,,---,0.00,VWS V14.01,2013-02-11 11:10:00,
2013-02-11 06:11:00,31.4,25.0,30.20,South,176,7.0,8.0,77,0.00,,---,0.00,VWS V14.01,2013-02-11 11:11:00,
2013-02-11 06:12:00,31.4,25.0,30.20,SSE,165,7.0,8.0,77,0.00,,---,0.00,VWS V14.01,2013-02-11 11:12:00,
2013-02-11 06:13:00,31.4,25.0,30.20,South,183,8.0,8.0,77,0.00,,---,0.00,VWS V14.01,2013-02-11 11:13:00,
2013-02-11 06:14:00,31.4,25.0,30.20,SSE,167,5.0,9.0,77,0.00,,---,0.00,VWS V14.01,2013-02-11 11:14:00,
2013-02-11 06:15:00,31.4,25.0,30.20,SSE,162,7.0,9.0,77,0.00,,---,0.00,VWS V14.01,2013-02-11 11:15:00,
2013-02-11 06:16:00,31.4,25.0,30.20,South,184,3.0,9.0,77,0.00,,---,0.00,VWS V14.01,2013-02-11 11:16:00,
2013-02-11 06:17:00,31.5,25.1,30.20,South,176,7.0,9.0,77,0.00,,---,0.00,VWS V14.01,2013-02-11 11:17:00,
2013-02-11 06:18:00,31.5,25.1,30.19,South,171,6.0,9.0,77,0.00,,---,0.00,VWS V14.01,2013-02-11 11:18:00,
2013-02-11 06:19:00,31.5,25.1,30.19,South,174,4.0,9.0,77,0.00,,---,0.00,VWS V14.01,2013-02-11 11:19:00,
2013-02-11 06:20:00,31.5,25.1,30.19,South,175,6.0,9.0,77,0.00,,---,0.00,VWS V14.01,2013-02-11 11:20:00,
2013-02-11 06:21:00,31.6,25.2,30.19,South,178,3.0,9.0,77,0.00,,---,0.00,VWS V14.01,2013-02-11 11:21:00,
2013-02-11 06:22:00,31.6,25.2,30.19,South,175,8.0,9.0,77,0.00,,---,0.00,VWS V14.01,2013-02-11 11:22:00,
2013-02-11 06:23:00,31.6,25.2,30.19,SSE,168,5.0,9.0,77,0.00,,---,0.00,VWS V14.01,2013-02-11 11:23:00,
2013-02-11 06:24:00,31.7,25.3,30.19,SSW,202,7.0,9.0,77,0.00,,---,0.00,VWS V14.01,2013-02-11 11:24:00,
2013-02-11 06:25:00,31.7,25.3,30.19,South,169,7.0,9.0,77,0.00,,---,0.00,VWS V14.01,2013-02-11 11:25:00,
2013-02-11 06:26:00,31.7,25.3,30.19,South,187,5.0,9.0,77,0.00,,---,0.00,VWS V14.01,2013-02-11 11:26:00,
2013-02-11 06:27:00,31.7,25.3,30.19,South,170,7.0,9.0,77,0.00,,---,0.00,VWS V14.01,2013-02-11 11:27:00,
2013-02-11 06:28:00,31.7,25.3,30.19,South,178,5.0,9.0,77,0.00,,---,0.00,VWS V14.01,2013-02-11 11:28:00,
2013-02-11 06:29:00,31.8,25.4,30.19,South,175,7.0,9.0,77,0.00,,---,0.00,VWS V14.01,2013-02-11 11:29:00,
2013-02-11 06:30:00,31.8,25.4,30.19,South,178,7.0,7.0,77,0.00,,---,0.00,VWS V14.01,2013-02-11 11:30:00,
2013-02-11 06:31:00,31.9,25.5,30.19,SE,142,3.0,7.0,77,0.00,,---,0.00,VWS V14.01,2013-02-11 11:31:00,
2013-02-11 06:32:00,31.9,25.5,30.18,SSE,161,7.0,8.0,77,0.00,,---,0.00,VWS V14.01,2013-02-11 11:32:00,
2013-02-11 06:33:00,31.9,25.5,30.18,South,186,8.0,8.0,77,0.00,,---,0.00,VWS V14.01,2013-02-11 11:33:00,
2013-02-11 06:34:00,31.9,25.5,30.19,South,187,2.0,8.0,77,0.00,,---,0.00,VWS V14.01,2013-02-11 11:34:00,
2013-02-11 06:35:00,32.0,25.6,30.19,South,183,2.0,8.0,77,0.00,,---,0.00,VWS V14.01,2013-02-11 11:35:00,
2013-02-11 06:36:00,32.0,25.6,30.18,South,184,2.0,8.0,77,0.00,,---,0.00,VWS V14.01,2013-02-11 11:36:00,
2013-02-11 06:37:00,32.0,25.6,30.18,South,184,3.0,8.0,77,0.00,,---,0.00,VWS V14.01,2013-02-11 11:37:00,
2013-02-11 06:38:00,32.1,25.7,30.18,South,185,4.0,8.0,77,0.00,,---,0.00,VWS V14.01,2013-02-11 11:38:00,
2013-02-11 06:39:00,32.1,25.7,30.18,SSW,193,2.0,8.0,77,0.00,,---,0.00,VWS V14.01,2013-02-11 11:39:00,
2013-02-11 06:40:00,32.1,25.7,30.18,South,190,5.0,8.0,77,0.00,,---,0.00,VWS V14.01,2013-02-11 11:40:00,
2013-02-11 06:41:00,32.2,25.8,30.18,South,172,1.0,8.0,77,0.00,,---,0.00,VWS V14.01,2013-02-11 11:41:00,
2013-02-11 06:42:00,32.2,25.8,30.18,South,186,5.0,8.0,77,0.00,,---,0.00,VWS V14.01,2013-02-11 11:42:00,
2013-02-11 06:43:00,32.3,26.2,30.18,South,178,6.0,10.0,78,0.00,,---,0.00,VWS V14.01,2013-02-11 11:43:00,
2013-02-11 06:44:00,32.3,26.2,30.18,South,169,9.0,11.0,78,0.00,,---,0.00,VWS V14.01,2013-02-11 11:44:00,
2013-02-11 06:45:00,32.3,26.2,30.18,South,171,9.0,11.0,78,0.00,,---,0.00,VWS V14.01,2013-02-11 11:45:00,
2013-02-11 06:46:00,32.4,26.3,30.18,SSE,168,7.0,11.0,78,0.00,,---,0.00,VWS V14.01,2013-02-11 11:46:00,
2013-02-11 06:47:00,32.4,26.3,30.18,South,185,5.0,11.0,78,0.00,,---,0.00,VWS V14.01,2013-02-11 11:47:00,
2013-02-11 06:48:00,32.5,26.4,30.18,SSW,196,4.0,11.0,78,0.00,,---,0.00,VWS V14.01,2013-02-11 11:48:00,
2013-02-11 06:49:00,32.5,26.4,30.18,South,184,7.0,11.0,78,0.00,,---,0.00,VWS V14.01,2013-02-11 11:49:00,
2013-02-11 06:50:00,32.5,26.4,30.18,SSE,168,7.0,11.0,78,0.00,,---,0.00,VWS V14.01,2013-02-11 11:50:00,
2013-02-11 06:51:00,32.5,26.4,30.18,South,171,9.0,11.0,78,0.00,,---,0.00,VWS V14.01,2013-02-11 11:51:00,
2013-02-11 06:52:00,32.6,26.5,30.18,SSE,163,8.0,11.0,78,0.00,,---,0.00,VWS V14.01,2013-02-11 11:52:00,
2013-02-11 06:53:00,32.6,26.5,30.18,South,187,6.0,11.0,78,0.00,,---,0.00,VWS V14.01,2013-02-11 11:53:00,
2013-02-11 06:54:00,32.6,26.5,30.18,SSE,160,7.0,11.0,78,0.00,,---,0.00,VWS V14.01,2013-02-11 11:54:00,
2013-02-11 06:55:00,32.7,26.6,30.18,South,190,5.0,11.0,78,0.00,,---,0.00,VWS V14.01,2013-02-11 11:55:00,
2013-02-11 06:56:00,32.7,26.9,30.18,South,169,9.0,11.0,79,0.00,,---,0.00,VWS V14.01,2013-02-11 11:56:00,
2013-02-11 06:57:00,32.8,27.0,30.18,South,187,6.0,11.0,79,0.00,,---,0.00,VWS V14.01,2013-02-11 11:57:00,
2013-02-11 06:58:00,32.8,27.0,30.18,SSE,163,6.0,11.0,79,0.00,,---,0.00,VWS V14.01,2013-02-11 11:58:00,
2013-02-11 06:59:00,32.8,27.0,30.18,SSW,194,6.0,11.0,79,0.00,,---,0.00,VWS V14.01,2013-02-11 11:59:00,
2013-02-11 07:00:00,32.8,27.0,30.18,South,172,8.0,11.0,79,0.00,,---,0.00,VWS V14.01,2013-02-11 12:00:00,
2013-02-11 07:01:00,32.9,27.1,30.18,South,180,5.0,11.0,79,0.00,,---,0.00,VWS V14.01,2013-02-11 12:01:00,
2013-02-11 07:02:00,32.9,27.1,30.18,South,173,7.0,11.0,79,0.00,,---,0.00,VWS V14.01,2013-02-11 12:02:00,
2013-02-11 07:03:00,32.9,27.1,30.18,South,171,8.0,11.0,79,0.00,,---,0.00,VWS V14.01,2013-02-11 12:03:00,
2013-02-11 07:04:00,32.9,27.1,30.17,South,173,6.0,11.0,79,0.00,,---,0.00,VWS V14.01,2013-02-11 12:04:00,
2013-02-11 07:05:00,32.9,27.1,30.17,SSW,194,4.0,11.0,79,0.00,,---,0.00,VWS V14.01,2013-02-11 12:05:00,
2013-02-11 07:06:00,32.9,27.1,30.17,South,175,5.0,11.0,79,0.00,,---,0.00,VWS V14.01,2013-02-11 12:06:00,
2013-02-11 07:07:00,32.9,27.1,30.17,South,182,5.0,11.0,79,0.00,,---,0.00,VWS V14.01,2013-02-11 12:07:00,
2013-02-11 07:08:00,33.0,27.2,30.17,South,169,3.0,11.0,79,0.00,,---,0.00,VWS V14.01,2013-02-11 12:08:00,
2013-02-11 07:09:00,33.0,27.2,30.17,SSE,167,7.0,11.0,79,0.00,,---,0.00,VWS V14.01,2013-02-11 12:09:00,
2013-02-11 07:10:00,33.0,27.2,30.17,SSW,194,7.0,11.0,79,0.00,,---,0.00,VWS V14.01,2013-02-11 12:10:00,
2013-02-11 07:11:00,33.0,27.5,30.17,South,178,6.0,11.0,80,0.00,,---,0.00,VWS V14.01,2013-02-11 12:11:00,
2013-02-11 07:12:00,33.0,27.5,30.17,South,174,5.0,11.0,80,0.00,,---,0.00,VWS V14.01,2013-02-11 12:12:00,
2013-02-11 07:13:00,33.1,27.6,30.17,SSW,199,7.0,11.0,80,0.00,,---,0.00,VWS V14.01,2013-02-11 12:13:00,
2013-02-11 07:14:00,33.1,27.6,30.17,South,174,6.0,11.0,80,0.00,,---,0.00,VWS V14.01,2013-02-11 12:14:00,
2013-02-11 07:15:00,33.1,27.6,30.16,SSE,165,6.0,11.0,80,0.00,,---,0.00,VWS V14.01,2013-02-11 12:15:00,
2013-02-11 07:16:00,33.1,27.6,30.16,South,174,11.0,11.0,80,0.00,,---,0.00,VWS V14.01,2013-02-11 12:16:00,
2013-02-11 07:17:00,33.1,27.6,30.16,SSE,167,9.0,11.0,80,0.00,,---,0.00,VWS V14.01,2013-02-11 12:17:00,
2013-02-11 07:18:00,33.1,27.6,30.16,SSE,164,8.0,11.0,80,0.00,,---,0.00,VWS V14.01,2013-02-11 12:18:00,
2013-02-11 07:19:00,33.1,27.6,30.16,SSE,164,8.0,11.0,80,0.00,,---,0.00,VWS V14.01,2013-02-11 12:19:00,
2013-02-11 07:20:00,33.1,27.6,30.16,South,180,7.0,11.0,80,0.00,,---,0.00,VWS V14.01,2013-02-11 12:20:00,
2013-02-11 07:21:00,33.1,27.9,30.16,South,177,7.0,11.0,81,0.00,,---,0.00,VWS V14.01,2013-02-11 12:21:00,
2013-02-11 07:22:00,33.1,27.9,30.16,South,181,8.0,11.0,81,0.00,,---,0.00,VWS V14.01,2013-02-11 12:22:00,
2013-02-11 07:23:00,33.1,27.9,30.16,South,187,9.0,11.0,81,0.00,,---,0.00,VWS V14.01,2013-02-11 12:23:00,
2013-02-11 07:24:00,33.1,27.9,30.16,South,169,9.0,11.0,81,0.00,,---,0.00,VWS V14.01,2013-02-11 12:24:00,
2013-02-11 07:25:00,33.1,27.9,30.16,South,179,5.0,11.0,81,0.00,,---,0.00,VWS V14.01,2013-02-11 12:25:00,
2013-02-11 07:26:00,33.1,27.9,30.16,South,175,9.0,11.0,81,0.00,,---,0.00,VWS V14.01,2013-02-11 12:26:00,
2013-02-11 07:27:00,33.1,27.9,30.16,SSW,198,8.0,11.0,81,0.00,,---,0.00,VWS V14.01,2013-02-11 12:27:00,
2013-02-11 07:28:00,33.1,27.9,30.15,South,169,10.0,13.0,81,0.00,,---,0.00,VWS V14.01,2013-02-11 12:28:00,
2013-02-11 07:29:00,33.1,28.2,30.15,South,177,10.0,13.0,82,0.00,,---,0.00,VWS V14.01,2013-02-11 12:29:00,
2013-02-11 07:30:00,33.2,28.3,30.15,SSW,192,6.0,13.0,82,0.00,,---,0.00,VWS V14.01,2013-02-11 12:30:00,
2013-02-11 07:31:00,33.2,28.3,30.15,South,186,7.0,8.0,82,0.00,,---,0.00,VWS V14.01,2013-02-11 12:31:00,
2013-02-11 07:32:00,33.3,28.4,30.15,South,190,6.0,10.0,82,0.00,,---,0.00,VWS V14.01,2013-02-11 12:32:00,
2013-02-11 07:33:00,33.3,28.4,30.15,South,169,10.0,12.0,82,0.00,,---,0.00,VWS V14.01,2013-02-11 12:33:00,
2013-02-11 07:34:00,33.3,28.4,30.15,South,180,9.0,12.0,82,0.00,,---,0.00,VWS V14.01,2013-02-11 12:34:00,
2013-02-11 07:35:00,33.4,28.5,30.15,South,178,8.0,12.0,82,0.00,,---,0.00,VWS V14.01,2013-02-11 12:35:00,
2013-02-11 07:36:00,33.4,28.8,30.15,SSE,163,9.0,12.0,83,0.00,,---,0.00,VWS V14.01,2013-02-11 12:36:00,
2013-02-11 07:37:00,33.4,28.5,30.15,South,171,7.0,12.0,82,0.00,,---,0.00,VWS V14.01,2013-02-11 12:37:00,
2013-02-11 07:38:00,33.4,28.5,30.15,South,171,8.0,12.0,82,0.00,,---,0.00,VWS V14.01,2013-02-11 12:38:00,
2013-02-11 07:39:00,33.4,28.5,30.14,South,186,5.0,12.0,82,0.00,,---,0.00,VWS V14.01,2013-02-11 12:39:00,
2013-02-11 07:40:00,33.4,28.5,30.14,South,190,1.0,12.0,82,0.00,,---,0.00,VWS V14.01,2013-02-11 12:40:00,
2013-02-11 07:41:00,33.4,28.5,30.14,South,190,2.0,12.0,82,0.00,,---,0.00,VWS V14.01,2013-02-11 12:41:00,
2013-02-11 07:42:00,33.5,28.6,30.14,SSW,192,0.0,12.0,82,0.00,,---,0.00,VWS V14.01,2013-02-11 12:42:00,
2013-02-11 07:43:00,33.5,28.9,30.14,SSW,197,4.0,12.0,83,0.00,,---,0.00,VWS V14.01,2013-02-11 12:43:00,
2013-02-11 07:44:00,33.5,28.9,30.14,SSW,202,5.0,12.0,83,0.00,,---,0.00,VWS V14.01,2013-02-11 12:44:00,
2013-02-11 07:45:00,33.5,28.9,30.13,SSW,202,3.0,12.0,83,0.00,,---,0.00,VWS V14.01,2013-02-11 12:45:00,
2013-02-11 07:46:00,33.6,29.0,30.13,SW,226,4.0,12.0,83,0.00,,---,0.00,VWS V14.01,2013-02-11 12:46:00,
2013-02-11 07:47:00,33.7,29.1,30.13,SW,216,5.0,12.0,83,0.00,,---,0.00,VWS V14.01,2013-02-11 12:47:00,
2013-02-11 07:48:00,33.7,29.4,30.13,South,175,3.0,12.0,84,0.00,,---,0.00,VWS V14.01,2013-02-11 12:48:00,
2013-02-11 07:49:00,33.8,29.5,30.12,SW,217,2.0,12.0,84,0.00,,---,0.00,VWS V14.01,2013-02-11 12:49:00,
2013-02-11 07:50:00,33.8,29.5,30.12,SSW,200,3.0,12.0,84,0.00,,---,0.00,VWS V14.01,2013-02-11 12:50:00,
2013-02-11 07:51:00,33.9,29.6,30.12,SSW,199,5.0,12.0,84,0.00,,---,0.00,VWS V14.01,2013-02-11 12:51:00,
2013-02-11 07:52:00,33.9,29.6,30.12,SSE,158,2.0,12.0,84,0.00,,---,0.00,VWS V14.01,2013-02-11 12:52:00,
2013-02-11 07:53:00,34.0,29.7,30.12,SW,223,4.0,12.0,84,0.00,,---,0.00,VWS V14.01,2013-02-11 12:53:00,
2013-02-11 07:54:00,34.1,29.8,30.12,South,179,6.0,12.0,84,0.00,,---,0.00,VWS V14.01,2013-02-11 12:54:00,
2013-02-11 07:55:00,34.1,29.8,30.12,SW,214,4.0,12.0,84,0.00,,---,0.00,VWS V14.01,2013-02-11 12:55:00,
2013-02-11 07:56:00,34.2,29.9,30.12,South,190,5.0,12.0,84,0.00,,---,0.00,VWS V14.01,2013-02-11 12:56:00,
2013-02-11 07:57:00,34.2,29.9,30.12,South,187,8.0,12.0,84,0.00,,---,0.00,VWS V14.01,2013-02-11 12:57:00,
2013-02-11 07:58:00,34.2,29.9,30.12,SW,230,9.0,12.0,84,0.00,,---,0.00,VWS V14.01,2013-02-11 12:58:00,
2013-02-11 07:59:00,34.2,29.9,30.12,WSW,251,2.0,12.0,84,0.00,,---,0.00,VWS V14.01,2013-02-11 12:59:00,
2013-02-11 08:00:00,34.3,30.0,30.12,SSW,195,4.0,12.0,84,0.00,,---,0.00,VWS V14.01,2013-02-11 13:00:00,
2013-02-11 08:01:00,34.3,30.0,30.11,South,188,4.0,10.0,84,0.00,,---,0.00,VWS V14.01,2013-02-11 13:01:00,
2013-02-11 08:02:00,34.4,30.4,30.11,South,189,8.0,10.0,85,0.00,,---,0.00,VWS V14.01,2013-02-11 13:02:00,
2013-02-11 08:03:00,34.3,30.3,30.11,SSW,206,5.0,10.0,85,0.00,,---,0.00,VWS V14.01,2013-02-11 13:03:00,
2013-02-11 08:04:00,34.4,30.4,30.11,SW,220,7.0,10.0,85,0.00,,---,0.00,VWS V14.01,2013-02-11 13:04:00,
2013-02-11 08:05:00,34.4,30.4,30.11,SSW,199,7.0,10.0,85,0.00,,---,0.00,VWS V14.01,2013-02-11 13:05:00,
2013-02-11 08:06:00,34.4,30.4,30.11,SW,214,5.0,10.0,85,0.00,,---,0.00,VWS V14.01,2013-02-11 13:06:00,
2013-02-11 08:07:00,34.4,30.4,30.11,SSE,161,4.0,10.0,85,0.00,,---,0.00,VWS V14.01,2013-02-11 13:07:00,
2013-02-11 08:08:00,34.4,30.4,30.11,SSW,207,7.0,10.0,85,0.00,,---,0.00,VWS V14.01,2013-02-11 13:08:00,
2013-02-11 08:09:00,34.4,30.4,30.11,SSW,209,8.0,10.0,85,0.00,,---,0.00,VWS V14.01,2013-02-11 13:09:00,
2013-02-11 08:10:00,34.5,30.5,30.11,South,190,3.0,10.0,85,0.00,,---,0.00,VWS V14.01,2013-02-11 13:10:00,
2013-02-11 08:11:00,34.5,30.5,30.11,SW,221,7.0,10.0,85,0.00,,---,0.00,VWS V14.01,2013-02-11 13:11:00,
2013-02-11 08:12:00,34.5,30.5,30.10,SSW,197,6.0,10.0,85,0.00,,---,0.00,VWS V14.01,2013-02-11 13:12:00,
2013-02-11 08:13:00,34.5,30.5,30.10,SSW,200,5.0,10.0,85,0.00,,---,0.00,VWS V14.01,2013-02-11 13:13:00,
2013-02-11 08:14:00,34.6,30.6,30.10,SSW,194,7.0,10.0,85,0.00,,---,0.00,VWS V14.01,2013-02-11 13:14:00,
2013-02-11 08:15:00,34.6,30.6,30.10,SSW,199,7.0,10.0,85,0.00,,---,0.00,VWS V14.01,2013-02-11 13:15:00,
2013-02-11 08:16:00,34.6,30.6,30.10,South,187,3.0,10.0,85,0.00,,---,0.00,VWS V14.01,2013-02-11 13:16:00,
2013-02-11 08:17:00,34.6,30.6,30.10,SW,231,4.0,10.0,85,0.00,,---,0.00,VWS V14.01,2013-02-11 13:17:00,
2013-02-11 08:18:00,34.6,30.6,30.10,SSW,212,2.0,10.0,85,0.00,,---,0.00,VWS V14.01,2013-02-11 13:18:00,
2013-02-11 08:19:00,34.6,30.6,30.10,SSW,196,1.0,10.0,85,0.00,,---,0.00,VWS V14.01,2013-02-11 13:19:00,
2013-02-11 08:20:00,34.7,30.7,30.10,SE,146,3.0,10.0,85,0.00,,---,0.00,VWS V14.01,2013-02-11 13:20:00,
2013-02-11 08:21:00,34.7,30.7,30.10,SW,219,6.0,10.0,85,0.00,,---,0.00,VWS V14.01,2013-02-11 13:21:00,
2013-02-11 08:22:00,34.7,30.7,30.09,SSW,200,4.0,10.0,85,0.00,,---,0.00,VWS V14.01,2013-02-11 13:22:00,
2013-02-11 08:23:00,34.7,31.0,30.09,SW,235,5.0,10.0,86,0.00,,---,0.00,VWS V14.01,2013-02-11 13:23:00,
2013-02-11 08:24:00,34.7,31.0,30.09,South,182,3.0,10.0,86,0.00,,---,0.00,VWS V14.01,2013-02-11 13:24:00,
2013-02-11 08:25:00,34.7,31.0,30.09,SSW,194,0.0,10.0,86,0.00,,---,0.00,VWS V14.01,2013-02-11 13:25:00,
2013-02-11 08:26:00,34.7,31.0,30.09,SW,232,1.0,10.0,86,0.00,,---,0.00,VWS V14.01,2013-02-11 13:26:00,
2013-02-11 08:27:00,34.7,31.0,30.09,SSW,213,3.0,10.0,86,0.00,,---,0.00,VWS V14.01,2013-02-11 13:27:00,
2013-02-11 08:28:00,34.7,31.0,30.08,SSW,207,3.0,10.0,86,0.00,,---,0.00,VWS V14.01,2013-02-11 13:28:00,
2013-02-11 08:29:00,34.8,31.0,30.08,SW,220,6.0,10.0,86,0.00,,---,0.00,VWS V14.01,2013-02-11 13:29:00,
2013-02-11 08:30:00,34.8,31.0,30.08,SSW,203,8.0,10.0,86,0.00,,---,0.00,VWS V14.01,2013-02-11 13:30:00,
2013-02-11 08:31:00,34.8,31.0,30.08,SW,217,2.0,8.0,86,0.00,,---,0.00,VWS V14.01,2013-02-11 13:31:00,
2013-02-11 08:32:00,34.8,31.0,30.09,SSW,208,6.0,8.0,86,0.00,,---,0.00,VWS V14.01,2013-02-11 13:32:00,
2013-02-11 08:33:00,34.8,31.0,30.09,SW,223,5.0,8.0,86,0.00,,---,0.00,VWS V14.01,2013-02-11 13:33:00,
2013-02-11 08:34:00,34.8,31.0,30.08,SSW,212,4.0,8.0,86,0.00,,---,0.00,VWS V14.01,2013-02-11 13:34:00,
2013-02-11 08:35:00,34.9,31.1,30.08,WSW,258,2.0,9.0,86,0.00,,---,0.00,VWS V14.01,2013-02-11 13:35:00,
2013-02-11 08:36:00,34.9,31.1,30.08,SSW,207,2.0,9.0,86,0.00,,---,0.00,VWS V14.01,2013-02-11 13:36:00,
2013-02-11 08:37:00,34.9,31.1,30.08,SW,218,2.0,9.0,86,0.00,,---,0.00,VWS V14.01,2013-02-11 13:37:00,
2013-02-11 08:38:00,34.9,31.1,30.08,SSW,195,3.0,9.0,86,0.00,,---,0.00,VWS V14.01,2013-02-11 13:38:00,
2013-02-11 08:39:00,34.9,31.1,30.07,SSW,207,1.0,9.0,86,0.00,,---,0.00,VWS V14.01,2013-02-11 13:39:00,
2013-02-11 08:40:00,34.9,31.1,30.07,SW,232,2.0,9.0,86,0.00,,---,0.00,VWS V14.01,2013-02-11 13:40:00,
2013-02-11 08:41:00,35.0,31.2,30.07,South,187,6.0,9.0,86,0.00,,---,0.00,VWS V14.01,2013-02-11 13:41:00,
2013-02-11 08:42:00,35.0,31.2,30.07,SSW,205,7.0,9.0,86,0.00,,---,0.00,VWS V14.01,2013-02-11 13:42:00,
2013-02-11 08:43:00,35.0,31.2,30.07,SSW,211,4.0,9.0,86,0.00,,---,0.00,VWS V14.01,2013-02-11 13:43:00,
2013-02-11 08:44:00,35.0,31.2,30.07,SSW,200,4.0,9.0,86,0.00,,---,0.00,VWS V14.01,2013-02-11 13:44:00,
2013-02-11 08:45:00,35.0,31.2,30.07,SW,223,5.0,9.0,86,0.00,,---,0.00,VWS V14.01,2013-02-11 13:45:00,
2013-02-11 08:46:00,35.1,31.3,30.07,South,189,3.0,9.0,86,0.00,,---,0.00,VWS V14.01,2013-02-11 13:46:00,
2013-02-11 08:47:00,35.1,31.3,30.07,West,263,2.0,9.0,86,0.00,,---,0.00,VWS V14.01,2013-02-11 13:47:00,
2013-02-11 08:48:00,35.1,31.3,30.06,South,189,2.0,9.0,86,0.00,,---,0.00,VWS V14.01,2013-02-11 13:48:00,
2013-02-11 08:49:00,35.1,31.3,30.06,SSW,211,6.0,9.0,86,0.00,,---,0.00,VWS V14.01,2013-02-11 13:49:00,
2013-02-11 08:50:00,35.1,31.3,30.06,SW,220,6.0,9.0,86,0.00,,---,0.00,VWS V14.01,2013-02-11 13:50:00,
2013-02-11 08:51:00,35.2,31.4,30.05,SW,231,3.0,9.0,86,0.00,,---,0.00,VWS V14.01,2013-02-11 13:51:00,
2013-02-11 08:52:00,35.2,31.4,30.05,SSW,209,4.0,9.0,86,0.00,,---,0.00,VWS V14.01,2013-02-11 13:52:00,
2013-02-11 08:53:00,35.2,31.4,30.05,SSW,211,3.0,9.0,86,0.00,,---,0.00,VWS V14.01,2013-02-11 13:53:00,
2013-02-11 08:54:00,35.2,31.4,30.05,SW,233,1.0,9.0,86,0.00,,---,0.00,VWS V14.01,2013-02-11 13:54:00,
2013-02-11 08:55:00,35.2,31.4,30.05,SSW,200,2.0,9.0,86,0.00,,---,0.00,VWS V14.01,2013-02-11 13:55:00,
2013-02-11 08:56:00,35.3,31.8,30.05,SSW,204,7.0,9.0,87,0.00,,---,0.00,VWS V14.01,2013-02-11 13:56:00,
2013-02-11 08:57:00,35.3,31.8,30.05,SSW,200,7.0,9.0,87,0.00,,---,0.00,VWS V14.01,2013-02-11 13:57:00,
2013-02-11 08:58:00,35.3,31.8,30.05,SW,219,8.0,9.0,87,0.00,,---,0.00,VWS V14.01,2013-02-11 13:58:00,
2013-02-11 08:59:00,35.4,31.9,30.05,SSW,196,4.0,9.0,87,0.00,,---,0.00,VWS V14.01,2013-02-11 13:59:00,
2013-02-11 09:00:00,35.4,31.9,30.05,SE,130,4.0,9.0,87,0.00,,---,0.00,VWS V14.01,2013-02-11 14:00:00,
2013-02-11 09:01:00,35.5,32.0,30.05,South,189,5.0,7.0,87,0.00,,---,0.00,VWS V14.01,2013-02-11 14:01:00,
2013-02-11 09:02:00,35.5,32.0,30.05,South,174,2.0,8.0,87,0.00,,---,0.00,VWS V14.01,2013-02-11 14:02:00,
2013-02-11 09:03:00,35.5,32.0,30.05,SSW,194,6.0,8.0,87,0.00,,---,0.00,VWS V14.01,2013-02-11 14:03:00,
2013-02-11 09:04:00,35.6,32.1,30.05,ENE,74,3.0,8.0,87,0.00,,---,0.00,VWS V14.01,2013-02-11 14:04:00,
2013-02-11 09:05:00,35.6,32.1,30.05,SSW,202,2.0,8.0,87,0.00,,---,0.00,VWS V14.01,2013-02-11 14:05:00,
2013-02-11 09:06:00,35.6,32.1,30.05,SE,135,3.0,8.0,87,0.00,,---,0.00,VWS V14.01,2013-02-11 14:06:00,
2013-02-11 09:07:00,35.6,32.1,30.05,SSW,203,6.0,8.0,87,0.00,,---,0.00,VWS V14.01,2013-02-11 14:07:00,
2013-02-11 09:08:00,35.7,32.2,30.05,South,189,5.0,8.0,87,0.00,,---,0.00,VWS V14.01,2013-02-11 14:08:00,
2013-02-11 09:09:00,35.7,32.2,30.05,SSE,167,8.0,12.0,87,0.00,,---,0.00,VWS V14.01,2013-02-11 14:09:00,
2013-02-11 09:10:00,35.7,32.2,30.05,South,184,9.0,12.0,87,0.00,,---,0.00,VWS V14.01,2013-02-11 14:10:00,
2013-02-11 09:11:00,35.8,32.3,30.05,South,171,8.0,12.0,87,0.00,,---,0.00,VWS V14.01,2013-02-11 14:11:00,
2013-02-11 09:12:00,35.8,32.3,30.05,South,188,8.0,12.0,87,0.00,,---,0.00,VWS V14.01,2013-02-11 14:12:00,
2013-02-11 09:13:00,35.9,32.4,30.05,South,187,10.0,13.0,87,0.00,,---,0.00,VWS V14.01,2013-02-11 14:13:00,
2013-02-11 09:14:00,35.9,32.4,30.05,SSW,200,6.0,13.0,87,0.00,,---,0.00,VWS V14.01,2013-02-11 14:14:00,
2013-02-11 09:15:00,35.9,32.4,30.05,South,187,5.0,13.0,87,0.00,,---,0.00,VWS V14.01,2013-02-11 14:15:00,
2013-02-11 09:16:00,35.9,32.4,30.05,South,175,8.0,13.0,87,0.00,,---,0.00,VWS V14.01,2013-02-11 14:16:00,
2013-02-11 09:17:00,36.0,32.5,30.05,SSW,194,9.0,13.0,87,0.00,,---,0.00,VWS V14.01,2013-02-11 14:17:00,
2013-02-11 09:18:00,36.0,32.5,30.05,South,182,5.0,13.0,87,0.00,,---,0.00,VWS V14.01,2013-02-11 14:18:00,
2013-02-11 09:19:00,36.0,32.5,30.05,South,190,7.0,13.0,87,0.01,,---,0.01,VWS V14.01,2013-02-11 14:19:00,
2013-02-11 09:20:00,36.0,32.5,30.05,South,190,7.0,13.0,87,0.01,,---,0.01,VWS V14.01,2013-02-11 14:20:00,
2013-02-11 09:21:00,36.0,32.5,30.04,SE,128,3.0,13.0,87,0.01,,---,0.01,VWS V14.01,2013-02-11 14:21:00,
2013-02-11 09:22:00,36.1,32.6,30.04,South,177,5.0,13.0,87,0.01,,---,0.01,VWS V14.01,2013-02-11 14:22:00,
2013-02-11 09:23:00,36.1,32.6,30.04,South,189,7.0,13.0,87,0.01,,---,0.01,VWS V14.01,2013-02-11 14:23:00,
2013-02-11 09:24:00,36.1,32.6,30.04,South,175,6.0,13.0,87,0.01,,---,0.01,VWS V14.01,2013-02-11 14:24:00,
2013-02-11 09:25:00,36.0,32.5,30.03,SSE,167,3.0,13.0,87,0.01,,---,0.01,VWS V14.01,2013-02-11 14:25:00,
2013-02-11 09:26:00,36.0,32.5,30.03,South,186,5.0,13.0,87,0.01,,---,0.01,VWS V14.01,2013-02-11 14:26:00,
2013-02-11 09:27:00,36.0,32.5,30.03,South,178,3.0,13.0,87,0.01,,---,0.01,VWS V14.01,2013-02-11 14:27:00,
2013-02-11 09:28:00,36.0,32.5,30.03,SSW,202,8.0,13.0,87,0.01,,---,0.01,VWS V14.01,2013-02-11 14:28:00,
2013-02-11 09:29:00,36.1,32.6,30.03,SSW,197,7.0,13.0,87,0.01,,---,0.01,VWS V14.01,2013-02-11 14:29:00,
2013-02-11 09:30:00,36.0,32.5,30.03,South,188,6.0,13.0,87,0.01,,---,0.01,VWS V14.01,2013-02-11 14:30:00,
2013-02-11 09:31:00,36.1,32.6,30.03,SSW,192,7.0,12.0,87,0.01,,---,0.01,VWS V14.01,2013-02-11 14:31:00,
2013-02-11 09:32:00,36.1,32.6,30.03,South,174,9.0,12.0,87,0.01,,---,0.01,VWS V14.01,2013-02-11 14:32:00,
2013-02-11 09:33:00,36.1,32.6,30.03,SSE,149,8.0,12.0,87,0.01,,---,0.01,VWS V14.01,2013-02-11 14:33:00,
2013-02-11 09:34:00,36.1,32.6,30.03,South,181,6.0,12.0,87,0.01,,---,0.01,VWS V14.01,2013-02-11 14:34:00,
2013-02-11 09:35:00,36.1,32.6,30.03,SSE,165,7.0,12.0,87,0.01,,---,0.01,VWS V14.01,2013-02-11 14:35:00,
2013-02-11 09:36:00,36.1,32.6,30.02,South,183,7.0,14.0,87,0.01,,---,0.01,VWS V14.01,2013-02-11 14:36:00,
2013-02-11 09:37:00,36.1,32.6,30.02,South,180,2.0,14.0,87,0.01,,---,0.01,VWS V14.01,2013-02-11 14:37:00,
2013-02-11 09:38:00,36.1,32.6,30.02,SSW,199,5.0,14.0,87,0.01,,---,0.01,VWS V14.01,2013-02-11 14:38:00,
2013-02-11 09:39:00,36.2,32.7,30.02,South,177,7.0,14.0,87,0.01,,---,0.01,VWS V14.01,2013-02-11 14:39:00,
2013-02-11 09:40:00,36.2,32.7,30.02,SSW,202,1.0,14.0,87,0.01,,---,0.01,VWS V14.01,2013-02-11 14:40:00,
2013-02-11 09:41:00,36.2,32.7,30.02,SSW,192,4.0,14.0,87,0.01,,---,0.01,VWS V14.01,2013-02-11 14:41:00,
2013-02-11 09:42:00,36.2,32.7,30.01,South,188,2.0,14.0,87,0.01,,---,0.01,VWS V14.01,2013-02-11 14:42:00,
2013-02-11 09:43:00,36.2,32.7,30.01,SSW,200,7.0,14.0,87,0.01,,---,0.01,VWS V14.01,2013-02-11 14:43:00,
2013-02-11 09:44:00,36.2,32.7,30.01,South,187,0.0,14.0,87,0.01,,---,0.01,VWS V14.01,2013-02-11 14:44:00,
2013-02-11 09:45:00,36.2,32.7,30.01,SSW,199,4.0,14.0,87,0.01,,---,0.01,VWS V14.01,2013-02-11 14:45:00,
2013-02-11 09:46:00,36.2,32.7,30.01,SSW,196,3.0,14.0,87,0.01,,---,0.01,VWS V14.01,2013-02-11 14:46:00,
2013-02-11 09:47:00,36.2,32.7,30.01,South,182,5.0,14.0,87,0.01,,---,0.01,VWS V14.01,2013-02-11 14:47:00,
2013-02-11 09:48:00,36.2,32.7,30.01,SSE,148,0.0,14.0,87,0.01,,---,0.01,VWS V14.01,2013-02-11 14:48:00,
2013-02-11 09:49:00,36.3,32.8,30.01,South,188,2.0,14.0,87,0.01,,---,0.01,VWS V14.01,2013-02-11 14:49:00,
2013-02-11 09:50:00,36.2,32.7,30.01,SSW,212,5.0,14.0,87,0.01,,---,0.01,VWS V14.01,2013-02-11 14:50:00,
2013-02-11 09:51:00,36.3,32.8,30.01,SSW,194,2.0,14.0,87,0.01,,---,0.01,VWS V14.01,2013-02-11 14:51:00,
2013-02-11 09:52:00,36.3,32.8,30.01,SW,217,2.0,14.0,87,0.01,,---,0.01,VWS V14.01,2013-02-11 14:52:00,
2013-02-11 09:53:00,36.3,32.8,30.01,SSW,204,4.0,14.0,87,0.01,,---,0.01,VWS V14.01,2013-02-11 14:53:00,
2013-02-11 09:54:00,36.4,32.9,30.00,SSW,192,4.0,14.0,87,0.01,,---,0.01,VWS V14.01,2013-02-11 14:54:00,
2013-02-11 09:55:00,36.4,32.9,30.00,South,173,2.0,14.0,87,0.01,,---,0.01,VWS V14.01,2013-02-11 14:55:00,
2013-02-11 09:56:00,36.4,32.9,30.00,SSE,153,0.0,14.0,87,0.01,,---,0.01,VWS V14.01,2013-02-11 14:56:00,
2013-02-11 09:57:00,36.4,32.9,30.00,South,182,2.0,14.0,87,0.01,,---,0.01,VWS V14.01,2013-02-11 14:57:00,
2013-02-11 09:58:00,36.4,32.9,30.00,South,182,0.0,14.0,87,0.01,,---,0.01,VWS V14.01,2013-02-11 14:58:00,
2013-02-11 09:59:00,36.4,32.9,30.00,South,188,2.0,14.0,87,0.01,,---,0.01,VWS V14.01,2013-02-11 14:59:00,
2013-02-11 10:00:00,36.5,33.0,30.00,ESE,111,0.0,14.0,87,0.01,,---,0.01,VWS V14.01,2013-02-11 15:00:00,
2013-02-11 10:01:00,36.5,33.0,30.00,SSW,198,2.0,6.0,87,0.01,,---,0.01,VWS V14.01,2013-02-11 15:01:00,
2013-02-11 10:02:00,36.5,33.0,29.99,SSW,199,1.0,6.0,87,0.01,,---,0.01,VWS V14.01,2013-02-11 15:02:00,
2013-02-11 10:03:00,36.5,33.0,29.99,SSW,200,0.0,6.0,87,0.01,,---,0.01,VWS V14.01,2013-02-11 15:03:00,
2013-02-11 10:04:00,36.5,33.0,29.99,SE,138,1.0,6.0,87,0.01,,---,0.01,VWS V14.01,2013-02-11 15:04:00,
2013-02-11 10:05:00,36.6,33.1,29.99,SE,136,0.0,6.0,87,0.01,,---,0.01,VWS V14.01,2013-02-11 15:05:00,
2013-02-11 10:06:00,36.6,33.1,29.99,SE,133,0.0,6.0,87,0.01,,---,0.01,VWS V14.01,2013-02-11 15:06:00,
2013-02-11 10:07:00,36.6,33.1,29.99,SE,133,0.0,6.0,87,0.01,,---,0.01,VWS V14.01,2013-02-11 15:07:00,
2013-02-11 10:08:00,36.6,33.1,29.98,SE,140,0.0,6.0,87,0.01,,---,0.01,VWS V14.01,2013-02-11 15:08:00,
2013-02-11 10:09:00,36.6,33.1,29.98,SE,139,0.0,6.0,87,0.01,,---,0.01,VWS V14.01,2013-02-11 15:09:00,
2013-02-11 10:10:00,36.7,33.2,29.98,SE,139,0.0,6.0,87,0.01,,---,0.01,VWS V14.01,2013-02-11 15:10:00,
2013-02-11 10:11:00,36.7,33.2,29.98,SE,138,0.0,6.0,87,0.01,,---,0.01,VWS V14.01,2013-02-11 15:11:00,
2013-02-11 10:12:00,36.7,33.2,29.98,SE,141,1.0,6.0,87,0.01,,---,0.01,VWS V14.01,2013-02-11 15:12:00,
2013-02-11 10:13:00,36.7,33.2,29.98,SE,141,0.0,6.0,87,0.01,,---,0.01,VWS V14.01,2013-02-11 15:13:00,
2013-02-11 10:14:00,36.8,33.3,29.98,SSE,150,0.0,6.0,87,0.01,,---,0.01,VWS V14.01,2013-02-11 15:14:00,
2013-02-11 10:15:00,36.8,33.3,29.98,SSE,149,2.0,6.0,87,0.01,,---,0.01,VWS V14.01,2013-02-11 15:15:00,
2013-02-11 10:16:00,36.8,33.3,29.97,SSE,149,1.0,6.0,87,0.01,,---,0.01,VWS V14.01,2013-02-11 15:16:00,
2013-02-11 10:17:00,36.8,33.3,29.97,SSE,155,0.0,6.0,87,0.01,,---,0.01,VWS V14.01,2013-02-11 15:17:00,
2013-02-11 10:18:00,36.8,33.3,29.97,SSE,155,0.0,6.0,87,0.01,,---,0.01,VWS V14.01,2013-02-11 15:18:00,
2013-02-11 10:19:00,36.8,33.3,29.97,SSE,156,2.0,6.0,87,0.01,,---,0.01,VWS V14.01,2013-02-11 15:19:00,
2013-02-11 10:20:00,36.9,33.4,29.97,SSE,155,1.0,6.0,87,0.02,,---,0.02,VWS V14.01,2013-02-11 15:20:00,
2013-02-11 10:21:00,36.9,33.4,29.96,SSE,159,1.0,6.0,87,0.03,,---,0.03,VWS V14.01,2013-02-11 15:21:00,
2013-02-11 10:22:00,36.9,33.4,29.96,SSE,163,1.0,6.0,87,0.04,,---,0.04,VWS V14.01,2013-02-11 15:22:00,
2013-02-11 10:23:00,36.9,33.4,29.96,SSE,167,2.0,6.0,87,0.05,,---,0.05,VWS V14.01,2013-02-11 15:23:00,
2013-02-11 10:24:00,36.9,33.4,29.96,South,182,5.0,6.0,87,0.05,,---,0.05,VWS V14.01,2013-02-11 15:24:00,
2013-02-11 10:25:00,36.9,33.4,29.95,South,189,0.0,6.0,87,0.05,,---,0.05,VWS V14.01,2013-02-11 15:25:00,
2013-02-11 10:26:00,36.9,33.4,29.95,South,187,3.0,6.0,87,0.06,,---,0.06,VWS V14.01,2013-02-11 15:26:00,
2013-02-11 10:27:00,37.0,33.5,29.95,South,189,1.0,6.0,87,0.06,,---,0.06,VWS V14.01,2013-02-11 15:27:00,
2013-02-11 10:28:00,37.0,33.5,29.95,South,188,5.0,6.0,87,0.06,,---,0.06,VWS V14.01,2013-02-11 15:28:00,
2013-02-11 10:29:00,37.0,33.5,29.95,South,188,1.0,6.0,87,0.06,,---,0.06,VWS V14.01,2013-02-11 15:29:00,
2013-02-11 10:30:00,37.0,33.5,29.95,South,186,0.0,0.0,87,0.05,,---,0.06,VWS V14.01,2013-02-11 15:30:00,
2013-02-11 10:31:00,37.0,33.5,29.95,South,186,2.0,3.0,87,0.05,,---,0.06,VWS V14.01,2013-02-11 15:31:00,
2013-02-11 10:32:00,37.0,33.5,29.95,South,186,1.0,3.0,87,0.05,,---,0.06,VWS V14.01,2013-02-11 15:32:00,
2013-02-11 10:33:00,37.0,33.5,29.94,South,186,4.0,4.0,87,0.05,,---,0.06,VWS V14.01,2013-02-11 15:33:00,
2013-02-11 10:34:00,37.1,33.6,29.94,South,185,3.0,5.0,87,0.05,,---,0.06,VWS V14.01,2013-02-11 15:34:00,
2013-02-11 10:35:00,37.1,33.6,29.94,South,186,2.0,5.0,87,0.05,,---,0.06,VWS V14.01,2013-02-11 15:35:00,
2013-02-11 10:36:00,37.1,33.6,29.94,South,187,4.0,5.0,87,0.05,,---,0.06,VWS V14.01,2013-02-11 15:36:00,
2013-02-11 10:37:00,37.1,33.6,29.94,South,187,0.0,5.0,87,0.05,,---,0.06,VWS V14.01,2013-02-11 15:37:00,
2013-02-11 10:38:00,37.1,33.6,29.94,South,187,0.0,5.0,87,0.05,,---,0.06,VWS V14.01,2013-02-11 15:38:00,
2013-02-11 10:39:00,37.1,33.6,29.93,South,187,3.0,5.0,87,0.05,,---,0.06,VWS V14.01,2013-02-11 15:39:00,
2013-02-11 10:40:00,37.1,33.6,29.93,South,187,0.0,5.0,87,0.05,,---,0.06,VWS V14.01,2013-02-11 15:40:00,
2013-02-11 10:41:00,37.1,33.6,29.93,South,185,1.0,5.0,87,0.05,,---,0.06,VWS V14.01,2013-02-11 15:41:00,
2013-02-11 10:42:00,37.1,33.6,29.93,South,185,2.0,5.0,87,0.06,,---,0.07,VWS V14.01,2013-02-11 15:42:00,
2013-02-11 10:43:00,37.1,33.6,29.94,South,184,2.0,5.0,87,0.06,,---,0.07,VWS V14.01,2013-02-11 15:43:00,
2013-02-11 10:44:00,37.1,33.6,29.93,South,184,0.0,5.0,87,0.06,,---,0.07,VWS V14.01,2013-02-11 15:44:00,
2013-02-11 10:45:00,37.1,33.6,29.93,South,184,0.0,5.0,87,0.06,,---,0.07,VWS V14.01,2013-02-11 15:45:00,
2013-02-11 10:46:00,37.1,33.6,29.93,South,184,1.0,5.0,87,0.06,,---,0.07,VWS V14.01,2013-02-11 15:46:00,
2013-02-11 10:47:00,37.1,33.6,29.93,South,184,2.0,5.0,87,0.06,,---,0.07,VWS V14.01,2013-02-11 15:47:00,
2013-02-11 10:48:00,37.1,33.9,29.93,South,184,0.0,5.0,88,0.06,,---,0.07,VWS V14.01,2013-02-11 15:48:00,
2013-02-11 10:49:00,37.1,33.9,29.93,South,184,0.0,5.0,88,0.06,,---,0.07,VWS V14.01,2013-02-11 15:49:00,
2013-02-11 10:50:00,37.1,33.9,29.93,South,184,0.0,5.0,88,0.06,,---,0.07,VWS V14.01,2013-02-11 15:50:00,
2013-02-11 10:51:00,37.1,33.6,29.93,South,184,0.0,5.0,87,0.06,,---,0.07,VWS V14.01,2013-02-11 15:51:00,
2013-02-11 10:52:00,37.1,33.9,29.92,South,184,0.0,5.0,88,0.06,,---,0.07,VWS V14.01,2013-02-11 15:52:00,
2013-02-11 10:53:00,37.1,33.9,29.92,South,184,0.0,5.0,88,0.06,,---,0.07,VWS V14.01,2013-02-11 15:53:00,
2013-02-11 10:54:00,37.1,33.9,29.92,South,184,0.0,5.0,88,0.06,,---,0.07,VWS V14.01,2013-02-11 15:54:00,
2013-02-11 10:55:00,37.1,33.9,29.92,South,184,0.0,5.0,88,0.06,,---,0.07,VWS V14.01,2013-02-11 15:55:00,
2013-02-11 10:56:00,37.1,33.9,29.92,South,184,0.0,5.0,88,0.06,,---,0.07,VWS V14.01,2013-02-11 15:56:00,
2013-02-11 10:57:00,37.1,33.9,29.92,South,184,0.0,5.0,88,0.06,,---,0.07,VWS V14.01,2013-02-11 15:57:00,
2013-02-11 10:58:00,37.2,34.0,29.92,South,185,1.0,5.0,88,0.06,,---,0.07,VWS V14.01,2013-02-11 15:58:00,
2013-02-11 10:59:00,37.2,34.0,29.92,South,182,1.0,5.0,88,0.07,,---,0.08,VWS V14.01,2013-02-11 15:59:00,
2013-02-11 11:00:00,37.2,33.7,29.92,South,182,0.0,5.0,87,0.07,,---,0.08,VWS V14.01,2013-02-11 16:00:00,
2013-02-11 11:01:00,37.2,33.7,29.91,South,182,0.0,1.0,87,0.07,,---,0.08,VWS V14.01,2013-02-11 16:01:00,
2013-02-11 11:02:00,37.2,34.0,29.91,South,182,2.0,3.0,88,0.07,,---,0.08,VWS V14.01,2013-02-11 16:02:00,
2013-02-11 11:03:00,37.3,34.1,29.91,South,182,0.0,3.0,88,0.07,,---,0.08,VWS V14.01,2013-02-11 16:03:00,
2013-02-11 11:04:00,37.3,34.1,29.91,South,182,0.0,3.0,88,0.07,,---,0.08,VWS V14.01,2013-02-11 16:04:00,
2013-02-11 11:05:00,37.3,34.1,29.91,South,182,0.0,3.0,88,0.07,,---,0.08,VWS V14.01,2013-02-11 16:05:00,
2013-02-11 11:06:00,37.3,34.1,29.91,South,182,0.0,3.0,88,0.08,,---,0.09,VWS V14.01,2013-02-11 16:06:00,
2013-02-11 11:07:00,37.3,34.1,29.91,South,182,0.0,3.0,88,0.08,,---,0.09,VWS V14.01,2013-02-11 16:07:00,
2013-02-11 11:08:00,37.3,34.1,29.91,South,182,0.0,3.0,88,0.08,,---,0.09,VWS V14.01,2013-02-11 16:08:00,
2013-02-11 11:09:00,37.3,34.1,29.90,South,182,0.0,3.0,88,0.08,,---,0.09,VWS V14.01,2013-02-11 16:09:00,
2013-02-11 11:10:00,37.3,34.1,29.90,South,182,1.0,3.0,88,0.08,,---,0.09,VWS V14.01,2013-02-11 16:10:00,
2013-02-11 11:11:00,37.3,34.1,29.90,South,182,0.0,3.0,88,0.08,,---,0.09,VWS V14.01,2013-02-11 16:11:00,
2013-02-11 11:12:00,37.3,34.1,29.90,South,182,0.0,3.0,88,0.08,,---,0.09,VWS V14.01,2013-02-11 16:12:00,
2013-02-11 11:13:00,37.3,34.1,29.90,South,182,1.0,3.0,88,0.08,,---,0.09,VWS V14.01,2013-02-11 16:13:00,
2013-02-11 11:14:00,37.3,34.1,29.90,South,182,2.0,3.0,88,0.08,,---,0.09,VWS V14.01,2013-02-11 16:14:00,
2013-02-11 11:15:00,37.3,34.1,29.90,South,182,2.0,4.0,88,0.08,,---,0.09,VWS V14.01,2013-02-11 16:15:00,
2013-02-11 11:16:00,37.3,34.1,29.90,South,182,0.0,4.0,88,0.09,,---,0.10,VWS V14.01,2013-02-11 16:16:00,
2013-02-11 11:17:00,37.3,34.1,29.90,South,182,0.0,4.0,88,0.09,,---,0.10,VWS V14.01,2013-02-11 16:17:00,
2013-02-11 11:18:00,37.3,34.1,29.90,South,182,1.0,4.0,88,0.09,,---,0.10,VWS V14.01,2013-02-11 16:18:00,
2013-02-11 11:19:00,37.3,34.1,29.90,South,182,0.0,4.0,88,0.09,,---,0.10,VWS V14.01,2013-02-11 16:19:00,
2013-02-11 11:20:00,37.3,34.1,29.90,South,182,0.0,4.0,88,0.09,,---,0.10,VWS V14.01,2013-02-11 16:20:00,
2013-02-11 11:21:00,37.3,34.1,29.89,South,182,0.0,4.0,88,0.09,,---,0.10,VWS V14.01,2013-02-11 16:21:00,
2013-02-11 11:22:00,37.3,34.1,29.90,South,182,0.0,4.0,88,0.09,,---,0.10,VWS V14.01,2013-02-11 16:22:00,
2013-02-11 11:23:00,37.3,34.1,29.90,South,182,2.0,4.0,88,0.09,,---,0.10,VWS V14.01,2013-02-11 16:23:00,
2013-02-11 11:24:00,37.3,34.1,29.89,South,182,0.0,4.0,88,0.09,,---,0.10,VWS V14.01,2013-02-11 16:24:00,
2013-02-11 11:25:00,37.3,34.1,29.89,South,182,3.0,4.0,88,0.09,,---,0.10,VWS V14.01,2013-02-11 16:25:00,
2013-02-11 11:26:00,37.3,34.1,29.89,South,182,1.0,4.0,88,0.09,,---,0.10,VWS V14.01,2013-02-11 16:26:00,
2013-02-11 11:27:00,37.3,34.1,29.89,South,182,0.0,4.0,88,0.10,,---,0.11,VWS V14.01,2013-02-11 16:27:00,
2013-02-11 11:28:00,37.3,34.1,29.89,South,182,2.0,4.0,88,0.10,,---,0.11,VWS V14.01,2013-02-11 16:28:00,
2013-02-11 11:29:00,37.4,34.2,29.89,South,181,1.0,4.0,88,0.10,,---,0.11,VWS V14.01,2013-02-11 16:29:00,
2013-02-11 11:30:00,37.4,34.2,29.89,South,181,4.0,4.0,88,0.10,,---,0.11,VWS V14.01,2013-02-11 16:30:00,
2013-02-11 11:31:00,37.4,34.2,29.89,South,181,2.0,4.0,88,0.05,,---,0.11,VWS V14.01,2013-02-11 16:31:00,
2013-02-11 11:32:00,37.4,34.2,29.88,South,181,1.0,4.0,88,0.05,,---,0.11,VWS V14.01,2013-02-11 16:32:00,
2013-02-11 11:33:00,37.4,34.2,29.88,South,181,3.0,5.0,88,0.05,,---,0.11,VWS V14.01,2013-02-11 16:33:00,
2013-02-11 11:34:00,37.4,33.9,29.88,South,181,1.0,5.0,87,0.05,,---,0.11,VWS V14.01,2013-02-11 16:34:00,
2013-02-11 11:35:00,37.5,34.0,29.88,South,181,2.0,5.0,87,0.05,,---,0.11,VWS V14.01,2013-02-11 16:35:00,
2013-02-11 11:36:00,37.5,34.0,29.88,South,181,2.0,5.0,87,0.05,,---,0.11,VWS V14.01,2013-02-11 16:36:00,
2013-02-11 11:37:00,37.5,34.0,29.88,South,180,3.0,5.0,87,0.06,,---,0.12,VWS V14.01,2013-02-11 16:37:00,
2013-02-11 11:38:00,37.6,34.1,29.87,South,180,3.0,5.0,87,0.06,,---,0.12,VWS V14.01,2013-02-11 16:38:00,
2013-02-11 11:39:00,37.6,34.1,29.87,South,178,6.0,6.0,87,0.06,,---,0.12,VWS V14.01,2013-02-11 16:39:00,
2013-02-11 11:40:00,37.7,34.2,29.87,South,174,6.0,8.0,87,0.06,,---,0.12,VWS V14.01,2013-02-11 16:40:00,
2013-02-11 11:41:00,37.8,34.3,29.87,South,175,7.0,9.0,87,0.06,,---,0.12,VWS V14.01,2013-02-11 16:41:00,
2013-02-11 11:42:00,37.9,34.7,29.87,South,173,7.0,9.0,88,0.06,,---,0.12,VWS V14.01,2013-02-11 16:42:00,
2013-02-11 11:43:00,38.1,34.9,29.87,South,178,5.0,9.0,88,0.06,,---,0.12,VWS V14.01,2013-02-11 16:43:00,
2013-02-11 11:44:00,38.2,34.7,29.86,South,175,8.0,9.0,87,0.06,,---,0.12,VWS V14.01,2013-02-11 16:44:00,
2013-02-11 11:45:00,38.4,34.9,29.86,South,178,6.0,9.0,87,0.06,,---,0.12,VWS V14.01,2013-02-11 16:45:00,
2013-02-11 11:46:00,38.5,35.3,29.86,South,178,5.0,9.0,88,0.07,,---,0.13,VWS V14.01,2013-02-11 16:46:00,
2013-02-11 11:47:00,38.6,35.4,29.86,South,180,4.0,9.0,88,0.07,,---,0.13,VWS V14.01,2013-02-11 16:47:00,
2013-02-11 11:48:00,38.6,35.4,29.86,South,188,6.0,9.0,88,0.07,,---,0.13,VWS V14.01,2013-02-11 16:48:00,
2013-02-11 11:49:00,38.7,35.2,29.86,South,188,6.0,9.0,87,0.07,,---,0.13,VWS V14.01,2013-02-11 16:49:00,
2013-02-11 11:50:00,38.8,35.3,29.86,SSW,192,6.0,9.0,87,0.07,,---,0.13,VWS V14.01,2013-02-11 16:50:00,
2013-02-11 11:51:00,38.9,35.4,29.86,SSW,193,6.0,9.0,87,0.07,,---,0.13,VWS V14.01,2013-02-11 16:51:00,
2013-02-11 11:52:00,39.0,35.5,29.86,South,190,6.0,9.0,87,0.07,,---,0.13,VWS V14.01,2013-02-11 16:52:00,
2013-02-11 11:53:00,39.1,35.6,29.86,SSW,192,6.0,9.0,87,0.07,,---,0.13,VWS V14.01,2013-02-11 16:53:00,
2013-02-11 11:54:00,39.1,35.8,29.86,South,186,7.0,11.0,88,0.07,,---,0.13,VWS V14.01,2013-02-11 16:54:00,
2013-02-11 11:55:00,39.2,36.0,29.85,South,189,5.0,11.0,88,0.07,,---,0.13,VWS V14.01,2013-02-11 16:55:00,
2013-02-11 11:56:00,39.3,36.0,29.85,South,180,7.0,11.0,88,0.07,,---,0.13,VWS V14.01,2013-02-11 16:56:00,
2013-02-11 11:57:00,39.3,36.0,29.85,South,184,6.0,11.0,88,0.07,,---,0.13,VWS V14.01,2013-02-11 16:57:00,
2013-02-11 11:58:00,39.3,36.0,29.85,SSW,192,7.0,11.0,88,0.07,,---,0.13,VWS V14.01,2013-02-11 16:58:00,
2013-02-11 11:59:00,39.3,36.0,29.85,SSW,193,7.0,11.0,88,0.08,,---,0.14,VWS V14.01,2013-02-11 16:59:00,
2013-02-11 12:00:00,39.4,36.2,29.85,SSW,196,7.0,11.0,88,0.08,,---,0.14,VWS V14.01,2013-02-11 17:00:00,
2013-02-11 12:01:00,39.4,36.2,29.85,SSW,198,7.0,9.0,88,0.06,,---,0.14,VWS V14.01,2013-02-11 17:01:00,
2013-02-11 12:02:00,39.4,35.9,29.84,SSW,192,7.0,9.0,87,0.06,,---,0.14,VWS V14.01,2013-02-11 17:02:00,
2013-02-11 12:03:00,39.5,36.0,29.84,SSW,194,7.0,11.0,87,0.06,,---,0.14,VWS V14.01,2013-02-11 17:03:00,
2013-02-11 12:04:00,39.5,36.0,29.84,SSW,192,7.0,11.0,87,0.06,,---,0.14,VWS V14.01,2013-02-11 17:04:00,
2013-02-11 12:05:00,39.5,36.0,29.84,SSW,195,7.0,11.0,87,0.06,,---,0.14,VWS V14.01,2013-02-11 17:05:00,
2013-02-11 12:06:00,39.6,36.1,29.84,SSW,198,6.0,11.0,87,0.07,,---,0.15,VWS V14.01,2013-02-11 17:06:00,
2013-02-11 12:07:00,39.6,36.1,29.84,SSW,202,7.0,11.0,87,0.07,,---,0.15,VWS V14.01,2013-02-11 17:07:00,
2013-02-11 12:08:00,39.6,36.1,29.84,SSW,205,6.0,11.0,87,0.07,,---,0.15,VWS V14.01,2013-02-11 17:08:00,
2013-02-11 12:09:00,39.6,36.1,29.84,SSW,207,7.0,11.0,87,0.07,,---,0.15,VWS V14.01,2013-02-11 17:09:00,
2013-02-11 12:10:00,39.5,36.0,29.84,SSW,209,6.0,11.0,87,0.07,,---,0.15,VWS V14.01,2013-02-11 17:10:00,
2013-02-11 12:11:00,39.4,35.9,29.84,SSW,209,6.0,11.0,87,0.07,,---,0.15,VWS V14.01,2013-02-11 17:11:00,
2013-02-11 12:12:00,39.4,36.2,29.84,SSW,209,5.0,11.0,88,0.07,,---,0.15,VWS V14.01,2013-02-11 17:12:00,
2013-02-11 12:13:00,39.3,36.0,29.84,SSW,209,6.0,11.0,88,0.07,,---,0.15,VWS V14.01,2013-02-11 17:13:00,
2013-02-11 12:14:00,39.3,36.0,29.84,SSW,203,7.0,11.0,88,0.07,,---,0.15,VWS V14.01,2013-02-11 17:14:00,
2013-02-11 12:15:00,39.3,36.0,29.83,SSW,192,7.0,11.0,88,0.07,,---,0.15,VWS V14.01,2013-02-11 17:15:00,
2013-02-11 12:16:00,39.3,36.0,29.83,SSW,196,7.0,11.0,88,0.07,,---,0.15,VWS V14.01,2013-02-11 17:16:00,
2013-02-11 12:17:00,39.4,36.2,29.83,SSW,194,7.0,11.0,88,0.07,,---,0.15,VWS V14.01,2013-02-11 17:17:00,
2013-02-11 12:18:00,39.5,36.0,29.83,SSW,192,6.0,11.0,87,0.07,,---,0.15,VWS V14.01,2013-02-11 17:18:00,
2013-02-11 12:19:00,39.5,36.0,29.83,SSW,192,6.0,11.0,87,0.07,,---,0.15,VWS V14.01,2013-02-11 17:19:00,
2013-02-11 12:20:00,39.5,36.0,29.83,SSW,194,5.0,11.0,87,0.07,,---,0.15,VWS V14.01,2013-02-11 17:20:00,
2013-02-11 12:21:00,39.5,36.0,29.83,SSW,198,7.0,11.0,87,0.07,,---,0.15,VWS V14.01,2013-02-11 17:21:00,
2013-02-11 12:22:00,39.5,36.0,29.83,SSW,198,7.0,11.0,87,0.07,,---,0.15,VWS V14.01,2013-02-11 17:22:00,
2013-02-11 12:23:00,39.5,36.0,29.83,SSW,198,7.0,11.0,87,0.08,,---,0.16,VWS V14.01,2013-02-11 17:23:00,
2013-02-11 12:24:00,39.6,36.1,29.83,SSW,198,5.0,11.0,87,0.08,,---,0.16,VWS V14.01,2013-02-11 17:24:00,
2013-02-11 12:25:00,39.5,36.0,29.83,SSW,198,7.0,11.0,87,0.08,,---,0.16,VWS V14.01,2013-02-11 17:25:00,
2013-02-11 12:26:00,39.6,36.1,29.82,SSW,198,6.0,11.0,87,0.08,,---,0.16,VWS V14.01,2013-02-11 17:26:00,
2013-02-11 12:27:00,39.6,36.1,29.82,SSW,198,6.0,11.0,87,0.08,,---,0.16,VWS V14.01,2013-02-11 17:27:00,
2013-02-11 12:28:00,39.6,36.1,29.82,SSW,194,7.0,11.0,87,0.08,,---,0.16,VWS V14.01,2013-02-11 17:28:00,
2013-02-11 12:29:00,39.7,36.2,29.82,SSW,193,7.0,11.0,87,0.08,,---,0.16,VWS V14.01,2013-02-11 17:29:00,
2013-02-11 12:30:00,39.7,36.2,29.82,SSW,193,6.0,11.0,87,0.08,,---,0.16,VWS V14.01,2013-02-11 17:30:00,
2013-02-11 12:31:00,39.8,36.2,29.82,SSW,192,8.0,8.0,87,0.05,,---,0.16,VWS V14.01,2013-02-11 17:31:00,
2013-02-11 12:32:00,39.8,36.5,29.82,SSW,193,6.0,8.0,88,0.05,,---,0.16,VWS V14.01,2013-02-11 17:32:00,
2013-02-11 12:33:00,39.8,36.5,29.82,SSW,195,6.0,8.0,88,0.05,,---,0.16,VWS V14.01,2013-02-11 17:33:00,
2013-02-11 12:34:00,39.9,36.6,29.82,SSW,194,6.0,8.0,88,0.05,,---,0.16,VWS V14.01,2013-02-11 17:34:00,
2013-02-11 12:35:00,39.9,36.6,29.82,SSW,197,7.0,8.0,88,0.05,,---,0.16,VWS V14.01,2013-02-11 17:35:00,
2013-02-11 12:36:00,40.0,36.7,29.82,SSW,197,6.0,8.0,88,0.05,,---,0.16,VWS V14.01,2013-02-11 17:36:00,
2013-02-11 12:37:00,40.0,36.7,29.81,SSW,198,8.0,8.0,88,0.05,,---,0.16,VWS V14.01,2013-02-11 17:37:00,
2013-02-11 12:38:00,40.0,36.7,29.81,SSW,199,7.0,9.0,88,0.05,,---,0.16,VWS V14.01,2013-02-11 17:38:00,
2013-02-11 12:39:00,40.1,36.8,29.81,SSW,199,7.0,9.0,88,0.06,,---,0.17,VWS V14.01,2013-02-11 17:39:00,
2013-02-11 12:40:00,40.1,36.8,29.81,SSW,199,8.0,9.0,88,0.06,,---,0.17,VWS V14.01,2013-02-11 17:40:00,
2013-02-11 12:41:00,40.2,36.7,29.81,SSW,200,8.0,9.0,87,0.06,,---,0.17,VWS V14.01,2013-02-11 17:41:00,
2013-02-11 12:42:00,40.2,36.9,29.81,SSW,200,7.0,9.0,88,0.06,,---,0.17,VWS V14.01,2013-02-11 17:42:00,
2013-02-11 12:43:00,40.3,36.8,29.81,SSW,200,8.0,9.0,87,0.06,,---,0.17,VWS V14.01,2013-02-11 17:43:00,
2013-02-11 12:44:00,40.3,36.8,29.81,SSW,200,7.0,9.0,87,0.06,,---,0.17,VWS V14.01,2013-02-11 17:44:00,
2013-02-11 12:45:00,40.3,36.8,29.81,SSW,199,7.0,9.0,87,0.06,,---,0.17,VWS V14.01,2013-02-11 17:45:00,
2013-02-11 12:46:00,40.3,36.8,29.81,SSW,200,7.0,9.0,87,0.06,,---,0.17,VWS V14.01,2013-02-11 17:46:00,
2013-02-11 12:47:00,40.3,36.8,29.81,SSW,200,7.0,9.0,87,0.06,,---,0.17,VWS V14.01,2013-02-11 17:47:00,
2013-02-11 12:48:00,40.4,36.8,29.81,SSW,200,7.0,9.0,87,0.06,,---,0.17,VWS V14.01,2013-02-11 17:48:00,
2013-02-11 12:49:00,40.4,36.8,29.81,SSW,200,7.0,9.0,87,0.06,,---,0.17,VWS V14.01,2013-02-11 17:49:00,
2013-02-11 12:50:00,40.4,36.8,29.80,SSW,199,7.0,9.0,87,0.06,,---,0.17,VWS V14.01,2013-02-11 17:50:00,
2013-02-11 12:51:00,40.5,36.9,29.80,SSW,200,7.0,9.0,87,0.06,,---,0.17,VWS V14.01,2013-02-11 17:51:00,
2013-02-11 12:52:00,40.5,37.2,29.80,SSW,198,6.0,9.0,88,0.06,,---,0.17,VWS V14.01,2013-02-11 17:52:00,
2013-02-11 12:53:00,40.6,37.3,29.80,SSW,197,8.0,9.0,88,0.06,,---,0.17,VWS V14.01,2013-02-11 17:53:00,
2013-02-11 12:54:00,40.6,37.3,29.80,SSW,197,8.0,9.0,88,0.06,,---,0.17,VWS V14.01,2013-02-11 17:54:00,
2013-02-11 12:55:00,40.7,37.4,29.80,SSW,196,8.0,9.0,88,0.06,,---,0.17,VWS V14.01,2013-02-11 17:55:00,
2013-02-11 12:56:00,40.7,37.4,29.80,SSW,198,8.0,9.0,88,0.06,,---,0.17,VWS V14.01,2013-02-11 17:56:00,
2013-02-11 12:57:00,40.7,37.4,29.80,SSW,193,7.0,9.0,88,0.06,,---,0.17,VWS V14.01,2013-02-11 17:57:00,
2013-02-11 12:58:00,40.7,37.4,29.80,South,191,7.0,9.0,88,0.06,,---,0.17,VWS V14.01,2013-02-11 17:58:00,
2013-02-11 12:59:00,40.8,37.5,29.80,SSW,194,7.0,9.0,88,0.06,,---,0.17,VWS V14.01,2013-02-11 17:59:00,
2013-02-11 13:00:00,40.8,37.5,29.80,South,190,6.0,9.0,88,0.06,,---,0.17,VWS V14.01,2013-02-11 18:00:00,
2013-02-11 13:01:00,40.8,37.5,29.79,SSW,192,7.0,9.0,88,0.03,,---,0.17,VWS V14.01,2013-02-11 18:01:00,
2013-02-11 13:02:00,40.8,37.5,29.79,SSW,192,10.0,10.0,88,0.03,,---,0.17,VWS V14.01,2013-02-11 18:02:00,
2013-02-11 13:03:00,40.9,37.6,29.79,South,186,7.0,10.0,88,0.04,,---,0.18,VWS V14.01,2013-02-11 18:03:00,
2013-02-11 13:04:00,40.9,37.6,29.79,SSW,192,7.0,10.0,88,0.04,,---,0.18,VWS V14.01,2013-02-11 18:04:00,
2013-02-11 13:05:00,40.9,37.6,29.79,SSW,194,7.0,10.0,88,0.04,,---,0.18,VWS V14.01,2013-02-11 18:05:00,
2013-02-11 13:06:00,41.0,37.7,29.79,South,189,4.0,10.0,88,0.04,,---,0.18,VWS V14.01,2013-02-11 18:06:00,
2013-02-11 13:07:00,41.0,37.7,29.79,South,190,6.0,10.0,88,0.04,,---,0.18,VWS V14.01,2013-02-11 18:07:00,
2013-02-11 13:08:00,41.0,37.7,29.79,South,189,8.0,10.0,88,0.04,,---,0.18,VWS V14.01,2013-02-11 18:08:00,
2013-02-11 13:09:00,41.0,37.7,29.79,SSW,193,8.0,10.0,88,0.04,,---,0.18,VWS V14.01,2013-02-11 18:09:00,
2013-02-11 13:10:00,41.1,37.5,29.79,South,190,9.0,11.0,87,0.04,,---,0.18,VWS V14.01,2013-02-11 18:10:00,
2013-02-11 13:11:00,41.1,37.5,29.79,SSW,192,8.0,11.0,87,0.04,,---,0.18,VWS V14.01,2013-02-11 18:11:00,
2013-02-11 13:12:00,41.2,37.6,29.79,SSW,196,7.0,11.0,87,0.04,,---,0.18,VWS V14.01,2013-02-11 18:12:00,
2013-02-11 13:13:00,41.3,38.0,29.79,South,191,10.0,11.0,88,0.04,,---,0.18,VWS V14.01,2013-02-11 18:13:00,
2013-02-11 13:14:00,41.4,38.1,29.79,South,190,9.0,11.0,88,0.04,,---,0.18,VWS V14.01,2013-02-11 18:14:00,
2013-02-11 13:15:00,41.5,38.2,29.79,South,188,6.0,11.0,88,0.04,,---,0.18,VWS V14.01,2013-02-11 18:15:00,
2013-02-11 13:16:00,41.5,38.2,29.78,South,186,6.0,11.0,88,0.04,,---,0.18,VWS V14.01,2013-02-11 18:16:00,
2013-02-11 13:17:00,41.5,38.2,29.78,SSW,193,6.0,11.0,88,0.04,,---,0.18,VWS V14.01,2013-02-11 18:17:00,
2013-02-11 13:18:00,41.5,38.2,29.78,South,187,6.0,11.0,88,0.04,,---,0.18,VWS V14.01,2013-02-11 18:18:00,
2013-02-11 13:19:00,41.5,38.2,29.79,SSW,192,7.0,11.0,88,0.04,,---,0.18,VWS V14.01,2013-02-11 18:19:00,
2013-02-11 13:20:00,41.6,38.3,29.78,South,189,9.0,11.0,88,0.04,,---,0.18,VWS V14.01,2013-02-11 18:20:00,
2013-02-11 13:21:00,41.6,38.3,29.78,South,188,7.0,11.0,88,0.04,,---,0.18,VWS V14.01,2013-02-11 18:21:00,
2013-02-11 13:22:00,41.6,38.3,29.78,SSW,192,7.0,11.0,88,0.04,,---,0.18,VWS V14.01,2013-02-11 18:22:00,
2013-02-11 13:23:00,41.6,38.3,29.78,SSW,192,7.0,11.0,88,0.04,,---,0.18,VWS V14.01,2013-02-11 18:23:00,
2013-02-11 13:24:00,41.6,38.3,29.78,South,181,5.0,11.0,88,0.04,,---,0.18,VWS V14.01,2013-02-11 18:24:00,
2013-02-11 13:25:00,41.6,38.3,29.78,South,180,7.0,11.0,88,0.04,,---,0.18,VWS V14.01,2013-02-11 18:25:00,
2013-02-11 13:26:00,41.5,38.2,29.78,South,184,8.0,11.0,88,0.04,,---,0.18,VWS V14.01,2013-02-11 18:26:00,
2013-02-11 13:27:00,41.4,38.1,29.78,South,180,7.0,11.0,88,0.04,,---,0.18,VWS V14.01,2013-02-11 18:27:00,
2013-02-11 13:28:00,41.3,38.0,29.78,South,179,6.0,11.0,88,0.04,,---,0.18,VWS V14.01,2013-02-11 18:28:00,
2013-02-11 13:29:00,41.2,37.9,29.77,South,185,6.0,11.0,88,0.04,,---,0.18,VWS V14.01,2013-02-11 18:29:00,
2013-02-11 13:30:00,41.3,38.0,29.77,South,178,7.0,11.0,88,0.04,,---,0.18,VWS V14.01,2013-02-11 18:30:00,
2013-02-11 13:31:00,41.3,38.0,29.78,South,190,9.0,11.0,88,0.02,,---,0.18,VWS V14.01,2013-02-11 18:31:00,
2013-02-11 13:32:00,41.3,38.0,29.78,South,184,5.0,11.0,88,0.02,,---,0.18,VWS V14.01,2013-02-11 18:32:00,
2013-02-11 13:33:00,41.3,38.0,29.78,South,186,6.0,11.0,88,0.02,,---,0.18,VWS V14.01,2013-02-11 18:33:00,
2013-02-11 13:34:00,41.4,38.1,29.78,SSW,193,6.0,11.0,88,0.02,,---,0.18,VWS V14.01,2013-02-11 18:34:00,
2013-02-11 13:35:00,41.4,38.1,29.78,South,189,9.0,11.0,88,0.02,,---,0.18,VWS V14.01,2013-02-11 18:35:00,
2013-02-11 13:36:00,41.4,38.1,29.78,South,179,10.0,11.0,88,0.02,,---,0.18,VWS V14.01,2013-02-11 18:36:00,
2013-02-11 13:37:00,41.5,38.2,29.78,SSW,194,9.0,11.0,88,0.02,,---,0.18,VWS V14.01,2013-02-11 18:37:00,
2013-02-11 13:38:00,41.6,38.3,29.78,SSW,199,8.0,11.0,88,0.03,,---,0.19,VWS V14.01,2013-02-11 18:38:00,
2013-02-11 13:39:00,41.6,38.3,29.78,SSW,192,7.0,11.0,88,0.03,,---,0.19,VWS V14.01,2013-02-11 18:39:00,
2013-02-11 13:40:00,41.6,38.3,29.78,South,186,10.0,11.0,88,0.03,,---,0.19,VWS V14.01,2013-02-11 18:40:00,
2013-02-11 13:41:00,41.7,38.4,29.78,SSW,197,6.0,12.0,88,0.03,,---,0.19,VWS V14.01,2013-02-11 18:41:00,
2013-02-11 13:42:00,41.7,38.4,29.78,SSW,198,10.0,12.0,88,0.03,,---,0.19,VWS V14.01,2013-02-11 18:42:00,
2013-02-11 13:43:00,41.8,38.5,29.78,SSW,198,9.0,12.0,88,0.03,,---,0.19,VWS V14.01,2013-02-11 18:43:00,
2013-02-11 13:44:00,41.9,38.6,29.78,SSW,196,10.0,12.0,88,0.03,,---,0.19,VWS V14.01,2013-02-11 18:44:00,
2013-02-11 13:45:00,42.0,38.7,29.77,SSW,200,9.0,12.0,88,0.03,,---,0.19,VWS V14.01,2013-02-11 18:45:00,
2013-02-11 13:46:00,42.1,38.8,29.77,SSW,200,9.0,12.0,88,0.03,,---,0.19,VWS V14.01,2013-02-11 18:46:00,
2013-02-11 13:47:00,42.2,38.9,29.77,SSW,196,9.0,12.0,88,0.03,,---,0.19,VWS V14.01,2013-02-11 18:47:00,
2013-02-11 13:48:00,42.2,38.9,29.77,SW,215,9.0,12.0,88,0.03,,---,0.19,VWS V14.01,2013-02-11 18:48:00,
2013-02-11 13:49:00,42.3,39.0,29.77,South,182,8.0,12.0,88,0.03,,---,0.19,VWS V14.01,2013-02-11 18:49:00,
2013-02-11 13:50:00,42.3,39.0,29.77,SSW,196,7.0,12.0,88,0.03,,---,0.19,VWS V14.01,2013-02-11 18:50:00,
2013-02-11 13:51:00,42.4,39.1,29.77,SSW,200,7.0,12.0,88,0.03,,---,0.19,VWS V14.01,2013-02-11 18:51:00,
2013-02-11 13:52:00,42.4,39.1,29.77,SSW,198,8.0,12.0,88,0.03,,---,0.19,VWS V14.01,2013-02-11 18:52:00,
2013-02-11 13:53:00,42.4,39.1,29.77,SSW,209,9.0,12.0,88,0.03,,---,0.19,VWS V14.01,2013-02-11 18:53:00,
2013-02-11 13:54:00,42.4,39.1,29.76,SSW,196,11.0,12.0,88,0.03,,---,0.19,VWS V14.01,2013-02-11 18:54:00,
2013-02-11 13:55:00,42.5,39.2,29.76,SSW,193,9.0,13.0,88,0.03,,---,0.19,VWS V14.01,2013-02-11 18:55:00,
2013-02-11 13:56:00,42.5,39.2,29.76,South,191,7.0,13.0,88,0.03,,---,0.19,VWS V14.01,2013-02-11 18:56:00,
2013-02-11 13:57:00,42.7,39.4,29.76,SSW,202,8.0,13.0,88,0.03,,---,0.19,VWS V14.01,2013-02-11 18:57:00,
2013-02-11 13:58:00,42.7,39.4,29.76,SSW,209,11.0,13.0,88,0.03,,---,0.19,VWS V14.01,2013-02-11 18:58:00,
2013-02-11 13:59:00,42.9,39.6,29.76,SSW,201,12.0,13.0,88,0.03,,---,0.19,VWS V14.01,2013-02-11 18:59:00,
2013-02-11 14:00:00,43.0,39.7,29.76,SSW,204,10.0,13.0,88,0.03,,---,0.19,VWS V14.01,2013-02-11 19:00:00,
2013-02-11 14:01:00,43.1,39.8,29.76,SSW,202,10.0,12.0,88,0.02,,---,0.19,VWS V14.01,2013-02-11 19:01:00,
2013-02-11 14:02:00,43.1,39.8,29.76,SSW,202,11.0,12.0,88,0.02,,---,0.19,VWS V14.01,2013-02-11 19:02:00,
2013-02-11 14:03:00,43.2,39.9,29.76,SSW,199,10.0,12.0,88,0.02,,---,0.19,VWS V14.01,2013-02-11 19:03:00,
2013-02-11 14:04:00,43.2,39.9,29.76,SSW,200,11.0,12.0,88,0.02,,---,0.19,VWS V14.01,2013-02-11 19:04:00,
2013-02-11 14:05:00,43.2,39.9,29.76,SSW,207,10.0,12.0,88,0.02,,---,0.19,VWS V14.01,2013-02-11 19:05:00,
2013-02-11 14:06:00,43.2,39.9,29.76,SSW,205,11.0,12.0,88,0.02,,---,0.19,VWS V14.01,2013-02-11 19:06:00,
2013-02-11 14:07:00,43.2,39.9,29.76,SSW,205,11.0,12.0,88,0.02,,---,0.19,VWS V14.01,2013-02-11 19:07:00,
2013-02-11 14:08:00,43.2,39.9,29.76,SSW,204,11.0,12.0,88,0.02,,---,0.19,VWS V14.01,2013-02-11 19:08:00,
2013-02-11 14:09:00,43.2,39.9,29.76,SSW,206,10.0,12.0,88,0.02,,---,0.19,VWS V14.01,2013-02-11 19:09:00,
2013-02-11 14:10:00,43.3,40.0,29.76,SSW,204,12.0,13.0,88,0.02,,---,0.19,VWS V14.01,2013-02-11 19:10:00,
2013-02-11 14:11:00,43.4,40.1,29.76,SSW,206,11.0,13.0,88,0.02,,---,0.19,VWS V14.01,2013-02-11 19:11:00,
2013-02-11 14:12:00,43.4,40.1,29.76,SSW,202,12.0,13.0,88,0.02,,---,0.19,VWS V14.01,2013-02-11 19:12:00,
2013-02-11 14:13:00,43.5,40.2,29.75,SSW,202,11.0,13.0,88,0.02,,---,0.19,VWS V14.01,2013-02-11 19:13:00,
2013-02-11 14:14:00,43.6,40.3,29.75,SSW,202,12.0,13.0,88,0.02,,---,0.19,VWS V14.01,2013-02-11 19:14:00,
2013-02-11 14:15:00,43.6,40.3,29.75,SSW,202,10.0,13.0,88,0.02,,---,0.19,VWS V14.01,2013-02-11 19:15:00,
2013-02-11 14:16:00,43.6,40.3,29.75,SSW,205,10.0,13.0,88,0.02,,---,0.19,VWS V14.01,2013-02-11 19:16:00,
2013-02-11 14:17:00,43.7,40.4,29.75,SSW,206,10.0,13.0,88,0.02,,---,0.19,VWS V14.01,2013-02-11 19:17:00,
2013-02-11 14:18:00,43.7,40.4,29.75,SSW,204,11.0,13.0,88,0.03,,---,0.20,VWS V14.01,2013-02-11 19:18:00,
2013-02-11 14:19:00,43.6,40.3,29.75,SSW,202,9.0,13.0,88,0.03,,---,0.20,VWS V14.01,2013-02-11 19:19:00,
2013-02-11 14:20:00,43.6,40.3,29.75,SSW,202,10.0,13.0,88,0.03,,---,0.20,VWS V14.01,2013-02-11 19:20:00,
2013-02-11 14:21:00,43.6,40.3,29.75,SSW,198,10.0,13.0,88,0.03,,---,0.20,VWS V14.01,2013-02-11 19:21:00,
2013-02-11 14:22:00,43.6,40.3,29.75,SSW,200,11.0,13.0,88,0.03,,---,0.20,VWS V14.01,2013-02-11 19:22:00,
2013-02-11 14:23:00,43.6,40.3,29.75,SSW,202,10.0,13.0,88,0.03,,---,0.20,VWS V14.01,2013-02-11 19:23:00,
2013-02-11 14:24:00,43.6,40.3,29.74,SSW,202,11.0,13.0,88,0.03,,---,0.20,VWS V14.01,2013-02-11 19:24:00,
2013-02-11 14:25:00,43.7,40.4,29.75,SSW,205,11.0,13.0,88,0.03,,---,0.20,VWS V14.01,2013-02-11 19:25:00,
2013-02-11 14:26:00,43.7,40.4,29.75,SSW,207,10.0,13.0,88,0.03,,---,0.20,VWS V14.01,2013-02-11 19:26:00,
2013-02-11 14:27:00,43.7,40.4,29.75,SSW,208,10.0,13.0,88,0.03,,---,0.20,VWS V14.01,2013-02-11 19:27:00,
2013-02-11 14:28:00,43.6,40.3,29.75,SSW,205,10.0,13.0,88,0.03,,---,0.20,VWS V14.01,2013-02-11 19:28:00,
2013-02-11 14:29:00,43.6,40.3,29.75,SSW,209,11.0,13.0,88,0.03,,---,0.20,VWS V14.01,2013-02-11 19:29:00,
2013-02-11 14:30:00,43.6,40.3,29.75,SSW,207,12.0,13.0,88,0.03,,---,0.20,VWS V14.01,2013-02-11 19:30:00,
2013-02-11 14:31:00,43.6,40.3,29.75,SSW,207,12.0,13.0,88,0.02,,---,0.20,VWS V14.01,2013-02-11 19:31:00,
2013-02-11 14:32:00,43.6,40.3,29.75,SSW,205,11.0,13.0,88,0.02,,---,0.20,VWS V14.01,2013-02-11 19:32:00,
2013-02-11 14:33:00,43.6,40.3,29.75,SSW,206,11.0,13.0,88,0.02,,---,0.20,VWS V14.01,2013-02-11 19:33:00,
2013-02-11 14:34:00,43.6,40.3,29.74,SSW,205,11.0,13.0,88,0.02,,---,0.20,VWS V14.01,2013-02-11 19:34:00,
2013-02-11 14:35:00,43.6,40.3,29.74,SSW,207,10.0,13.0,88,0.02,,---,0.20,VWS V14.01,2013-02-11 19:35:00,
2013-02-11 14:36:00,43.6,40.3,29.74,SSW,202,12.0,13.0,88,0.02,,---,0.20,VWS V14.01,2013-02-11 19:36:00,
2013-02-11 14:37:00,43.7,40.4,29.74,SSW,202,10.0,13.0,88,0.02,,---,0.20,VWS V14.01,2013-02-11 19:37:00,
2013-02-11 14:38:00,43.7,40.4,29.74,SSW,202,12.0,13.0,88,0.02,,---,0.20,VWS V14.01,2013-02-11 19:38:00,
2013-02-11 14:39:00,43.8,40.5,29.74,SSW,202,13.0,13.0,88,0.02,,---,0.20,VWS V14.01,2013-02-11 19:39:00,
2013-02-11 14:40:00,43.9,40.6,29.74,SSW,200,12.0,13.0,88,0.02,,---,0.20,VWS V14.01,2013-02-11 19:40:00,
2013-02-11 14:41:00,44.0,40.7,29.74,SSW,203,11.0,13.0,88,0.02,,---,0.20,VWS V14.01,2013-02-11 19:41:00,
2013-02-11 14:42:00,44.0,40.7,29.74,SSW,202,12.0,13.0,88,0.02,,---,0.20,VWS V14.01,2013-02-11 19:42:00,
2013-02-11 14:43:00,44.0,40.7,29.74,SSW,204,13.0,13.0,88,0.02,,---,0.20,VWS V14.01,2013-02-11 19:43:00,
2013-02-11 14:44:00,44.0,40.7,29.74,SSW,205,12.0,13.0,88,0.02,,---,0.20,VWS V14.01,2013-02-11 19:44:00,
2013-02-11 14:45:00,44.0,40.7,29.74,SSW,204,14.0,14.0,88,0.02,,---,0.20,VWS V14.01,2013-02-11 19:45:00,
2013-02-11 14:46:00,44.0,40.7,29.74,SSW,202,12.0,14.0,88,0.03,,---,0.21,VWS V14.01,2013-02-11 19:46:00,
2013-02-11 14:47:00,44.0,40.7,29.73,SSW,205,10.0,14.0,88,0.03,,---,0.21,VWS V14.01,2013-02-11 19:47:00,
2013-02-11 14:48:00,44.0,40.7,29.73,SSW,202,12.0,14.0,88,0.03,,---,0.21,VWS V14.01,2013-02-11 19:48:00,
2013-02-11 14:49:00,44.0,40.7,29.73,SSW,205,12.0,14.0,88,0.03,,---,0.21,VWS V14.01,2013-02-11 19:49:00,
2013-02-11 14:50:00,44.0,40.7,29.73,SSW,203,11.0,14.0,88,0.03,,---,0.21,VWS V14.01,2013-02-11 19:50:00,
2013-02-11 14:51:00,43.9,40.6,29.73,SSW,203,10.0,14.0,88,0.03,,---,0.21,VWS V14.01,2013-02-11 19:51:00,
2013-02-11 14:52:00,43.9,40.6,29.73,SSW,201,7.0,14.0,88,0.03,,---,0.21,VWS V14.01,2013-02-11 19:52:00,
2013-02-11 14:53:00,43.9,40.6,29.73,SSW,204,9.0,14.0,88,0.04,,---,0.22,VWS V14.01,2013-02-11 19:53:00,
2013-02-11 14:54:00,43.9,40.6,29.73,SSW,202,8.0,14.0,88,0.04,,---,0.22,VWS V14.01,2013-02-11 19:54:00,
2013-02-11 14:55:00,43.9,40.6,29.73,SSW,205,8.0,14.0,88,0.04,,---,0.22,VWS V14.01,2013-02-11 19:55:00,
2013-02-11 14:56:00,43.9,40.6,29.73,SSW,206,7.0,14.0,88,0.05,,---,0.23,VWS V14.01,2013-02-11 19:56:00,
2013-02-11 14:57:00,43.8,40.5,29.73,SSW,205,7.0,14.0,88,0.05,,---,0.23,VWS V14.01,2013-02-11 19:57:00,
2013-02-11 14:58:00,43.8,40.5,29.72,SSW,206,7.0,14.0,88,0.05,,---,0.23,VWS V14.01,2013-02-11 19:58:00,
2013-02-11 14:59:00,43.7,40.4,29.72,SSW,206,8.0,14.0,88,0.05,,---,0.23,VWS V14.01,2013-02-11 19:59:00,
2013-02-11 15:00:00,43.7,40.4,29.72,SSW,204,8.0,14.0,88,0.05,,---,0.23,VWS V14.01,2013-02-11 20:00:00,
2013-02-11 15:01:00,43.8,40.5,29.72,SSW,209,7.0,8.0,88,0.04,,---,0.23,VWS V14.01,2013-02-11 20:01:00,
2013-02-11 15:02:00,43.7,40.4,29.72,SSW,207,7.0,8.0,88,0.04,,---,0.23,VWS V14.01,2013-02-11 20:02:00,
2013-02-11 15:03:00,43.7,40.4,29.72,SSW,207,7.0,8.0,88,0.04,,---,0.23,VWS V14.01,2013-02-11 20:03:00,
2013-02-11 15:04:00,43.6,40.3,29.72,SSW,208,7.0,8.0,88,0.04,,---,0.23,VWS V14.01,2013-02-11 20:04:00,
2013-02-11 15:05:00,43.4,40.1,29.72,SSW,211,6.0,8.0,88,0.04,,---,0.23,VWS V14.01,2013-02-11 20:05:00,
2013-02-11 15:06:00,43.3,40.0,29.72,SSW,213,7.0,8.0,88,0.04,,---,0.23,VWS V14.01,2013-02-11 20:06:00,
2013-02-11 15:07:00,43.2,39.9,29.72,SW,214,5.0,8.0,88,0.04,,---,0.23,VWS V14.01,2013-02-11 20:07:00,
2013-02-11 15:08:00,43.1,39.8,29.72,SW,214,5.0,8.0,88,0.04,,---,0.23,VWS V14.01,2013-02-11 20:08:00,
2013-02-11 15:09:00,43.0,39.7,29.72,SW,214,4.0,8.0,88,0.04,,---,0.23,VWS V14.01,2013-02-11 20:09:00,
2013-02-11 15:10:00,42.8,39.5,29.72,SSW,210,4.0,8.0,88,0.04,,---,0.23,VWS V14.01,2013-02-11 20:10:00,
2013-02-11 15:11:00,42.7,39.4,29.72,SSW,207,6.0,8.0,88,0.04,,---,0.23,VWS V14.01,2013-02-11 20:11:00,
2013-02-11 15:12:00,42.5,39.2,29.71,SSW,209,6.0,8.0,88,0.04,,---,0.23,VWS V14.01,2013-02-11 20:12:00,
2013-02-11 15:13:00,42.4,39.1,29.71,SSW,213,5.0,8.0,88,0.04,,---,0.23,VWS V14.01,2013-02-11 20:13:00,
2013-02-11 15:14:00,42.3,39.0,29.72,SSW,213,5.0,8.0,88,0.04,,---,0.23,VWS V14.01,2013-02-11 20:14:00,
2013-02-11 15:15:00,42.2,38.9,29.72,SW,215,5.0,8.0,88,0.04,,---,0.23,VWS V14.01,2013-02-11 20:15:00,
2013-02-11 15:16:00,42.0,38.7,29.72,SW,215,5.0,8.0,88,0.04,,---,0.23,VWS V14.01,2013-02-11 20:16:00,
2013-02-11 15:17:00,41.8,38.5,29.72,SW,215,5.0,8.0,88,0.04,,---,0.23,VWS V14.01,2013-02-11 20:17:00,
2013-02-11 15:18:00,41.7,38.4,29.72,SW,217,5.0,8.0,88,0.04,,---,0.23,VWS V14.01,2013-02-11 20:18:00,
2013-02-11 15:19:00,41.5,38.2,29.72,SW,216,4.0,8.0,88,0.04,,---,0.23,VWS V14.01,2013-02-11 20:19:00,
2013-02-11 15:20:00,41.4,38.1,29.72,SW,216,5.0,8.0,88,0.04,,---,0.23,VWS V14.01,2013-02-11 20:20:00,
2013-02-11 15:21:00,41.3,38.0,29.72,SW,217,4.0,8.0,88,0.04,,---,0.23,VWS V14.01,2013-02-11 20:21:00,
2013-02-11 15:22:00,41.2,37.9,29.71,SW,216,6.0,8.0,88,0.04,,---,0.23,VWS V14.01,2013-02-11 20:22:00,
2013-02-11 15:23:00,41.1,37.8,29.71,SSW,212,6.0,8.0,88,0.04,,---,0.23,VWS V14.01,2013-02-11 20:23:00,
2013-02-11 15:24:00,41.1,37.8,29.71,SSW,213,6.0,8.0,88,0.04,,---,0.23,VWS V14.01,2013-02-11 20:24:00,
2013-02-11 15:25:00,41.1,37.8,29.71,SSW,211,7.0,8.0,88,0.04,,---,0.23,VWS V14.01,2013-02-11 20:25:00,
2013-02-11 15:26:00,41.1,37.8,29.71,SSW,211,6.0,8.0,88,0.04,,---,0.23,VWS V14.01,2013-02-11 20:26:00,
2013-02-11 15:27:00,41.1,37.8,29.71,SSW,213,5.0,8.0,88,0.04,,---,0.23,VWS V14.01,2013-02-11 20:27:00,
2013-02-11 15:28:00,41.1,37.8,29.71,SSW,213,5.0,8.0,88,0.04,,---,0.23,VWS V14.01,2013-02-11 20:28:00,
2013-02-11 15:29:00,41.1,37.8,29.71,SW,214,5.0,8.0,88,0.04,,---,0.23,VWS V14.01,2013-02-11 20:29:00,
2013-02-11 15:30:00,41.1,37.8,29.71,SW,214,4.0,8.0,88,0.04,,---,0.23,VWS V14.01,2013-02-11 20:30:00,
2013-02-11 15:31:00,41.1,37.8,29.71,SW,214,5.0,6.0,88,0.03,,---,0.23,VWS V14.01,2013-02-11 20:31:00,
2013-02-11 15:32:00,41.0,37.7,29.71,SW,214,5.0,6.0,88,0.03,,---,0.23,VWS V14.01,2013-02-11 20:32:00,
2013-02-11 15:33:00,40.9,37.6,29.71,SSW,212,6.0,6.0,88,0.03,,---,0.23,VWS V14.01,2013-02-11 20:33:00,
2013-02-11 15:34:00,40.9,37.6,29.71,SSW,210,6.0,7.0,88,0.03,,---,0.23,VWS V14.01,2013-02-11 20:34:00,
2013-02-11 15:35:00,40.9,37.6,29.71,SSW,209,6.0,7.0,88,0.03,,---,0.23,VWS V14.01,2013-02-11 20:35:00,
2013-02-11 15:36:00,40.9,37.6,29.71,SSW,210,6.0,7.0,88,0.03,,---,0.23,VWS V14.01,2013-02-11 20:36:00,
2013-02-11 15:37:00,40.9,37.6,29.71,SSW,209,6.0,7.0,88,0.03,,---,0.23,VWS V14.01,2013-02-11 20:37:00,
2013-02-11 15:38:00,41.0,37.7,29.71,SSW,208,6.0,7.0,88,0.03,,---,0.23,VWS V14.01,2013-02-11 20:38:00,
2013-02-11 15:39:00,41.1,37.8,29.71,SSW,211,7.0,7.0,88,0.03,,---,0.23,VWS V14.01,2013-02-11 20:39:00,
2013-02-11 15:40:00,41.2,37.9,29.71,SSW,210,7.0,7.0,88,0.03,,---,0.23,VWS V14.01,2013-02-11 20:40:00,
2013-02-11 15:41:00,41.4,38.1,29.70,SSW,208,7.0,7.0,88,0.03,,---,0.23,VWS V14.01,2013-02-11 20:41:00,
2013-02-11 15:42:00,41.4,38.1,29.70,SSW,208,7.0,7.0,88,0.03,,---,0.23,VWS V14.01,2013-02-11 20:42:00,
2013-02-11 15:43:00,41.5,38.2,29.70,SSW,208,7.0,8.0,88,0.03,,---,0.23,VWS V14.01,2013-02-11 20:43:00,
2013-02-11 15:44:00,41.8,38.5,29.70,SSW,205,7.0,8.0,88,0.03,,---,0.23,VWS V14.01,2013-02-11 20:44:00,
2013-02-11 15:45:00,41.9,38.6,29.70,SSW,206,7.0,8.0,88,0.03,,---,0.23,VWS V14.01,2013-02-11 20:45:00,
2013-02-11 15:46:00,42.1,38.8,29.70,SSW,207,7.0,8.0,88,0.03,,---,0.23,VWS V14.01,2013-02-11 20:46:00,
2013-02-11 15:47:00,42.3,39.0,29.70,SSW,208,7.0,8.0,88,0.03,,---,0.23,VWS V14.01,2013-02-11 20:47:00,
2013-02-11 15:48:00,42.2,38.9,29.70,SSW,207,7.0,8.0,88,0.03,,---,0.23,VWS V14.01,2013-02-11 20:48:00,
2013-02-11 15:49:00,42.2,38.9,29.70,SSW,205,7.0,8.0,88,0.03,,---,0.23,VWS V14.01,2013-02-11 20:49:00,
2013-02-11 15:50:00,42.2,38.9,29.70,SSW,207,6.0,8.0,88,0.03,,---,0.23,VWS V14.01,2013-02-11 20:50:00,
2013-02-11 15:51:00,42.1,38.8,29.70,SSW,204,7.0,8.0,88,0.03,,---,0.23,VWS V14.01,2013-02-11 20:51:00,
2013-02-11 15:52:00,42.0,38.7,29.70,SSW,207,6.0,8.0,88,0.03,,---,0.23,VWS V14.01,2013-02-11 20:52:00,
2013-02-11 15:53:00,42.0,38.7,29.70,SSW,209,6.0,8.0,88,0.03,,---,0.23,VWS V14.01,2013-02-11 20:53:00,
2013-02-11 15:54:00,42.0,38.7,29.70,SSW,209,6.0,8.0,88,0.03,,---,0.23,VWS V14.01,2013-02-11 20:54:00,
2013-02-11 15:55:00,42.0,38.7,29.70,SSW,209,5.0,8.0,88,0.03,,---,0.23,VWS V14.01,2013-02-11 20:55:00,
2013-02-11 15:56:00,41.9,38.6,29.70,SSW,207,6.0,8.0,88,0.03,,---,0.23,VWS V14.01,2013-02-11 20:56:00,
2013-02-11 15:57:00,41.9,38.6,29.69,SSW,205,7.0,8.0,88,0.03,,---,0.23,VWS V14.01,2013-02-11 20:57:00,
2013-02-11 15:58:00,41.9,38.6,29.69,SSW,201,7.0,8.0,88,0.03,,---,0.23,VWS V14.01,2013-02-11 20:58:00,
2013-02-11 15:59:00,42.0,38.7,29.69,SW,215,7.0,8.0,88,0.03,,---,0.23,VWS V14.01,2013-02-11 20:59:00,
2013-02-11 16:00:00,42.3,39.0,29.69,SSW,211,6.0,8.0,88,0.03,,---,0.23,VWS V14.01,2013-02-11 21:00:00,
2013-02-11 16:01:00,42.4,39.1,29.69,SSW,212,5.0,7.0,88,0.00,,---,0.23,VWS V14.01,2013-02-11 21:01:00,
2013-02-11 16:02:00,42.4,39.1,29.70,SSW,213,4.0,7.0,88,0.00,,---,0.23,VWS V14.01,2013-02-11 21:02:00,
2013-02-11 16:03:00,42.4,39.1,29.70,SSW,213,2.0,7.0,88,0.00,,---,0.23,VWS V14.01,2013-02-11 21:03:00,
2013-02-11 16:04:00,42.2,38.9,29.69,SSW,213,2.0,7.0,88,0.00,,---,0.23,VWS V14.01,2013-02-11 21:04:00,
2013-02-11 16:05:00,42.1,38.8,29.69,SSW,213,1.0,7.0,88,0.00,,---,0.23,VWS V14.01,2013-02-11 21:05:00,
2013-02-11 16:06:00,41.9,38.6,29.70,SSW,213,0.0,7.0,88,0.00,,---,0.23,VWS V14.01,2013-02-11 21:06:00,
2013-02-11 16:07:00,41.7,38.4,29.70,SSW,213,0.0,7.0,88,0.00,,---,0.23,VWS V14.01,2013-02-11 21:07:00,
2013-02-11 16:08:00,41.5,38.2,29.70,SSW,213,0.0,7.0,88,0.00,,---,0.23,VWS V14.01,2013-02-11 21:08:00,
2013-02-11 16:09:00,41.3,38.0,29.70,SSW,213,0.0,7.0,88,0.00,,---,0.23,VWS V14.01,2013-02-11 21:09:00,
2013-02-11 16:10:00,41.1,37.8,29.70,SW,225,1.0,7.0,88,0.00,,---,0.23,VWS V14.01,2013-02-11 21:10:00,
2013-02-11 16:11:00,40.9,37.6,29.70,NNW,346,5.0,7.0,88,0.00,,---,0.23,VWS V14.01,2013-02-11 21:11:00,
2013-02-11 16:12:00,40.6,37.3,29.70,NNW,345,2.0,7.0,88,0.00,,---,0.23,VWS V14.01,2013-02-11 21:12:00,
2013-02-11 16:13:00,40.5,37.2,29.70,NNW,345,1.0,7.0,88,0.00,,---,0.23,VWS V14.01,2013-02-11 21:13:00,
2013-02-11 16:14:00,40.4,37.1,29.70,NNW,345,0.0,7.0,88,0.00,,---,0.23,VWS V14.01,2013-02-11 21:14:00,
2013-02-11 16:15:00,40.4,37.1,29.70,NNW,345,0.0,7.0,88,0.00,,---,0.23,VWS V14.01,2013-02-11 21:15:00,
2013-02-11 16:16:00,40.4,37.1,29.70,NNW,345,0.0,7.0,88,0.00,,---,0.23,VWS V14.01,2013-02-11 21:16:00,
2013-02-11 16:17:00,40.5,37.2,29.70,NNW,345,0.0,7.0,88,0.00,,---,0.23,VWS V14.01,2013-02-11 21:17:00,
2013-02-11 16:18:00,40.5,37.2,29.70,NNW,345,0.0,7.0,88,0.00,,---,0.23,VWS V14.01,2013-02-11 21:18:00,
2013-02-11 16:19:00,40.5,37.2,29.69,WNW,290,2.0,7.0,88,0.00,,---,0.23,VWS V14.01,2013-02-11 21:19:00,
2013-02-11 16:20:00,40.6,37.3,29.69,WNW,290,2.0,7.0,88,0.00,,---,0.23,VWS V14.01,2013-02-11 21:20:00,
2013-02-11 16:21:00,40.8,37.5,29.69,WNW,290,0.0,7.0,88,0.00,,---,0.23,VWS V14.01,2013-02-11 21:21:00,
2013-02-11 16:22:00,41.0,37.7,29.69,WNW,290,1.0,7.0,88,0.00,,---,0.23,VWS V14.01,2013-02-11 21:22:00,
2013-02-11 16:23:00,41.1,37.8,29.69,WNW,290,2.0,7.0,88,0.00,,---,0.23,VWS V14.01,2013-02-11 21:23:00,
2013-02-11 16:24:00,41.3,38.0,29.69,WNW,289,3.0,7.0,88,0.00,,---,0.23,VWS V14.01,2013-02-11 21:24:00,
2013-02-11 16:25:00,41.4,38.1,29.69,WNW,287,2.0,7.0,88,0.00,,---,0.23,VWS V14.01,2013-02-11 21:25:00,
2013-02-11 16:26:00,41.5,38.2,29.69,WNW,287,3.0,7.0,88,0.00,,---,0.23,VWS V14.01,2013-02-11 21:26:00,
2013-02-11 16:27:00,41.6,38.3,29.69,SW,229,5.0,7.0,88,0.00,,---,0.23,VWS V14.01,2013-02-11 21:27:00,
2013-02-11 16:28:00,41.7,38.4,29.69,SW,221,4.0,7.0,88,0.00,,---,0.23,VWS V14.01,2013-02-11 21:28:00,
2013-02-11 16:29:00,41.7,38.4,29.69,SW,219,5.0,7.0,88,0.00,,---,0.23,VWS V14.01,2013-02-11 21:29:00,
2013-02-11 16:30:00,41.8,38.5,29.69,SW,219,5.0,7.0,88,0.00,,---,0.23,VWS V14.01,2013-02-11 21:30:00,
2013-02-11 16:31:00,41.9,38.6,29.69,SW,217,6.0,6.0,88,0.00,,---,0.23,VWS V14.01,2013-02-11 21:31:00,
2013-02-11 16:32:00,42.0,38.7,29.69,SW,214,6.0,6.0,88,0.00,,---,0.23,VWS V14.01,2013-02-11 21:32:00,
2013-02-11 16:33:00,42.2,38.9,29.69,SW,215,7.0,7.0,88,0.00,,---,0.23,VWS V14.01,2013-02-11 21:33:00,
2013-02-11 16:34:00,42.3,39.0,29.69,SW,215,7.0,8.0,88,0.00,,---,0.23,VWS V14.01,2013-02-11 21:34:00,
2013-02-11 16:35:00,42.4,39.1,29.68,SW,217,6.0,8.0,88,0.00,,---,0.23,VWS V14.01,2013-02-11 21:35:00,
2013-02-11 16:36:00,42.6,39.3,29.68,SSW,213,7.0,8.0,88,0.00,,---,0.23,VWS V14.01,2013-02-11 21:36:00,
2013-02-11 16:37:00,42.8,39.5,29.68,SW,215,7.0,8.0,88,0.00,,---,0.23,VWS V14.01,2013-02-11 21:37:00,
2013-02-11 16:38:00,42.9,39.6,29.69,SW,219,7.0,8.0,88,0.00,,---,0.23,VWS V14.01,2013-02-11 21:38:00,
2013-02-11 16:39:00,42.9,39.6,29.69,SW,219,7.0,8.0,88,0.00,,---,0.23,VWS V14.01,2013-02-11 21:39:00,
2013-02-11 16:40:00,43.0,39.7,29.69,SW,217,7.0,8.0,88,0.00,,---,0.23,VWS V14.01,2013-02-11 21:40:00,
2013-02-11 16:41:00,43.0,39.7,29.69,SW,220,6.0,8.0,88,0.00,,---,0.23,VWS V14.01,2013-02-11 21:41:00,
2013-02-11 16:42:00,43.0,39.7,29.69,SW,219,6.0,8.0,88,0.00,,---,0.23,VWS V14.01,2013-02-11 21:42:00,
2013-02-11 16:43:00,42.9,39.6,29.69,SW,220,6.0,8.0,88,0.00,,---,0.23,VWS V14.01,2013-02-11 21:43:00,
2013-02-11 16:44:00,42.9,39.6,29.68,SW,220,6.0,8.0,88,0.00,,---,0.23,VWS V14.01,2013-02-11 21:44:00,
2013-02-11 16:45:00,42.9,39.6,29.68,SW,220,6.0,8.0,88,0.00,,---,0.23,VWS V14.01,2013-02-11 21:45:00,
2013-02-11 16:46:00,42.9,39.6,29.68,SW,221,5.0,8.0,88,0.00,,---,0.23,VWS V14.01,2013-02-11 21:46:00,
2013-02-11 16:47:00,42.9,39.6,29.68,SW,221,6.0,8.0,88,0.00,,---,0.23,VWS V14.01,2013-02-11 21:47:00,
2013-02-11 16:48:00,42.8,39.5,29.68,SW,221,5.0,8.0,88,0.00,,---,0.23,VWS V14.01,2013-02-11 21:48:00,
2013-02-11 16:49:00,42.8,39.5,29.68,SW,221,5.0,8.0,88,0.00,,---,0.23,VWS V14.01,2013-02-11 21:49:00,
2013-02-11 16:50:00,42.8,39.5,29.68,SW,217,5.0,8.0,88,0.00,,---,0.23,VWS V14.01,2013-02-11 21:50:00,
2013-02-11 16:51:00,42.8,39.5,29.68,SW,217,5.0,8.0,88,0.00,,---,0.23,VWS V14.01,2013-02-11 21:51:00,
2013-02-11 16:52:00,42.8,39.5,29.68,SW,217,5.0,8.0,88,0.00,,---,0.23,VWS V14.01,2013-02-11 21:52:00,
2013-02-11 16:53:00,42.9,39.6,29.68,SW,217,4.0,8.0,88,0.00,,---,0.23,VWS V14.01,2013-02-11 21:53:00,
2013-02-11 16:54:00,42.9,39.6,29.68,SW,216,4.0,8.0,88,0.00,,---,0.23,VWS V14.01,2013-02-11 21:54:00,
2013-02-11 16:55:00,42.9,39.6,29.68,SW,216,5.0,8.0,88,0.00,,---,0.23,VWS V14.01,2013-02-11 21:55:00,
2013-02-11 16:56:00,42.9,39.6,29.68,SW,216,5.0,8.0,88,0.00,,---,0.23,VWS V14.01,2013-02-11 21:56:00,
2013-02-11 16:57:00,42.9,39.6,29.68,SW,217,5.0,8.0,88,0.00,,---,0.23,VWS V14.01,2013-02-11 21:57:00,
2013-02-11 16:58:00,42.8,39.5,29.68,SW,217,5.0,8.0,88,0.00,,---,0.23,VWS V14.01,2013-02-11 21:58:00,
2013-02-11 16:59:00,42.8,39.5,29.68,SW,218,5.0,8.0,88,0.00,,---,0.23,VWS V14.01,2013-02-11 21:59:00,
2013-02-11 17:00:00,42.7,39.4,29.68,SW,219,4.0,8.0,88,0.00,,---,0.23,VWS V14.01,2013-02-11 22:00:00,
2013-02-11 17:01:00,42.6,39.3,29.68,SW,219,5.0,6.0,88,0.00,,---,0.23,VWS V14.01,2013-02-11 22:01:00,
2013-02-11 17:02:00,42.5,39.2,29.68,SW,219,5.0,6.0,88,0.00,,---,0.23,VWS V14.01,2013-02-11 22:02:00,
2013-02-11 17:03:00,42.5,39.2,29.68,SW,219,5.0,6.0,88,0.00,,---,0.23,VWS V14.01,2013-02-11 22:03:00,
2013-02-11 17:04:00,42.5,39.2,29.68,SW,219,5.0,6.0,88,0.00,,---,0.23,VWS V14.01,2013-02-11 22:04:00,
2013-02-11 17:05:00,42.5,39.2,29.68,SW,219,6.0,6.0,88,0.00,,---,0.23,VWS V14.01,2013-02-11 22:05:00,
2013-02-11 17:06:00,42.6,39.3,29.68,SW,219,5.0,6.0,88,0.00,,---,0.23,VWS V14.01,2013-02-11 22:06:00,
2013-02-11 17:07:00,42.7,39.4,29.68,SW,217,7.0,7.0,88,0.00,,---,0.23,VWS V14.01,2013-02-11 22:07:00,
2013-02-11 17:08:00,42.8,39.5,29.68,SW,216,6.0,7.0,88,0.00,,---,0.23,VWS V14.01,2013-02-11 22:08:00,
2013-02-11 17:09:00,42.9,39.6,29.68,SW,215,6.0,7.0,88,0.00,,---,0.23,VWS V14.01,2013-02-11 22:09:00,
2013-02-11 17:10:00,43.0,39.7,29.69,SSW,213,7.0,7.0,88,0.00,,---,0.23,VWS V14.01,2013-02-11 22:10:00,
2013-02-11 17:11:00,43.1,39.8,29.68,SSW,213,7.0,8.0,88,0.00,,---,0.23,VWS V14.01,2013-02-11 22:11:00,
2013-02-11 17:12:00,43.1,39.8,29.68,SSW,213,7.0,9.0,88,0.00,,---,0.23,VWS V14.01,2013-02-11 22:12:00,
2013-02-11 17:13:00,43.1,39.8,29.68,SSW,213,7.0,9.0,88,0.00,,---,0.23,VWS V14.01,2013-02-11 22:13:00,
2013-02-11 17:14:00,43.1,39.8,29.68,SSW,213,8.0,9.0,88,0.00,,---,0.23,VWS V14.01,2013-02-11 22:14:00,
2013-02-11 17:15:00,43.2,39.9,29.68,SSW,212,7.0,9.0,88,0.00,,---,0.23,VWS V14.01,2013-02-11 22:15:00,
2013-02-11 17:16:00,43.3,40.0,29.68,SSW,211,7.0,9.0,88,0.00,,---,0.23,VWS V14.01,2013-02-11 22:16:00,
2013-02-11 17:17:00,43.5,40.2,29.68,SSW,213,7.0,9.0,88,0.00,,---,0.23,VWS V14.01,2013-02-11 22:17:00,
2013-02-11 17:18:00,43.6,40.3,29.68,SW,214,7.0,9.0,88,0.00,,---,0.23,VWS V14.01,2013-02-11 22:18:00,
2013-02-11 17:19:00,43.7,40.4,29.68,SW,214,7.0,9.0,88,0.00,,---,0.23,VWS V14.01,2013-02-11 22:19:00,
2013-02-11 17:20:00,43.8,40.5,29.68,SW,216,7.0,9.0,88,0.00,,---,0.23,VWS V14.01,2013-02-11 22:20:00,
2013-02-11 17:21:00,43.8,40.5,29.68,SW,216,7.0,9.0,88,0.00,,---,0.23,VWS V14.01,2013-02-11 22:21:00,
2013-02-11 17:22:00,43.9,40.6,29.68,SW,217,7.0,9.0,88,0.00,,---,0.23,VWS V14.01,2013-02-11 22:22:00,
2013-02-11 17:23:00,43.9,40.6,29.68,SW,215,6.0,9.0,88,0.00,,---,0.23,VWS V14.01,2013-02-11 22:23:00,
2013-02-11 17:24:00,43.9,40.6,29.68,SW,216,7.0,9.0,88,0.00,,---,0.23,VWS V14.01,2013-02-11 22:24:00,
2013-02-11 17:25:00,43.9,40.6,29.68,SW,219,7.0,9.0,88,0.00,,---,0.23,VWS V14.01,2013-02-11 22:25:00,
2013-02-11 17:26:00,43.9,40.6,29.68,SW,220,6.0,9.0,88,0.00,,---,0.23,VWS V14.01,2013-02-11 22:26:00,
2013-02-11 17:27:00,43.8,40.5,29.68,SW,221,6.0,9.0,88,0.00,,---,0.23,VWS V14.01,2013-02-11 22:27:00,
2013-02-11 17:28:00,43.8,40.5,29.68,SW,221,5.0,9.0,88,0.00,,---,0.23,VWS V14.01,2013-02-11 22:28:00,
2013-02-11 17:29:00,43.7,40.4,29.68,SW,222,6.0,9.0,88,0.00,,---,0.23,VWS V14.01,2013-02-11 22:29:00,
2013-02-11 17:30:00,43.6,40.3,29.68,SW,223,5.0,6.0,88,0.00,,---,0.23,VWS V14.01,2013-02-11 22:30:00,
2013-02-11 17:31:00,43.6,40.3,29.68,SW,225,5.0,6.0,88,0.00,,---,0.23,VWS V14.01,2013-02-11 22:31:00,
2013-02-11 17:32:00,43.5,40.2,29.68,SW,226,7.0,7.0,88,0.00,,---,0.23,VWS V14.01,2013-02-11 22:32:00,
2013-02-11 17:33:00,43.4,40.1,29.68,SW,225,6.0,7.0,88,0.00,,---,0.23,VWS V14.01,2013-02-11 22:33:00,
2013-02-11 17:34:00,43.4,40.1,29.68,SW,222,7.0,7.0,88,0.00,,---,0.23,VWS V14.01,2013-02-11 22:34:00,
2013-02-11 17:35:00,43.5,40.2,29.68,SW,217,7.0,9.0,88,0.00,,---,0.23,VWS V14.01,2013-02-11 22:35:00,
2013-02-11 17:36:00,43.5,40.2,29.68,SW,223,7.0,9.0,88,0.00,,---,0.23,VWS V14.01,2013-02-11 22:36:00,
2013-02-11 17:37:00,43.4,40.1,29.68,SW,221,5.0,9.0,88,0.00,,---,0.23,VWS V14.01,2013-02-11 22:37:00,
2013-02-11 17:38:00,43.4,40.1,29.68,SW,214,7.0,9.0,88,0.00,,---,0.23,VWS V14.01,2013-02-11 22:38:00,
2013-02-11 17:39:00,43.3,40.0,29.68,SW,215,7.0,9.0,88,0.00,,---,0.23,VWS V14.01,2013-02-11 22:39:00,
2013-02-11 17:40:00,43.2,39.9,29.68,SW,217,7.0,9.0,88,0.00,,---,0.23,VWS V14.01,2013-02-11 22:40:00,
2013-02-11 17:41:00,43.2,39.9,29.68,SW,214,8.0,9.0,88,0.00,,---,0.23,VWS V14.01,2013-02-11 22:41:00,
2013-02-11 17:42:00,43.2,39.9,29.67,SSW,213,7.0,9.0,88,0.00,,---,0.23,VWS V14.01,2013-02-11 22:42:00,
2013-02-11 17:43:00,43.3,40.0,29.67,SW,216,6.0,9.0,88,0.00,,---,0.23,VWS V14.01,2013-02-11 22:43:00,
2013-02-11 17:44:00,43.4,40.1,29.67,SSW,213,7.0,9.0,88,0.00,,---,0.23,VWS V14.01,2013-02-11 22:44:00,
2013-02-11 17:45:00,43.4,40.1,29.67,SW,215,7.0,9.0,88,0.00,,---,0.23,VWS V14.01,2013-02-11 22:45:00,
2013-02-11 17:46:00,43.4,40.1,29.67,SW,219,7.0,9.0,88,0.00,,---,0.23,VWS V14.01,2013-02-11 22:46:00,
2013-02-11 17:47:00,43.5,40.2,29.67,SW,219,6.0,9.0,88,0.00,,---,0.23,VWS V14.01,2013-02-11 22:47:00,
2013-02-11 17:48:00,43.5,40.2,29.67,SW,220,6.0,9.0,88,0.00,,---,0.23,VWS V14.01,2013-02-11 22:48:00,
2013-02-11 17:49:00,43.4,40.1,29.67,SW,223,6.0,9.0,88,0.00,,---,0.23,VWS V14.01,2013-02-11 22:49:00,
2013-02-11 17:50:00,43.3,40.0,29.67,SW,222,5.0,9.0,88,0.00,,---,0.23,VWS V14.01,2013-02-11 22:50:00,
2013-02-11 17:51:00,43.2,39.9,29.67,SW,222,7.0,9.0,88,0.00,,---,0.23,VWS V14.01,2013-02-11 22:51:00,
2013-02-11 17:52:00,43.1,39.8,29.67,SW,226,6.0,9.0,88,0.00,,---,0.23,VWS V14.01,2013-02-11 22:52:00,
2013-02-11 17:53:00,43.1,39.8,29.67,SW,226,6.0,9.0,88,0.00,,---,0.23,VWS V14.01,2013-02-11 22:53:00,
2013-02-11 17:54:00,43.1,39.8,29.67,SW,224,5.0,9.0,88,0.00,,---,0.23,VWS V14.01,2013-02-11 22:54:00,
2013-02-11 17:55:00,43.1,39.8,29.67,SW,229,5.0,9.0,88,0.00,,---,0.23,VWS V14.01,2013-02-11 22:55:00,
2013-02-11 17:56:00,43.1,39.8,29.67,SW,229,4.0,9.0,88,0.00,,---,0.23,VWS V14.01,2013-02-11 22:56:00,
2013-02-11 17:57:00,43.1,39.8,29.67,SW,229,4.0,9.0,88,0.00,,---,0.23,VWS V14.01,2013-02-11 22:57:00,
2013-02-11 17:58:00,43.1,39.8,29.67,SW,229,5.0,9.0,88,0.00,,---,0.23,VWS V14.01,2013-02-11 22:58:00,
2013-02-11 17:59:00,43.1,39.8,29.67,SW,230,5.0,9.0,88,0.00,,---,0.23,VWS V14.01,2013-02-11 22:59:00,
2013-02-11 18:00:00,43.2,39.9,29.67,SW,234,5.0,9.0,88,0.00,,---,0.23,VWS V14.01,2013-02-11 23:00:00,
2013-02-11 18:01:00,43.3,40.0,29.67,SW,231,5.0,6.0,88,0.00,,---,0.23,VWS V14.01,2013-02-11 23:01:00,
2013-02-11 18:02:00,43.3,40.0,29.67,SW,227,5.0,6.0,88,0.00,,---,0.23,VWS V14.01,2013-02-11 23:02:00,
2013-02-11 18:03:00,43.3,40.0,29.67,SW,221,6.0,6.0,88,0.00,,---,0.23,VWS V14.01,2013-02-11 23:03:00,
2013-02-11 18:04:00,43.4,40.1,29.66,SW,219,5.0,6.0,88,0.00,,---,0.23,VWS V14.01,2013-02-11 23:04:00,
2013-02-11 18:05:00,43.3,40.0,29.66,SW,220,5.0,6.0,88,0.00,,---,0.23,VWS V14.01,2013-02-11 23:05:00,
2013-02-11 18:06:00,43.3,40.0,29.66,SW,219,6.0,6.0,88,0.00,,---,0.23,VWS V14.01,2013-02-11 23:06:00,
2013-02-11 18:07:00,43.3,40.0,29.66,SW,223,5.0,6.0,88,0.00,,---,0.23,VWS V14.01,2013-02-11 23:07:00,
2013-02-11 18:08:00,43.3,40.0,29.66,SW,223,5.0,6.0,88,0.00,,---,0.23,VWS V14.01,2013-02-11 23:08:00,
2013-02-11 18:09:00,43.4,40.1,29.66,SW,225,6.0,6.0,88,0.00,,---,0.23,VWS V14.01,2013-02-11 23:09:00,
2013-02-11 18:10:00,43.4,40.1,29.66,SW,223,5.0,6.0,88,0.00,,---,0.23,VWS V14.01,2013-02-11 23:10:00,
2013-02-11 18:11:00,43.4,40.1,29.66,SW,225,6.0,6.0,88,0.00,,---,0.23,VWS V14.01,2013-02-11 23:11:00,
2013-02-11 18:12:00,43.4,40.1,29.66,SW,225,4.0,6.0,88,0.00,,---,0.23,VWS V14.01,2013-02-11 23:12:00,
2013-02-11 18:13:00,43.4,40.1,29.66,SW,225,5.0,6.0,88,0.00,,---,0.23,VWS V14.01,2013-02-11 23:13:00,
2013-02-11 18:14:00,43.4,40.1,29.66,SW,225,5.0,6.0,88,0.00,,---,0.23,VWS V14.01,2013-02-11 23:14:00,
2013-02-11 18:15:00,43.5,40.2,29.66,SW,225,4.0,6.0,88,0.00,,---,0.23,VWS V14.01,2013-02-11 23:15:00,
2013-02-11 18:16:00,43.4,40.1,29.66,SW,225,4.0,6.0,88,0.00,,---,0.23,VWS V14.01,2013-02-11 23:16:00,
2013-02-11 18:17:00,43.4,40.1,29.65,SW,225,4.0,6.0,88,0.00,,---,0.23,VWS V14.01,2013-02-11 23:17:00,
2013-02-11 18:18:00,43.4,40.1,29.66,WSW,257,2.0,6.0,88,0.00,,---,0.23,VWS V14.01,2013-02-11 23:18:00,
2013-02-11 18:19:00,43.1,39.8,29.66,WSW,257,4.0,6.0,88,0.00,,---,0.23,VWS V14.01,2013-02-11 23:19:00,
2013-02-11 18:20:00,42.9,39.6,29.66,WSW,257,4.0,6.0,88,0.00,,---,0.23,VWS V14.01,2013-02-11 23:20:00,
2013-02-11 18:21:00,42.8,39.5,29.66,WSW,258,3.0,6.0,88,0.00,,---,0.23,VWS V14.01,2013-02-11 23:21:00,
2013-02-11 18:22:00,42.7,39.4,29.65,West,268,2.0,6.0,88,0.00,,---,0.23,VWS V14.01,2013-02-11 23:22:00,
2013-02-11 18:23:00,42.5,39.2,29.65,West,268,3.0,6.0,88,0.00,,---,0.23,VWS V14.01,2013-02-11 23:23:00,
2013-02-11 18:24:00,42.4,39.1,29.65,West,268,1.0,6.0,88,0.00,,---,0.23,VWS V14.01,2013-02-11 23:24:00,
2013-02-11 18:25:00,42.3,39.0,29.65,West,268,2.0,6.0,88,0.00,,---,0.23,VWS V14.01,2013-02-11 23:25:00,
2013-02-11 18:26:00,42.2,38.9,29.65,West,268,1.0,6.0,88,0.00,,---,0.23,VWS V14.01,2013-02-11 23:26:00,
2013-02-11 18:27:00,42.2,38.9,29.65,West,268,0.0,6.0,88,0.00,,---,0.23,VWS V14.01,2013-02-11 23:27:00,
2013-02-11 18:28:00,42.3,39.0,29.65,West,268,2.0,6.0,88,0.00,,---,0.23,VWS V14.01,2013-02-11 23:28:00,
2013-02-11 18:29:00,42.3,39.0,29.65,WSW,242,7.0,7.0,88,0.00,,---,0.23,VWS V14.01,2013-02-11 23:29:00,
2013-02-11 18:30:00,42.6,39.3,29.65,WSW,258,2.0,7.0,88,0.00,,---,0.23,VWS V14.01,2013-02-11 23:30:00,
2013-02-11 18:31:00,42.7,39.4,29.65,West,259,2.0,3.0,88,0.00,,---,0.23,VWS V14.01,2013-02-11 23:31:00,
2013-02-11 18:32:00,42.7,39.4,29.64,WSW,258,1.0,3.0,88,0.00,,---,0.23,VWS V14.01,2013-02-11 23:32:00,
2013-02-11 18:33:00,42.7,39.4,29.64,WSW,258,2.0,3.0,88,0.00,,---,0.23,VWS V14.01,2013-02-11 23:33:00,
2013-02-11 18:34:00,42.7,39.4,29.64,WSW,258,4.0,4.0,88,0.00,,---,0.23,VWS V14.01,2013-02-11 23:34:00,
2013-02-11 18:35:00,42.7,39.4,29.64,WSW,258,1.0,4.0,88,0.00,,---,0.23,VWS V14.01,2013-02-11 23:35:00,
2013-02-11 18:36:00,42.7,39.4,29.64,WSW,258,2.0,4.0,88,0.00,,---,0.23,VWS V14.01,2013-02-11 23:36:00,
2013-02-11 18:37:00,42.7,39.4,29.64,West,259,3.0,4.0,88,0.00,,---,0.23,VWS V14.01,2013-02-11 23:37:00,
2013-02-11 18:38:00,42.7,39.4,29.64,West,259,3.0,5.0,88,0.00,,---,0.23,VWS V14.01,2013-02-11 23:38:00,
2013-02-11 18:39:00,42.6,39.3,29.64,West,262,4.0,5.0,88,0.00,,---,0.23,VWS V14.01,2013-02-11 23:39:00,
2013-02-11 18:40:00,42.6,39.3,29.64,West,262,4.0,5.0,88,0.00,,---,0.23,VWS V14.01,2013-02-11 23:40:00,
2013-02-11 18:41:00,42.6,39.3,29.64,West,263,4.0,5.0,88,0.00,,---,0.23,VWS V14.01,2013-02-11 23:41:00,
2013-02-11 18:42:00,42.7,39.4,29.64,West,262,4.0,5.0,88,0.00,,---,0.23,VWS V14.01,2013-02-11 23:42:00,
2013-02-11 18:43:00,42.7,39.4,29.64,West,262,3.0,5.0,88,0.00,,---,0.23,VWS V14.01,2013-02-11 23:43:00,
2013-02-11 18:44:00,42.8,39.5,29.64,WSW,257,4.0,5.0,88,0.00,,---,0.23,VWS V14.01,2013-02-11 23:44:00,
2013-02-11 18:45:00,42.9,39.6,29.64,WSW,256,3.0,5.0,88,0.00,,---,0.23,VWS V14.01,2013-02-11 23:45:00,
2013-02-11 18:46:00,42.9,39.6,29.64,WSW,256,3.0,5.0,88,0.00,,---,0.23,VWS V14.01,2013-02-11 23:46:00,
2013-02-11 18:47:00,42.9,39.6,29.63,WSW,256,3.0,5.0,88,0.00,,---,0.23,VWS V14.01,2013-02-11 23:47:00,
2013-02-11 18:48:00,43.0,39.7,29.63,WSW,256,4.0,5.0,88,0.00,,---,0.23,VWS V14.01,2013-02-11 23:48:00,
2013-02-11 18:49:00,43.0,39.7,29.63,WSW,256,3.0,5.0,88,0.00,,---,0.23,VWS V14.01,2013-02-11 23:49:00,
2013-02-11 18:50:00,43.0,39.7,29.63,WSW,256,2.0,5.0,88,0.00,,---,0.23,VWS V14.01,2013-02-11 23:50:00,
2013-02-11 18:51:00,42.9,39.6,29.63,WSW,256,3.0,5.0,88,0.00,,---,0.23,VWS V14.01,2013-02-11 23:51:00,
2013-02-11 18:52:00,42.9,39.6,29.63,WSW,256,2.0,5.0,88,0.00,,---,0.23,VWS V14.01,2013-02-11 23:52:00,
2013-02-11 18:53:00,42.9,39.6,29.63,WSW,256,3.0,5.0,88,0.00,,---,0.23,VWS V14.01,2013-02-11 23:53:00,
2013-02-11 18:54:00,42.8,39.5,29.63,WSW,256,3.0,5.0,88,0.00,,---,0.23,VWS V14.01,2013-02-11 23:54:00,
2013-02-11 18:55:00,42.7,39.4,29.63,WNW,283,3.0,5.0,88,0.00,,---,0.23,VWS V14.01,2013-02-11 23:55:00,
2013-02-11 18:56:00,42.5,39.2,29.63,WNW,284,3.0,5.0,88,0.00,,---,0.23,VWS V14.01,2013-02-11 23:56:00,
2013-02-11 18:57:00,42.3,39.0,29.63,WNW,284,1.0,5.0,88,0.00,,---,0.23,VWS V14.01,2013-02-11 23:57:00,
2013-02-11 18:58:00,42.2,38.9,29.63,WNW,284,2.0,5.0,88,0.00,,---,0.23,VWS V14.01,2013-02-11 23:58:00,
2013-02-11 18:59:00,41.9,38.6,29.63,WNW,284,3.0,5.0,88,0.00,,---,0.23,VWS V14.01,2013-02-11 23:59:00,
2013-02-11 19:00:00,41.7,38.4,29.63,NNW,339,5.0,5.0,88,0.00,,---,0.23,VWS V14.01,2013-02-12 00:00:00,
2013-02-11 19:01:00,41.0,37.7,29.63,NNW,341,4.0,6.0,88,0.00,,---,0.23,VWS V14.01,2013-02-12 00:01:00,
2013-02-11 19:02:00,40.6,37.3,29.63,NNW,341,4.0,6.0,88,0.00,,---,0.23,VWS V14.01,2013-02-12 00:02:00,
2013-02-11 19:03:00,40.3,37.0,29.63,NNW,341,4.0,6.0,88,0.00,,---,0.23,VWS V14.01,2013-02-12 00:03:00,
2013-02-11 19:04:00,40.1,36.8,29.63,NNW,342,5.0,6.0,88,0.00,,---,0.23,VWS V14.01,2013-02-12 00:04:00,
2013-02-11 19:05:00,39.9,36.6,29.63,NNW,346,6.0,6.0,88,0.00,,---,0.23,VWS V14.01,2013-02-12 00:05:00,
2013-02-11 19:06:00,39.7,36.4,29.63,North,360,6.0,7.0,88,0.00,,---,0.23,VWS V14.01,2013-02-12 00:06:00,
2013-02-11 19:07:00,39.6,36.3,29.63,North,360,5.0,7.0,88,0.00,,---,0.23,VWS V14.01,2013-02-12 00:07:00,
2013-02-11 19:08:00,39.5,36.2,29.63,North,360,4.0,7.0,88,0.00,,---,0.23,VWS V14.01,2013-02-12 00:08:00,
2013-02-11 19:09:00,39.5,36.2,29.63,North,360,4.0,7.0,88,0.00,,---,0.23,VWS V14.01,2013-02-12 00:09:00,
2013-02-11 19:10:00,39.5,36.2,29.63,North,360,4.0,7.0,88,0.00,,---,0.23,VWS V14.01,2013-02-12 00:10:00,
2013-02-11 19:11:00,39.4,36.2,29.63,North,360,5.0,7.0,88,0.00,,---,0.23,VWS V14.01,2013-02-12 00:11:00,
2013-02-11 19:12:00,39.4,36.2,29.63,North,5,7.0,7.0,88,0.00,,---,0.23,VWS V14.01,2013-02-12 00:12:00,
2013-02-11 19:13:00,39.5,36.2,29.63,North,360,6.0,7.0,88,0.00,,---,0.23,VWS V14.01,2013-02-12 00:13:00,
2013-02-11 19:14:00,39.6,36.3,29.63,North,360,7.0,7.0,88,0.00,,---,0.23,VWS V14.01,2013-02-12 00:14:00,
2013-02-11 19:15:00,39.7,36.4,29.63,North,360,6.0,8.0,88,0.00,,---,0.23,VWS V14.01,2013-02-12 00:15:00,
2013-02-11 19:16:00,39.7,36.4,29.63,North,355,6.0,8.0,88,0.00,,---,0.23,VWS V14.01,2013-02-12 00:16:00,
2013-02-11 19:17:00,39.6,36.3,29.63,North,355,5.0,8.0,88,0.00,,---,0.23,VWS V14.01,2013-02-12 00:17:00,
2013-02-11 19:18:00,39.6,36.3,29.63,North,360,6.0,8.0,88,0.00,,---,0.23,VWS V14.01,2013-02-12 00:18:00,
2013-02-11 19:19:00,39.6,36.3,29.63,North,360,6.0,8.0,88,0.00,,---,0.23,VWS V14.01,2013-02-12 00:19:00,
2013-02-11 19:20:00,39.5,36.2,29.63,North,5,5.0,8.0,88,0.00,,---,0.23,VWS V14.01,2013-02-12 00:20:00,
2013-02-11 19:21:00,39.4,36.2,29.63,North,5,4.0,8.0,88,0.00,,---,0.23,VWS V14.01,2013-02-12 00:21:00,
2013-02-11 19:22:00,39.3,36.0,29.63,North,5,5.0,8.0,88,0.00,,---,0.23,VWS V14.01,2013-02-12 00:22:00,
2013-02-11 19:23:00,39.3,36.0,29.63,North,5,3.0,8.0,88,0.00,,---,0.23,VWS V14.01,2013-02-12 00:23:00,
2013-02-11 19:24:00,39.3,36.0,29.62,North,5,4.0,8.0,88,0.00,,---,0.23,VWS V14.01,2013-02-12 00:24:00,
2013-02-11 19:25:00,39.4,36.2,29.63,North,9,3.0,8.0,88,0.00,,---,0.23,VWS V14.01,2013-02-12 00:25:00,
2013-02-11 19:26:00,39.5,36.2,29.63,North,5,4.0,8.0,88,0.00,,---,0.23,VWS V14.01,2013-02-12 00:26:00,
2013-02-11 19:27:00,39.5,36.2,29.62,North,5,4.0,8.0,88,0.00,,---,0.23,VWS V14.01,2013-02-12 00:27:00,
2013-02-11 19:28:00,39.6,36.3,29.62,North,5,4.0,8.0,88,0.00,,---,0.23,VWS V14.01,2013-02-12 00:28:00,
2013-02-11 19:29:00,39.8,36.5,29.62,North,5,3.0,8.0,88,0.00,,---,0.23,VWS V14.01,2013-02-12 00:29:00,
2013-02-11 19:30:00,40.0,36.7,29.63,North,351,5.0,8.0,88,0.00,,---,0.23,VWS V14.01,2013-02-12 00:30:00,
2013-02-11 19:31:00,40.1,36.8,29.63,North,351,3.0,5.0,88,0.00,,---,0.23,VWS V14.01,2013-02-12 00:31:00,
2013-02-11 19:32:00,40.3,37.0,29.63,North,355,2.0,5.0,88,0.00,,---,0.23,VWS V14.01,2013-02-12 00:32:00,
2013-02-11 19:33:00,40.6,37.3,29.62,North,355,2.0,5.0,88,0.00,,---,0.23,VWS V14.01,2013-02-12 00:33:00,
2013-02-11 19:34:00,40.7,37.4,29.62,North,355,3.0,5.0,88,0.00,,---,0.23,VWS V14.01,2013-02-12 00:34:00,
2013-02-11 19:35:00,40.9,37.6,29.63,North,355,1.0,5.0,88,0.00,,---,0.23,VWS V14.01,2013-02-12 00:35:00,
2013-02-11 19:36:00,40.9,37.6,29.62,North,355,2.0,5.0,88,0.00,,---,0.23,VWS V14.01,2013-02-12 00:36:00,
2013-02-11 19:37:00,41.0,37.7,29.63,North,350,5.0,5.0,88,0.00,,---,0.23,VWS V14.01,2013-02-12 00:37:00,
2013-02-11 19:38:00,41.0,37.7,29.63,North,349,4.0,5.0,88,0.00,,---,0.23,VWS V14.01,2013-02-12 00:38:00,
2013-02-11 19:39:00,40.8,37.5,29.62,North,350,5.0,5.0,88,0.00,,---,0.23,VWS V14.01,2013-02-12 00:39:00,
2013-02-11 19:40:00,40.6,37.3,29.62,North,355,5.0,6.0,88,0.00,,---,0.23,VWS V14.01,2013-02-12 00:40:00,
2013-02-11 19:41:00,40.3,37.0,29.62,North,355,4.0,6.0,88,0.00,,---,0.23,VWS V14.01,2013-02-12 00:41:00,
2013-02-11 19:42:00,40.3,37.0,29.62,North,355,4.0,6.0,88,0.00,,---,0.23,VWS V14.01,2013-02-12 00:42:00,
2013-02-11 19:43:00,40.2,36.9,29.62,North,355,2.0,6.0,88,0.00,,---,0.23,VWS V14.01,2013-02-12 00:43:00,
2013-02-11 19:44:00,40.3,37.0,29.62,North,355,2.0,6.0,88,0.00,,---,0.23,VWS V14.01,2013-02-12 00:44:00,
2013-02-11 19:45:00,40.4,37.1,29.62,North,355,4.0,6.0,88,0.00,,---,0.23,VWS V14.01,2013-02-12 00:45:00,
2013-02-11 19:46:00,40.4,37.1,29.62,North,355,4.0,6.0,88,0.00,,---,0.23,VWS V14.01,2013-02-12 00:46:00,
2013-02-11 19:47:00,40.2,36.9,29.62,North,355,4.0,6.0,88,0.00,,---,0.23,VWS V14.01,2013-02-12 00:47:00,
2013-02-11 19:48:00,40.1,36.8,29.62,North,355,3.0,6.0,88,0.00,,---,0.23,VWS V14.01,2013-02-12 00:48:00,
2013-02-11 19:49:00,40.0,36.7,29.62,North,355,3.0,6.0,88,0.00,,---,0.23,VWS V14.01,2013-02-12 00:49:00,
2013-02-11 19:50:00,40.0,36.7,29.62,North,355,5.0,6.0,88,0.00,,---,0.23,VWS V14.01,2013-02-12 00:50:00,
2013-02-11 19:51:00,39.9,36.6,29.62,North,355,5.0,6.0,88,0.00,,---,0.23,VWS V14.01,2013-02-12 00:51:00,
2013-02-11 19:52:00,39.8,36.5,29.62,North,355,5.0,6.0,88,0.00,,---,0.23,VWS V14.01,2013-02-12 00:52:00,
2013-02-11 19:53:00,39.7,36.4,29.62,North,360,5.0,6.0,88,0.00,,---,0.23,VWS V14.01,2013-02-12 00:53:00,
2013-02-11 19:54:00,39.7,36.4,29.62,North,5,6.0,6.0,88,0.00,,---,0.23,VWS V14.01,2013-02-12 00:54:00,
2013-02-11 19:55:00,39.7,36.4,29.62,North,5,6.0,6.0,88,0.00,,---,0.23,VWS V14.01,2013-02-12 00:55:00,
2013-02-11 19:56:00,39.7,36.4,29.62,North,360,4.0,6.0,88,0.00,,---,0.23,VWS V14.01,2013-02-12 00:56:00,
2013-02-11 19:57:00,39.7,36.4,29.62,North,360,5.0,6.0,88,0.00,,---,0.23,VWS V14.01,2013-02-12 00:57:00,
2013-02-11 19:58:00,39.6,36.3,29.62,North,350,5.0,6.0,88,0.00,,---,0.23,VWS V14.01,2013-02-12 00:58:00,
2013-02-11 19:59:00,39.6,36.3,29.62,North,351,4.0,6.0,88,0.00,,---,0.23,VWS V14.01,2013-02-12 00:59:00,
2013-02-11 20:00:00,39.6,36.3,29.62,North,351,4.0,6.0,88,0.00,,---,0.23,VWS V14.01,2013-02-12 01:00:00,
2013-02-11 20:01:00,39.6,36.3,29.62,North,351,3.0,5.0,88,0.00,,---,0.23,VWS V14.01,2013-02-12 01:01:00,
2013-02-11 20:02:00,39.5,36.2,29.62,North,351,3.0,5.0,88,0.00,,---,0.23,VWS V14.01,2013-02-12 01:02:00,
2013-02-11 20:03:00,39.6,36.3,29.62,North,351,4.0,5.0,88,0.00,,---,0.23,VWS V14.01,2013-02-12 01:03:00,
2013-02-11 20:04:00,39.5,36.2,29.61,North,351,3.0,5.0,88,0.00,,---,0.23,VWS V14.01,2013-02-12 01:04:00,
2013-02-11 20:05:00,39.5,36.2,29.61,North,351,2.0,5.0,88,0.00,,---,0.23,VWS V14.01,2013-02-12 01:05:00,
2013-02-11 20:06:00,39.5,36.2,29.61,North,351,2.0,5.0,88,0.00,,---,0.23,VWS V14.01,2013-02-12 01:06:00,
2013-02-11 20:07:00,39.4,36.2,29.61,North,350,2.0,5.0,88,0.00,,---,0.23,VWS V14.01,2013-02-12 01:07:00,
2013-02-11 20:08:00,39.4,36.2,29.61,North,351,0.0,5.0,88,0.00,,---,0.23,VWS V14.01,2013-02-12 01:08:00,
2013-02-11 20:09:00,39.4,36.2,29.61,North,351,0.0,5.0,88,0.00,,---,0.23,VWS V14.01,2013-02-12 01:09:00,
2013-02-11 20:10:00,39.4,36.2,29.61,North,351,0.0,5.0,88,0.00,,---,0.23,VWS V14.01,2013-02-12 01:10:00,
2013-02-11 20:11:00,39.5,36.2,29.61,North,351,2.0,5.0,88,0.00,,---,0.23,VWS V14.01,2013-02-12 01:11:00,
2013-02-11 20:12:00,39.5,36.2,29.61,North,351,1.0,5.0,88,0.00,,---,0.23,VWS V14.01,2013-02-12 01:12:00,
2013-02-11 20:13:00,39.6,36.3,29.61,North,350,2.0,5.0,88,0.00,,---,0.23,VWS V14.01,2013-02-12 01:13:00,
2013-02-11 20:14:00,39.7,36.4,29.61,North,349,0.0,5.0,88,0.00,,---,0.23,VWS V14.01,2013-02-12 01:14:00,
2013-02-11 20:15:00,39.7,36.4,29.61,North,349,2.0,5.0,88,0.00,,---,0.23,VWS V14.01,2013-02-12 01:15:00,
2013-02-11 20:16:00,39.7,36.4,29.61,North,349,2.0,5.0,88,0.00,,---,0.23,VWS V14.01,2013-02-12 01:16:00,
2013-02-11 20:17:00,39.7,36.4,29.61,North,349,1.0,5.0,88,0.00,,---,0.23,VWS V14.01,2013-02-12 01:17:00,
2013-02-11 20:18:00,39.7,36.4,29.60,North,349,3.0,5.0,88,0.00,,---,0.23,VWS V14.01,2013-02-12 01:18:00,
2013-02-11 20:19:00,39.6,36.3,29.60,North,349,1.0,5.0,88,0.00,,---,0.23,VWS V14.01,2013-02-12 01:19:00,
2013-02-11 20:20:00,39.6,36.3,29.60,North,349,0.0,5.0,88,0.00,,---,0.23,VWS V14.01,2013-02-12 01:20:00,
2013-02-11 20:21:00,39.6,36.3,29.60,NNW,346,1.0,5.0,88,0.00,,---,0.23,VWS V14.01,2013-02-12 01:21:00,
2013-02-11 20:22:00,39.6,36.3,29.61,NNW,346,2.0,5.0,88,0.00,,---,0.23,VWS V14.01,2013-02-12 01:22:00,
2013-02-11 20:23:00,39.6,36.3,29.61,NNW,333,3.0,5.0,88,0.00,,---,0.23,VWS V14.01,2013-02-12 01:23:00,
2013-02-11 20:24:00,39.6,36.3,29.61,NW,321,3.0,5.0,88,0.00,,---,0.23,VWS V14.01,2013-02-12 01:24:00,
2013-02-11 20:25:00,39.6,36.3,29.61,NW,317,3.0,5.0,88,0.00,,---,0.23,VWS V14.01,2013-02-12 01:25:00,
2013-02-11 20:26:00,39.6,36.3,29.61,NW,317,3.0,5.0,88,0.00,,---,0.23,VWS V14.01,2013-02-12 01:26:00,
2013-02-11 20:27:00,39.6,36.3,29.61,NW,317,2.0,5.0,88,0.00,,---,0.23,VWS V14.01,2013-02-12 01:27:00,
2013-02-11 20:28:00,39.5,36.2,29.60,NW,314,3.0,5.0,88,0.00,,---,0.23,VWS V14.01,2013-02-12 01:28:00,
2013-02-11 20:29:00,39.5,36.2,29.61,NW,311,3.0,5.0,88,0.00,,---,0.23,VWS V14.01,2013-02-12 01:29:00,
2013-02-11 20:30:00,39.5,36.2,29.61,NW,311,5.0,5.0,88,0.00,,---,0.23,VWS V14.01,2013-02-12 01:30:00,
2013-02-11 20:31:00,39.5,36.2,29.61,NW,311,5.0,5.0,88,0.00,,---,0.23,VWS V14.01,2013-02-12 01:31:00,
2013-02-11 20:32:00,39.5,36.2,29.61,NW,311,6.0,6.0,88,0.00,,---,0.23,VWS V14.01,2013-02-12 01:32:00,
2013-02-11 20:33:00,39.3,36.0,29.61,NW,317,6.0,7.0,88,0.00,,---,0.23,VWS V14.01,2013-02-12 01:33:00,
2013-02-11 20:34:00,39.2,36.0,29.61,NNW,329,7.0,8.0,88,0.00,,---,0.23,VWS V14.01,2013-02-12 01:34:00,
2013-02-11 20:35:00,39.0,35.8,29.61,NNW,330,7.0,8.0,88,0.00,,---,0.23,VWS V14.01,2013-02-12 01:35:00,
2013-02-11 20:36:00,38.8,35.6,29.61,NNW,334,7.0,8.0,88,0.00,,---,0.23,VWS V14.01,2013-02-12 01:36:00,
2013-02-11 20:37:00,38.6,35.4,29.61,NNW,335,5.0,8.0,88,0.00,,---,0.23,VWS V14.01,2013-02-12 01:37:00,
2013-02-11 20:38:00,38.5,35.3,29.61,NNW,335,6.0,8.0,88,0.00,,---,0.23,VWS V14.01,2013-02-12 01:38:00,
2013-02-11 20:39:00,38.4,35.2,29.61,NNW,335,5.0,8.0,88,0.00,,---,0.23,VWS V14.01,2013-02-12 01:39:00,
2013-02-11 20:40:00,38.4,35.2,29.61,NNW,331,6.0,8.0,88,0.00,,---,0.23,VWS V14.01,2013-02-12 01:40:00,
2013-02-11 20:41:00,38.4,35.2,29.61,NNW,331,7.0,8.0,88,0.00,,---,0.23,VWS V14.01,2013-02-12 01:41:00,
2013-02-11 20:42:00,38.4,35.2,29.61,NNW,331,7.0,8.0,88,0.00,,---,0.23,VWS V14.01,2013-02-12 01:42:00,
2013-02-11 20:43:00,38.4,35.5,29.61,NNW,331,7.0,8.0,89,0.00,,---,0.23,VWS V14.01,2013-02-12 01:43:00,
2013-02-11 20:44:00,38.4,35.5,29.61,NNW,331,7.0,8.0,89,0.00,,---,0.23,VWS V14.01,2013-02-12 01:44:00,
2013-02-11 20:45:00,38.3,35.3,29.61,NNW,333,8.0,8.0,89,0.00,,---,0.23,VWS V14.01,2013-02-12 01:45:00,
2013-02-11 20:46:00,38.3,35.3,29.61,NNW,334,6.0,8.0,89,0.00,,---,0.23,VWS V14.01,2013-02-12 01:46:00,
2013-02-11 20:47:00,38.2,35.2,29.61,NNW,334,8.0,8.0,89,0.00,,---,0.23,VWS V14.01,2013-02-12 01:47:00,
2013-02-11 20:48:00,38.2,35.2,29.60,NNW,337,7.0,8.0,89,0.00,,---,0.23,VWS V14.01,2013-02-12 01:48:00,
2013-02-11 20:49:00,38.2,35.0,29.60,NNW,338,7.0,8.0,88,0.00,,---,0.23,VWS V14.01,2013-02-12 01:49:00,
2013-02-11 20:50:00,38.1,34.9,29.60,NNW,339,8.0,8.0,88,0.00,,---,0.23,VWS V14.01,2013-02-12 01:50:00,
2013-02-11 20:51:00,38.1,34.9,29.60,NNW,339,8.0,9.0,88,0.00,,---,0.23,VWS V14.01,2013-02-12 01:51:00,
2013-02-11 20:52:00,38.0,34.8,29.60,NNW,342,8.0,9.0,88,0.00,,---,0.23,VWS V14.01,2013-02-12 01:52:00,
2013-02-11 20:53:00,38.0,35.0,29.61,NNW,342,8.0,9.0,89,0.00,,---,0.23,VWS V14.01,2013-02-12 01:53:00,
2013-02-11 20:54:00,37.9,35.0,29.61,NNW,342,7.0,9.0,89,0.00,,---,0.23,VWS V14.01,2013-02-12 01:54:00,
2013-02-11 20:55:00,37.9,35.0,29.61,NNW,339,9.0,9.0,89,0.00,,---,0.23,VWS V14.01,2013-02-12 01:55:00,
2013-02-11 20:56:00,37.9,35.0,29.61,NNW,342,7.0,9.0,89,0.00,,---,0.23,VWS V14.01,2013-02-12 01:56:00,
2013-02-11 20:57:00,37.9,35.0,29.61,NNW,339,8.0,9.0,89,0.00,,---,0.23,VWS V14.01,2013-02-12 01:57:00,
2013-02-11 20:58:00,37.9,35.0,29.61,NNW,336,9.0,9.0,89,0.00,,---,0.23,VWS V14.01,2013-02-12 01:58:00,
2013-02-11 20:59:00,38.0,35.0,29.60,NNW,335,8.0,9.0,89,0.00,,---,0.23,VWS V14.01,2013-02-12 01:59:00,
2013-02-11 21:00:00,38.0,35.0,29.60,NNW,335,7.0,9.0,89,0.00,,---,0.23,VWS V14.01,2013-02-12 02:00:00,
2013-02-11 21:01:00,38.0,35.0,29.60,NNW,335,6.0,7.0,89,0.00,,---,0.23,VWS V14.01,2013-02-12 02:01:00,
2013-02-11 21:02:00,38.0,35.0,29.60,NNW,335,6.0,8.0,89,0.00,,---,0.23,VWS V14.01,2013-02-12 02:02:00,
2013-02-11 21:03:00,38.0,35.0,29.60,NNW,334,5.0,8.0,89,0.00,,---,0.23,VWS V14.01,2013-02-12 02:03:00,
2013-02-11 21:04:00,38.1,34.9,29.60,NNW,333,5.0,8.0,88,0.00,,---,0.23,VWS V14.01,2013-02-12 02:04:00,
2013-02-11 21:05:00,38.1,34.9,29.60,NNW,334,5.0,8.0,88,0.00,,---,0.23,VWS V14.01,2013-02-12 02:05:00,
2013-02-11 21:06:00,38.1,34.9,29.60,NNW,333,2.0,8.0,88,0.00,,---,0.23,VWS V14.01,2013-02-12 02:06:00,
2013-02-11 21:07:00,38.1,34.9,29.60,NNW,333,2.0,8.0,88,0.00,,---,0.23,VWS V14.01,2013-02-12 02:07:00,
2013-02-11 21:08:00,38.1,34.9,29.60,NNW,333,3.0,8.0,88,0.00,,---,0.23,VWS V14.01,2013-02-12 02:08:00,
2013-02-11 21:09:00,38.1,34.9,29.60,NNW,331,3.0,8.0,88,0.00,,---,0.23,VWS V14.01,2013-02-12 02:09:00,
2013-02-11 21:10:00,38.2,35.0,29.60,NNW,329,4.0,8.0,88,0.00,,---,0.23,VWS V14.01,2013-02-12 02:10:00,
2013-02-11 21:11:00,38.2,35.2,29.60,NNW,329,5.0,8.0,89,0.00,,---,0.23,VWS V14.01,2013-02-12 02:11:00,
2013-02-11 21:12:00,38.3,35.3,29.60,NNW,329,5.0,8.0,89,0.00,,---,0.23,VWS V14.01,2013-02-12 02:12:00,
2013-02-11 21:13:00,38.4,35.5,29.60,NNW,329,5.0,8.0,89,0.00,,---,0.23,VWS V14.01,2013-02-12 02:13:00,
2013-02-11 21:14:00,38.4,35.5,29.60,NNW,329,5.0,8.0,89,0.00,,---,0.23,VWS V14.01,2013-02-12 02:14:00,
2013-02-11 21:15:00,38.5,35.5,29.60,NNW,329,6.0,8.0,89,0.00,,---,0.23,VWS V14.01,2013-02-12 02:15:00,
2013-02-11 21:16:00,38.5,35.5,29.60,NNW,329,5.0,8.0,89,0.00,,---,0.23,VWS V14.01,2013-02-12 02:16:00,
2013-02-11 21:17:00,38.5,35.5,29.60,NNW,329,4.0,8.0,89,0.00,,---,0.23,VWS V14.01,2013-02-12 02:17:00,
2013-02-11 21:18:00,38.6,35.4,29.60,NW,325,5.0,8.0,88,0.00,,---,0.23,VWS V14.01,2013-02-12 02:18:00,
2013-02-11 21:19:00,38.6,35.4,29.60,NW,325,4.0,8.0,88,0.00,,---,0.23,VWS V14.01,2013-02-12 02:19:00,
2013-02-11 21:20:00,38.6,35.4,29.60,NW,325,4.0,8.0,88,0.00,,---,0.23,VWS V14.01,2013-02-12 02:20:00,
2013-02-11 21:21:00,38.6,35.4,29.60,NW,323,4.0,8.0,88,0.00,,---,0.23,VWS V14.01,2013-02-12 02:21:00,
2013-02-11 21:22:00,38.6,35.4,29.60,NW,323,4.0,8.0,88,0.00,,---,0.23,VWS V14.01,2013-02-12 02:22:00,
2013-02-11 21:23:00,38.6,35.4,29.60,NW,323,3.0,8.0,88,0.00,,---,0.23,VWS V14.01,2013-02-12 02:23:00,
2013-02-11 21:24:00,38.6,35.4,29.60,NW,323,4.0,8.0,88,0.00,,---,0.23,VWS V14.01,2013-02-12 02:24:00,
2013-02-11 21:25:00,38.6,35.4,29.59,NW,323,3.0,8.0,88,0.00,,---,0.23,VWS V14.01,2013-02-12 02:25:00,
2013-02-11 21:26:00,38.6,35.4,29.59,NW,323,2.0,8.0,88,0.00,,---,0.23,VWS V14.01,2013-02-12 02:26:00,
2013-02-11 21:27:00,38.6,35.4,29.59,NW,323,3.0,8.0,88,0.00,,---,0.23,VWS V14.01,2013-02-12 02:27:00,
2013-02-11 21:28:00,38.6,35.4,29.59,NW,323,3.0,8.0,88,0.00,,---,0.23,VWS V14.01,2013-02-12 02:28:00,
2013-02-11 21:29:00,38.6,35.4,29.59,NW,323,4.0,8.0,88,0.00,,---,0.23,VWS V14.01,2013-02-12 02:29:00,
2013-02-11 21:30:00,38.6,35.4,29.59,NW,323,4.0,8.0,88,0.00,,---,0.23,VWS V14.01,2013-02-12 02:30:00,
2013-02-11 21:31:00,38.6,35.4,29.59,NW,323,3.0,4.0,88,0.00,,---,0.23,VWS V14.01,2013-02-12 02:31:00,
2013-02-11 21:32:00,38.5,35.3,29.59,NW,323,4.0,5.0,88,0.00,,---,0.23,VWS V14.01,2013-02-12 02:32:00,
2013-02-11 21:33:00,38.5,35.3,29.59,NW,323,4.0,5.0,88,0.00,,---,0.23,VWS V14.01,2013-02-12 02:33:00,
2013-02-11 21:34:00,38.4,35.5,29.59,NW,323,3.0,5.0,89,0.00,,---,0.23,VWS V14.01,2013-02-12 02:34:00,
2013-02-11 21:35:00,38.4,35.5,29.59,NW,323,3.0,5.0,89,0.00,,---,0.23,VWS V14.01,2013-02-12 02:35:00,
2013-02-11 21:36:00,38.4,35.5,29.59,NW,323,5.0,5.0,89,0.00,,---,0.23,VWS V14.01,2013-02-12 02:36:00,
2013-02-11 21:37:00,38.3,35.3,29.59,NNW,342,6.0,6.0,89,0.00,,---,0.23,VWS V14.01,2013-02-12 02:37:00,
2013-02-11 21:38:00,38.1,35.2,29.59,NNW,345,7.0,7.0,89,0.00,,---,0.23,VWS V14.01,2013-02-12 02:38:00,
2013-02-11 21:39:00,38.0,34.8,29.59,NNW,345,7.0,8.0,88,0.00,,---,0.23,VWS V14.01,2013-02-12 02:39:00,
2013-02-11 21:40:00,37.9,35.0,29.60,NNW,340,7.0,8.0,89,0.00,,---,0.23,VWS V14.01,2013-02-12 02:40:00,
2013-02-11 21:41:00,37.8,34.9,29.60,NNW,334,6.0,8.0,89,0.00,,---,0.23,VWS V14.01,2013-02-12 02:41:00,
2013-02-11 21:42:00,37.8,34.9,29.60,NNW,331,7.0,8.0,89,0.00,,---,0.23,VWS V14.01,2013-02-12 02:42:00,
2013-02-11 21:43:00,37.7,34.8,29.60,NNW,331,6.0,8.0,89,0.00,,---,0.23,VWS V14.01,2013-02-12 02:43:00,
2013-02-11 21:44:00,37.7,34.8,29.60,NNW,331,6.0,8.0,89,0.00,,---,0.23,VWS V14.01,2013-02-12 02:44:00,
2013-02-11 21:45:00,37.6,34.4,29.60,NNW,331,4.0,8.0,88,0.00,,---,0.23,VWS V14.01,2013-02-12 02:45:00,
2013-02-11 21:46:00,37.6,34.4,29.60,NNW,331,5.0,8.0,88,0.00,,---,0.23,VWS V14.01,2013-02-12 02:46:00,
2013-02-11 21:47:00,37.6,34.4,29.60,NNW,331,5.0,8.0,88,0.00,,---,0.23,VWS V14.01,2013-02-12 02:47:00,
2013-02-11 21:48:00,37.6,34.4,29.60,NNW,331,6.0,8.0,88,0.00,,---,0.23,VWS V14.01,2013-02-12 02:48:00,
2013-02-11 21:49:00,37.6,34.4,29.60,NNW,331,4.0,8.0,88,0.00,,---,0.23,VWS V14.01,2013-02-12 02:49:00,
2013-02-11 21:50:00,37.6,34.4,29.60,NNW,331,5.0,8.0,88,0.00,,---,0.23,VWS V14.01,2013-02-12 02:50:00,
2013-02-11 21:51:00,37.6,34.4,29.60,NNW,331,5.0,8.0,88,0.00,,---,0.23,VWS V14.01,2013-02-12 02:51:00,
2013-02-11 21:52:00,37.6,34.4,29.60,NW,326,4.0,8.0,88,0.00,,---,0.23,VWS V14.01,2013-02-12 02:52:00,
2013-02-11 21:53:00,37.6,34.4,29.60,NW,325,6.0,8.0,88,0.00,,---,0.23,VWS V14.01,2013-02-12 02:53:00,
2013-02-11 21:54:00,37.7,34.5,29.60,NW,325,5.0,8.0,88,0.00,,---,0.23,VWS V14.01,2013-02-12 02:54:00,
2013-02-11 21:55:00,37.7,34.8,29.60,NW,325,5.0,8.0,89,0.00,,---,0.23,VWS V14.01,2013-02-12 02:55:00,
2013-02-11 21:56:00,37.7,34.8,29.60,NW,325,5.0,8.0,89,0.00,,---,0.23,VWS V14.01,2013-02-12 02:56:00,
2013-02-11 21:57:00,37.7,34.8,29.60,NW,325,6.0,8.0,89,0.00,,---,0.23,VWS V14.01,2013-02-12 02:57:00,
2013-02-11 21:58:00,37.7,34.8,29.60,NW,325,5.0,8.0,89,0.00,,---,0.23,VWS V14.01,2013-02-12 02:58:00,
2013-02-11 21:59:00,37.8,34.9,29.60,NW,325,4.0,8.0,89,0.00,,---,0.23,VWS V14.01,2013-02-12 02:59:00,
2013-02-11 22:00:00,37.7,34.8,29.60,NW,325,4.0,8.0,89,0.00,,---,0.23,VWS V14.01,2013-02-12 03:00:00,
2013-02-11 22:01:00,37.8,34.9,29.60,NW,325,3.0,5.0,89,0.00,,---,0.23,VWS V14.01,2013-02-12 03:01:00,
2013-02-11 22:02:00,37.7,34.8,29.60,NW,325,4.0,5.0,89,0.00,,---,0.23,VWS V14.01,2013-02-12 03:02:00,
2013-02-11 22:03:00,37.7,34.8,29.60,NW,325,4.0,5.0,89,0.00,,---,0.23,VWS V14.01,2013-02-12 03:03:00,
2013-02-11 22:04:00,37.7,34.8,29.60,NW,325,3.0,5.0,89,0.00,,---,0.23,VWS V14.01,2013-02-12 03:04:00,
2013-02-11 22:05:00,37.7,34.8,29.60,NW,325,3.0,5.0,89,0.00,,---,0.23,VWS V14.01,2013-02-12 03:05:00,
2013-02-11 22:06:00,37.7,34.8,29.60,NW,325,3.0,5.0,89,0.00,,---,0.23,VWS V14.01,2013-02-12 03:06:00,
2013-02-11 22:07:00,37.7,34.5,29.60,NW,325,3.0,5.0,88,0.00,,---,0.23,VWS V14.01,2013-02-12 03:07:00,
2013-02-11 22:08:00,37.7,34.8,29.60,NW,325,3.0,5.0,89,0.00,,---,0.23,VWS V14.01,2013-02-12 03:08:00,
2013-02-11 22:09:00,37.7,34.8,29.60,NW,325,3.0,5.0,89,0.00,,---,0.23,VWS V14.01,2013-02-12 03:09:00,
2013-02-11 22:10:00,37.7,34.8,29.60,NW,325,2.0,5.0,89,0.00,,---,0.23,VWS V14.01,2013-02-12 03:10:00,
2013-02-11 22:11:00,37.7,34.5,29.60,NW,325,2.0,5.0,88,0.00,,---,0.23,VWS V14.01,2013-02-12 03:11:00,
2013-02-11 22:12:00,37.7,34.5,29.60,NW,325,2.0,5.0,88,0.00,,---,0.23,VWS V14.01,2013-02-12 03:12:00,
2013-02-11 22:13:00,37.7,34.5,29.60,NW,325,3.0,5.0,88,0.00,,---,0.23,VWS V14.01,2013-02-12 03:13:00,
2013-02-11 22:14:00,37.7,34.5,29.60,NW,323,3.0,5.0,88,0.00,,---,0.23,VWS V14.01,2013-02-12 03:14:00,
2013-02-11 22:15:00,37.6,34.4,29.61,NW,323,3.0,5.0,88,0.00,,---,0.23,VWS V14.01,2013-02-12 03:15:00,
2013-02-11 22:16:00,37.6,34.4,29.61,NW,323,3.0,5.0,88,0.00,,---,0.23,VWS V14.01,2013-02-12 03:16:00,
2013-02-11 22:17:00,37.6,34.4,29.61,NW,322,2.0,5.0,88,0.00,,---,0.23,VWS V14.01,2013-02-12 03:17:00,
2013-02-11 22:18:00,37.7,34.5,29.61,West,280,5.0,5.0,88,0.00,,---,0.23,VWS V14.01,2013-02-12 03:18:00,
2013-02-11 22:19:00,37.6,34.4,29.60,West,278,5.0,5.0,88,0.00,,---,0.23,VWS V14.01,2013-02-12 03:19:00,
2013-02-11 22:20:00,37.7,34.5,29.61,West,278,4.0,5.0,88,0.00,,---,0.23,VWS V14.01,2013-02-12 03:20:00,
2013-02-11 22:21:00,37.7,34.5,29.60,West,278,6.0,6.0,88,0.00,,---,0.23,VWS V14.01,2013-02-12 03:21:00,
2013-02-11 22:22:00,37.7,34.8,29.61,West,278,6.0,6.0,89,0.00,,---,0.23,VWS V14.01,2013-02-12 03:22:00,
2013-02-11 22:23:00,37.7,34.8,29.61,West,278,5.0,6.0,89,0.00,,---,0.23,VWS V14.01,2013-02-12 03:23:00,
2013-02-11 22:24:00,37.8,34.9,29.61,West,275,6.0,7.0,89,0.00,,---,0.23,VWS V14.01,2013-02-12 03:24:00,
2013-02-11 22:25:00,37.8,34.9,29.60,West,267,7.0,8.0,89,0.00,,---,0.23,VWS V14.01,2013-02-12 03:25:00,
2013-02-11 22:26:00,37.9,35.0,29.61,West,267,7.0,8.0,89,0.00,,---,0.23,VWS V14.01,2013-02-12 03:26:00,
2013-02-11 22:27:00,38.0,35.0,29.60,West,267,7.0,8.0,89,0.00,,---,0.23,VWS V14.01,2013-02-12 03:27:00,
2013-02-11 22:28:00,38.0,35.0,29.60,West,268,7.0,8.0,89,0.00,,---,0.23,VWS V14.01,2013-02-12 03:28:00,
2013-02-11 22:29:00,38.1,34.9,29.61,West,268,7.0,8.0,88,0.00,,---,0.23,VWS V14.01,2013-02-12 03:29:00,
2013-02-11 22:30:00,38.1,34.9,29.61,West,274,7.0,8.0,88,0.00,,---,0.23,VWS V14.01,2013-02-12 03:30:00,
2013-02-11 22:31:00,38.1,34.9,29.60,West,278,7.0,7.0,88,0.00,,---,0.23,VWS V14.01,2013-02-12 03:31:00,
2013-02-11 22:32:00,38.1,34.9,29.60,West,279,6.0,7.0,88,0.00,,---,0.23,VWS V14.01,2013-02-12 03:32:00,
2013-02-11 22:33:00,38.1,34.9,29.60,West,279,6.0,7.0,88,0.00,,---,0.23,VWS V14.01,2013-02-12 03:33:00,
2013-02-11 22:34:00,38.2,35.0,29.60,West,279,6.0,7.0,88,0.00,,---,0.23,VWS V14.01,2013-02-12 03:34:00,
2013-02-11 22:35:00,38.2,35.2,29.60,West,279,6.0,7.0,89,0.00,,---,0.23,VWS V14.01,2013-02-12 03:35:00,
2013-02-11 22:36:00,38.2,35.2,29.60,West,279,6.0,7.0,89,0.00,,---,0.23,VWS V14.01,2013-02-12 03:36:00,
2013-02-11 22:37:00,38.2,35.2,29.60,West,279,5.0,7.0,89,0.00,,---,0.23,VWS V14.01,2013-02-12 03:37:00,
2013-02-11 22:38:00,38.2,35.2,29.60,West,279,5.0,7.0,89,0.00,,---,0.23,VWS V14.01,2013-02-12 03:38:00,
2013-02-11 22:39:00,38.2,35.2,29.60,West,279,6.0,7.0,89,0.00,,---,0.23,VWS V14.01,2013-02-12 03:39:00,
2013-02-11 22:40:00,38.3,35.3,29.60,West,279,6.0,7.0,89,0.00,,---,0.23,VWS V14.01,2013-02-12 03:40:00,
2013-02-11 22:41:00,38.3,35.3,29.60,West,279,6.0,7.0,89,0.00,,---,0.23,VWS V14.01,2013-02-12 03:41:00,
2013-02-11 22:42:00,38.3,35.3,29.60,West,279,6.0,7.0,89,0.00,,---,0.23,VWS V14.01,2013-02-12 03:42:00,
2013-02-11 22:43:00,38.3,35.3,29.60,West,279,5.0,7.0,89,0.00,,---,0.23,VWS V14.01,2013-02-12 03:43:00,
2013-02-11 22:44:00,38.3,35.3,29.60,West,279,5.0,7.0,89,0.00,,---,0.23,VWS V14.01,2013-02-12 03:44:00,
2013-02-11 22:45:00,38.3,35.3,29.60,West,281,5.0,7.0,89,0.00,,---,0.23,VWS V14.01,2013-02-12 03:45:00,
2013-02-11 22:46:00,38.2,35.2,29.60,West,281,4.0,7.0,89,0.00,,---,0.23,VWS V14.01,2013-02-12 03:46:00,
2013-02-11 22:47:00,38.2,35.2,29.60,WNW,283,4.0,7.0,89,0.00,,---,0.23,VWS V14.01,2013-02-12 03:47:00,
2013-02-11 22:48:00,38.2,35.2,29.60,WNW,292,5.0,7.0,89,0.00,,---,0.23,VWS V14.01,2013-02-12 03:48:00,
2013-02-11 22:49:00,38.1,34.9,29.60,WNW,298,4.0,7.0,88,0.00,,---,0.23,VWS V14.01,2013-02-12 03:49:00,
2013-02-11 22:50:00,38.0,34.8,29.60,WNW,300,4.0,7.0,88,0.00,,---,0.23,VWS V14.01,2013-02-12 03:50:00,
2013-02-11 22:51:00,38.0,34.8,29.60,NW,305,5.0,7.0,88,0.00,,---,0.23,VWS V14.01,2013-02-12 03:51:00,
2013-02-11 22:52:00,38.0,34.8,29.60,NW,306,5.0,7.0,88,0.00,,---,0.23,VWS V14.01,2013-02-12 03:52:00,
2013-02-11 22:53:00,37.9,35.0,29.60,NW,308,5.0,7.0,89,0.00,,---,0.23,VWS V14.01,2013-02-12 03:53:00,
2013-02-11 22:54:00,37.9,35.0,29.60,NW,308,5.0,7.0,89,0.00,,---,0.23,VWS V14.01,2013-02-12 03:54:00,
2013-02-11 22:55:00,37.9,35.0,29.60,NW,308,6.0,7.0,89,0.00,,---,0.23,VWS V14.01,2013-02-12 03:55:00,
2013-02-11 22:56:00,37.9,35.0,29.60,NW,309,6.0,7.0,89,0.00,,---,0.23,VWS V14.01,2013-02-12 03:56:00,
2013-02-11 22:57:00,37.9,35.0,29.60,NW,309,6.0,7.0,89,0.00,,---,0.23,VWS V14.01,2013-02-12 03:57:00,
2013-02-11 22:58:00,37.9,35.0,29.60,NW,309,6.0,7.0,89,0.00,,---,0.23,VWS V14.01,2013-02-12 03:58:00,
2013-02-11 22:59:00,37.9,35.0,29.60,NW,309,6.0,7.0,89,0.00,,---,0.23,VWS V14.01,2013-02-12 03:59:00,
2013-02-11 23:00:00,38.0,35.0,29.60,NW,309,5.0,7.0,89,0.00,,---,0.23,VWS V14.01,2013-02-12 04:00:00,
2013-02-11 23:01:00,38.0,35.0,29.60,NW,306,5.0,6.0,89,0.00,,---,0.23,VWS V14.01,2013-02-12 04:01:00,
2013-02-11 23:02:00,38.0,35.0,29.60,NW,306,6.0,6.0,89,0.00,,---,0.23,VWS V14.01,2013-02-12 04:02:00,
2013-02-11 23:03:00,38.0,34.8,29.60,WNW,303,6.0,7.0,88,0.00,,---,0.23,VWS V14.01,2013-02-12 04:03:00,
2013-02-11 23:04:00,38.0,34.8,29.60,WNW,302,5.0,7.0,88,0.00,,---,0.23,VWS V14.01,2013-02-12 04:04:00,
2013-02-11 23:05:00,38.0,34.8,29.60,WNW,298,5.0,7.0,88,0.00,,---,0.23,VWS V14.01,2013-02-12 04:05:00,
2013-02-11 23:06:00,38.1,34.9,29.60,WNW,298,4.0,7.0,88,0.00,,---,0.23,VWS V14.01,2013-02-12 04:06:00,
2013-02-11 23:07:00,38.1,34.9,29.59,WNW,298,5.0,7.0,88,0.00,,---,0.23,VWS V14.01,2013-02-12 04:07:00,
2013-02-11 23:08:00,38.1,34.9,29.59,WNW,298,5.0,7.0,88,0.00,,---,0.23,VWS V14.01,2013-02-12 04:08:00,
2013-02-11 23:09:00,38.2,35.0,29.59,WNW,298,5.0,7.0,88,0.00,,---,0.23,VWS V14.01,2013-02-12 04:09:00,
2013-02-11 23:10:00,38.1,34.9,29.59,WNW,296,5.0,7.0,88,0.00,,---,0.23,VWS V14.01,2013-02-12 04:10:00,
2013-02-11 23:11:00,38.1,34.9,29.60,WNW,292,3.0,7.0,88,0.00,,---,0.23,VWS V14.01,2013-02-12 04:11:00,
2013-02-11 23:12:00,38.2,35.0,29.59,WNW,292,4.0,7.0,88,0.00,,---,0.23,VWS V14.01,2013-02-12 04:12:00,
2013-02-11 23:13:00,38.2,35.0,29.59,WNW,291,4.0,7.0,88,0.00,,---,0.23,VWS V14.01,2013-02-12 04:13:00,
2013-02-11 23:14:00,38.2,35.0,29.59,WNW,287,5.0,7.0,88,0.00,,---,0.23,VWS V14.01,2013-02-12 04:14:00,
2013-02-11 23:15:00,38.2,35.0,29.59,WNW,285,6.0,7.0,88,0.00,,---,0.23,VWS V14.01,2013-02-12 04:15:00,
2013-02-11 23:16:00,38.2,35.0,29.59,WNW,284,6.0,7.0,88,0.00,,---,0.23,VWS V14.01,2013-02-12 04:16:00,
2013-02-11 23:17:00,38.3,35.3,29.59,WNW,283,5.0,7.0,89,0.00,,---,0.23,VWS V14.01,2013-02-12 04:17:00,
2013-02-11 23:18:00,38.3,35.3,29.59,WNW,282,6.0,7.0,89,0.00,,---,0.23,VWS V14.01,2013-02-12 04:18:00,
2013-02-11 23:19:00,38.3,35.3,29.60,West,281,6.0,7.0,89,0.00,,---,0.23,VWS V14.01,2013-02-12 04:19:00,
2013-02-11 23:20:00,38.3,35.3,29.60,West,274,6.0,7.0,89,0.00,,---,0.23,VWS V14.01,2013-02-12 04:20:00,
2013-02-11 23:21:00,38.2,35.2,29.60,West,273,6.0,7.0,89,0.00,,---,0.23,VWS V14.01,2013-02-12 04:21:00,
2013-02-11 23:22:00,38.2,35.2,29.60,West,271,6.0,7.0,89,0.00,,---,0.23,VWS V14.01,2013-02-12 04:22:00,
2013-02-11 23:23:00,38.3,35.3,29.60,West,269,6.0,7.0,89,0.00,,---,0.23,VWS V14.01,2013-02-12 04:23:00,
2013-02-11 23:24:00,38.4,35.5,29.60,West,267,7.0,7.0,89,0.00,,---,0.23,VWS V14.01,2013-02-12 04:24:00,
2013-02-11 23:25:00,38.4,35.5,29.60,West,268,6.0,8.0,89,0.00,,---,0.23,VWS V14.01,2013-02-12 04:25:00,
2013-02-11 23:26:00,38.5,35.5,29.60,West,269,8.0,8.0,89,0.00,,---,0.23,VWS V14.01,2013-02-12 04:26:00,
2013-02-11 23:27:00,38.5,35.5,29.60,West,269,6.0,8.0,89,0.00,,---,0.23,VWS V14.01,2013-02-12 04:27:00,
2013-02-11 23:28:00,38.6,35.4,29.61,West,269,5.0,8.0,88,0.00,,---,0.23,VWS V14.01,2013-02-12 04:28:00,
2013-02-11 23:29:00,38.6,35.4,29.60,West,271,6.0,8.0,88,0.00,,---,0.23,VWS V14.01,2013-02-12 04:29:00,
2013-02-11 23:30:00,38.6,35.4,29.60,West,271,5.0,8.0,88,0.00,,---,0.23,VWS V14.01,2013-02-12 04:30:00,
2013-02-11 23:31:00,38.6,35.4,29.60,West,271,5.0,6.0,88,0.00,,---,0.23,VWS V14.01,2013-02-12 04:31:00,
2013-02-11 23:32:00,38.6,35.4,29.60,West,271,5.0,6.0,88,0.00,,---,0.23,VWS V14.01,2013-02-12 04:32:00,
2013-02-11 23:33:00,38.7,35.5,29.60,West,275,5.0,7.0,88,0.00,,---,0.23,VWS V14.01,2013-02-12 04:33:00,
2013-02-11 23:34:00,38.7,35.5,29.60,West,275,4.0,7.0,88,0.00,,---,0.23,VWS V14.01,2013-02-12 04:34:00,
2013-02-11 23:35:00,38.7,35.5,29.60,West,280,5.0,7.0,88,0.00,,---,0.23,VWS V14.01,2013-02-12 04:35:00,
2013-02-11 23:36:00,38.7,35.5,29.60,West,278,5.0,7.0,88,0.00,,---,0.23,VWS V14.01,2013-02-12 04:36:00,
2013-02-11 23:37:00,38.7,35.5,29.60,West,277,5.0,7.0,88,0.00,,---,0.23,VWS V14.01,2013-02-12 04:37:00,
2013-02-11 23:38:00,38.8,35.6,29.60,West,278,5.0,7.0,88,0.00,,---,0.23,VWS V14.01,2013-02-12 04:38:00,
2013-02-11 23:39:00,38.8,35.6,29.60,West,278,6.0,7.0,88,0.00,,---,0.23,VWS V14.01,2013-02-12 04:39:00,
2013-02-11 23:40:00,38.7,35.5,29.60,West,277,7.0,7.0,88,0.00,,---,0.23,VWS V14.01,2013-02-12 04:40:00,
2013-02-11 23:41:00,38.7,35.5,29.60,West,275,5.0,7.0,88,0.00,,---,0.23,VWS V14.01,2013-02-12 04:41:00,
2013-02-11 23:42:00,38.8,35.6,29.60,West,273,6.0,8.0,88,0.00,,---,0.23,VWS V14.01,2013-02-12 04:42:00,
2013-02-11 23:43:00,38.8,35.6,29.60,West,273,7.0,8.0,88,0.00,,---,0.23,VWS V14.01,2013-02-12 04:43:00,
2013-02-11 23:44:00,38.9,35.9,29.60,West,273,6.0,8.0,89,0.00,,---,0.23,VWS V14.01,2013-02-12 04:44:00,
2013-02-11 23:45:00,38.9,35.7,29.60,West,275,5.0,8.0,88,0.00,,---,0.23,VWS V14.01,2013-02-12 04:45:00,
2013-02-11 23:46:00,38.9,35.9,29.59,West,276,5.0,8.0,89,0.00,,---,0.23,VWS V14.01,2013-02-12 04:46:00,
2013-02-11 23:47:00,38.9,35.9,29.59,West,280,5.0,8.0,89,0.00,,---,0.23,VWS V14.01,2013-02-12 04:47:00,
2013-02-11 23:48:00,38.9,35.7,29.59,West,280,5.0,8.0,88,0.00,,---,0.23,VWS V14.01,2013-02-12 04:48:00,
2013-02-11 23:49:00,38.9,35.9,29.59,West,280,6.0,8.0,89,0.00,,---,0.23,VWS V14.01,2013-02-12 04:49:00,
2013-02-11 23:50:00,38.9,35.9,29.59,West,279,6.0,8.0,89,0.00,,---,0.23,VWS V14.01,2013-02-12 04:50:00,
2013-02-11 23:51:00,38.9,35.9,29.59,West,278,7.0,8.0,89,0.00,,---,0.23,VWS V14.01,2013-02-12 04:51:00,
2013-02-11 23:52:00,38.9,35.9,29.59,West,275,6.0,8.0,89,0.00,,---,0.23,VWS V14.01,2013-02-12 04:52:00,
2013-02-11 23:53:00,39.0,36.0,29.59,West,273,5.0,8.0,89,0.00,,---,0.23,VWS V14.01,2013-02-12 04:53:00,
2013-02-11 23:54:00,38.9,35.9,29.59,West,273,5.0,8.0,89,0.00,,---,0.23,VWS V14.01,2013-02-12 04:54:00,
2013-02-11 23:55:00,38.9,35.9,29.59,West,273,5.0,8.0,89,0.00,,---,0.23,VWS V14.01,2013-02-12 04:55:00,
2013-02-11 23:56:00,38.9,35.9,29.59,West,274,4.0,8.0,89,0.00,,---,0.23,VWS V14.01,2013-02-12 04:56:00,
2013-02-11 23:57:00,38.9,35.9,29.59,West,274,4.0,8.0,89,0.00,,---,0.23,VWS V14.01,2013-02-12 04:57:00,
2013-02-11 23:58:00,38.8,35.6,29.59,West,274,5.0,8.0,88,0.00,,---,0.23,VWS V14.01,2013-02-12 04:58:00,
2013-02-11 23:59:00,38.8,35.6,29.59,West,276,5.0,8.0,88,0.00,,---,0.23,VWS V14.01,2013-02-12 04:59:00,